<?xml version="1.0" encoding="UTF-8" standalone="no" ?>
<gpx xmlns="http://www.topografix.com/GPX/1/1" xmlns:xsi="http://www.w3.org/2001/XMLSchema-instance" xsi:schemaLocation="http://www.topografix.com/GPX/1/1 http://www.topografix.com/GPX/1/1/gpx.xsd" version="1.1" creator="VisuGPX - https://www.visugpx.com">
  <metadata>
    <name>Balade découverte : Montreuil sur Mer</name>
    <desc><![CDATA[Découverte de la pittoresque cité de Montreuil sur mer]]></desc>
  </metadata>
  <trk>
    <name><![CDATA[SityTrail - Circuit Montreuil sur Mer]]></name>
    <desc><![CDATA[Découverte de la pittoresque cité de Montreuil sur mer]]></desc>
    <trkseg>
      <trkpt lat="50.46757" lon="1.76792">
        <ele>8</ele>
        <time>2021-08-10T12:54:01.515Z</time>
      </trkpt>
      <trkpt lat="50.46757" lon="1.76792">
        <ele>8</ele>
        <time>2021-08-10T12:54:02.110Z</time>
      </trkpt>
      <trkpt lat="50.4676" lon="1.76789">
        <ele>9</ele>
        <time>2021-08-10T12:54:06.109Z</time>
      </trkpt>
      <trkpt lat="50.46765" lon="1.76784">
        <ele>7</ele>
        <time>2021-08-10T12:54:11.102Z</time>
      </trkpt>
      <trkpt lat="50.46765" lon="1.76777">
        <ele>7</ele>
        <time>2021-08-10T12:54:16.116Z</time>
      </trkpt>
      <trkpt lat="50.46763" lon="1.7677">
        <ele>9</ele>
        <time>2021-08-10T12:54:20.119Z</time>
      </trkpt>
      <trkpt lat="50.4676" lon="1.76762">
        <ele>10</ele>
        <time>2021-08-10T12:54:25.105Z</time>
      </trkpt>
      <trkpt lat="50.46755" lon="1.76756">
        <ele>10</ele>
        <time>2021-08-10T12:54:30.111Z</time>
      </trkpt>
      <trkpt lat="50.46749" lon="1.76752">
        <ele>10</ele>
        <time>2021-08-10T12:54:35.112Z</time>
      </trkpt>
      <trkpt lat="50.46746" lon="1.76748">
        <ele>10</ele>
        <time>2021-08-10T12:54:39.115Z</time>
      </trkpt>
      <trkpt lat="50.46741" lon="1.76744">
        <ele>10</ele>
        <time>2021-08-10T12:54:44.116Z</time>
      </trkpt>
      <trkpt lat="50.46737" lon="1.76732">
        <ele>12</ele>
        <time>2021-08-10T12:54:49.115Z</time>
      </trkpt>
      <trkpt lat="50.46737" lon="1.76722">
        <ele>12</ele>
        <time>2021-08-10T12:54:54.105Z</time>
      </trkpt>
      <trkpt lat="50.46736" lon="1.76712">
        <ele>14</ele>
        <time>2021-08-10T12:54:59.118Z</time>
      </trkpt>
      <trkpt lat="50.46733" lon="1.76704">
        <ele>14</ele>
        <time>2021-08-10T12:55:04.114Z</time>
      </trkpt>
      <trkpt lat="50.46732" lon="1.76693">
        <ele>14</ele>
        <time>2021-08-10T12:55:09.109Z</time>
      </trkpt>
      <trkpt lat="50.4673" lon="1.76685">
        <ele>14</ele>
        <time>2021-08-10T12:55:13.135Z</time>
      </trkpt>
      <trkpt lat="50.4673" lon="1.76676">
        <ele>14</ele>
        <time>2021-08-10T12:55:18.113Z</time>
      </trkpt>
      <trkpt lat="50.46728" lon="1.76671">
        <ele>14</ele>
        <time>2021-08-10T12:55:23.111Z</time>
      </trkpt>
      <trkpt lat="50.46725" lon="1.76664">
        <ele>14</ele>
        <time>2021-08-10T12:55:28.105Z</time>
      </trkpt>
      <trkpt lat="50.46723" lon="1.76654">
        <ele>14</ele>
        <time>2021-08-10T12:55:33.112Z</time>
      </trkpt>
      <trkpt lat="50.46721" lon="1.76645">
        <ele>16</ele>
        <time>2021-08-10T12:55:38.102Z</time>
      </trkpt>
      <trkpt lat="50.4672" lon="1.76634">
        <ele>16</ele>
        <time>2021-08-10T12:55:43.110Z</time>
      </trkpt>
      <trkpt lat="50.46718" lon="1.76625">
        <ele>16</ele>
        <time>2021-08-10T12:55:48.105Z</time>
      </trkpt>
      <trkpt lat="50.46718" lon="1.76616">
        <ele>16</ele>
        <time>2021-08-10T12:55:53.107Z</time>
      </trkpt>
      <trkpt lat="50.4672" lon="1.76611">
        <ele>16</ele>
        <time>2021-08-10T12:55:58.103Z</time>
      </trkpt>
      <trkpt lat="50.46719" lon="1.76605">
        <ele>16</ele>
        <time>2021-08-10T12:56:02.102Z</time>
      </trkpt>
      <trkpt lat="50.46717" lon="1.76603">
        <ele>16</ele>
        <time>2021-08-10T12:56:07.103Z</time>
      </trkpt>
      <trkpt lat="50.46718" lon="1.76593">
        <ele>18</ele>
        <time>2021-08-10T12:56:12.106Z</time>
      </trkpt>
      <trkpt lat="50.46718" lon="1.76586">
        <ele>18</ele>
        <time>2021-08-10T12:56:16.102Z</time>
      </trkpt>
      <trkpt lat="50.46717" lon="1.76578">
        <ele>18</ele>
        <time>2021-08-10T12:56:21.109Z</time>
      </trkpt>
      <trkpt lat="50.46715" lon="1.7657">
        <ele>18</ele>
        <time>2021-08-10T12:56:25.999Z</time>
      </trkpt>
      <trkpt lat="50.46714" lon="1.76563">
        <ele>17</ele>
        <time>2021-08-10T12:56:31.107Z</time>
      </trkpt>
      <trkpt lat="50.46714" lon="1.76559">
        <ele>17</ele>
        <time>2021-08-10T12:56:36.102Z</time>
      </trkpt>
      <trkpt lat="50.46713" lon="1.76551">
        <ele>17</ele>
        <time>2021-08-10T12:56:41.108Z</time>
      </trkpt>
      <trkpt lat="50.46712" lon="1.76544">
        <ele>17</ele>
        <time>2021-08-10T12:56:45.106Z</time>
      </trkpt>
      <trkpt lat="50.4671" lon="1.76536">
        <ele>19</ele>
        <time>2021-08-10T12:56:50.100Z</time>
      </trkpt>
      <trkpt lat="50.46708" lon="1.76528">
        <ele>24</ele>
        <time>2021-08-10T12:56:54.106Z</time>
      </trkpt>
      <trkpt lat="50.46706" lon="1.76519">
        <ele>24</ele>
        <time>2021-08-10T12:56:59.109Z</time>
      </trkpt>
      <trkpt lat="50.46703" lon="1.76514">
        <ele>24</ele>
        <time>2021-08-10T12:57:03.105Z</time>
      </trkpt>
      <trkpt lat="50.46698" lon="1.76507">
        <ele>23</ele>
        <time>2021-08-10T12:57:08.101Z</time>
      </trkpt>
      <trkpt lat="50.46695" lon="1.765">
        <ele>23</ele>
        <time>2021-08-10T12:57:13.103Z</time>
      </trkpt>
      <trkpt lat="50.46689" lon="1.76495">
        <ele>23</ele>
        <time>2021-08-10T12:57:18.105Z</time>
      </trkpt>
      <trkpt lat="50.46684" lon="1.7649">
        <ele>23</ele>
        <time>2021-08-10T12:57:23.104Z</time>
      </trkpt>
      <trkpt lat="50.46681" lon="1.76483">
        <ele>25</ele>
        <time>2021-08-10T12:57:28.105Z</time>
      </trkpt>
      <trkpt lat="50.4668" lon="1.76477">
        <ele>30</ele>
        <time>2021-08-10T12:57:32.104Z</time>
      </trkpt>
      <trkpt lat="50.46675" lon="1.76472">
        <ele>30</ele>
        <time>2021-08-10T12:57:37.101Z</time>
      </trkpt>
      <trkpt lat="50.46672" lon="1.76467">
        <ele>30</ele>
        <time>2021-08-10T12:57:41.103Z</time>
      </trkpt>
      <trkpt lat="50.46669" lon="1.76464">
        <ele>30</ele>
        <time>2021-08-10T12:57:46.121Z</time>
      </trkpt>
      <trkpt lat="50.46667" lon="1.76464">
        <ele>30</ele>
        <time>2021-08-10T12:57:59.118Z</time>
      </trkpt>
      <trkpt lat="50.46668" lon="1.76466">
        <ele>30</ele>
        <time>2021-08-10T12:58:03.999Z</time>
      </trkpt>
      <trkpt lat="50.46666" lon="1.76474">
        <ele>30</ele>
        <time>2021-08-10T12:58:09.101Z</time>
      </trkpt>
      <trkpt lat="50.46666" lon="1.76484">
        <ele>30</ele>
        <time>2021-08-10T12:58:13.105Z</time>
      </trkpt>
      <trkpt lat="50.46666" lon="1.76498">
        <ele>29</ele>
        <time>2021-08-10T12:58:18.104Z</time>
      </trkpt>
      <trkpt lat="50.46665" lon="1.76508">
        <ele>29</ele>
        <time>2021-08-10T12:58:23.105Z</time>
      </trkpt>
      <trkpt lat="50.46666" lon="1.76519">
        <ele>30</ele>
        <time>2021-08-10T12:58:28.109Z</time>
      </trkpt>
      <trkpt lat="50.46665" lon="1.7653">
        <ele>30</ele>
        <time>2021-08-10T12:58:32.999Z</time>
      </trkpt>
      <trkpt lat="50.46667" lon="1.76536">
        <ele>30</ele>
        <time>2021-08-10T12:58:37.101Z</time>
      </trkpt>
      <trkpt lat="50.46665" lon="1.76536">
        <ele>30</ele>
        <time>2021-08-10T12:58:42.115Z</time>
      </trkpt>
      <trkpt lat="50.46663" lon="1.76532">
        <ele>30</ele>
        <time>2021-08-10T12:58:47.102Z</time>
      </trkpt>
      <trkpt lat="50.46659" lon="1.76528">
        <ele>30</ele>
        <time>2021-08-10T12:58:52.105Z</time>
      </trkpt>
      <trkpt lat="50.46655" lon="1.7652">
        <ele>30</ele>
        <time>2021-08-10T12:58:57.101Z</time>
      </trkpt>
      <trkpt lat="50.46653" lon="1.76514">
        <ele>29</ele>
        <time>2021-08-10T12:59:02.102Z</time>
      </trkpt>
      <trkpt lat="50.4665" lon="1.76507">
        <ele>36</ele>
        <time>2021-08-10T12:59:07.102Z</time>
      </trkpt>
      <trkpt lat="50.46651" lon="1.76502">
        <ele>36</ele>
        <time>2021-08-10T12:59:11.999Z</time>
      </trkpt>
      <trkpt lat="50.46652" lon="1.76499">
        <ele>36</ele>
        <time>2021-08-10T12:59:16.104Z</time>
      </trkpt>
      <trkpt lat="50.46651" lon="1.76499">
        <ele>36</ele>
        <time>2021-08-10T12:59:20.109Z</time>
      </trkpt>
      <trkpt lat="50.4665" lon="1.76497">
        <ele>36</ele>
        <time>2021-08-10T12:59:25.112Z</time>
      </trkpt>
      <trkpt lat="50.46648" lon="1.76489">
        <ele>36</ele>
        <time>2021-08-10T12:59:30.107Z</time>
      </trkpt>
      <trkpt lat="50.46646" lon="1.76482">
        <ele>36</ele>
        <time>2021-08-10T12:59:34.099Z</time>
      </trkpt>
      <trkpt lat="50.46637" lon="1.76477">
        <ele>36</ele>
        <time>2021-08-10T13:00:09.099Z</time>
      </trkpt>
      <trkpt lat="50.46637" lon="1.76477">
        <ele>36</ele>
        <time>2021-08-10T13:00:13.100Z</time>
      </trkpt>
      <trkpt lat="50.46637" lon="1.76479">
        <ele>36</ele>
        <time>2021-08-10T13:00:17.105Z</time>
      </trkpt>
      <trkpt lat="50.46634" lon="1.7648">
        <ele>36</ele>
        <time>2021-08-10T13:00:22.108Z</time>
      </trkpt>
      <trkpt lat="50.46632" lon="1.76483">
        <ele>36</ele>
        <time>2021-08-10T13:00:27.104Z</time>
      </trkpt>
      <trkpt lat="50.46631" lon="1.76481">
        <ele>36</ele>
        <time>2021-08-10T13:00:32.103Z</time>
      </trkpt>
      <trkpt lat="50.46632" lon="1.76486">
        <ele>36</ele>
        <time>2021-08-10T13:00:36.105Z</time>
      </trkpt>
      <trkpt lat="50.46632" lon="1.76495">
        <ele>36</ele>
        <time>2021-08-10T13:00:41.113Z</time>
      </trkpt>
      <trkpt lat="50.46631" lon="1.76504">
        <ele>36</ele>
        <time>2021-08-10T13:00:46.106Z</time>
      </trkpt>
      <trkpt lat="50.46632" lon="1.76514">
        <ele>36</ele>
        <time>2021-08-10T13:00:50.999Z</time>
      </trkpt>
      <trkpt lat="50.46632" lon="1.76522">
        <ele>36</ele>
        <time>2021-08-10T13:00:55.108Z</time>
      </trkpt>
      <trkpt lat="50.46633" lon="1.7653">
        <ele>36</ele>
        <time>2021-08-10T13:00:59.104Z</time>
      </trkpt>
      <trkpt lat="50.46633" lon="1.76539">
        <ele>36</ele>
        <time>2021-08-10T13:01:04.109Z</time>
      </trkpt>
      <trkpt lat="50.46633" lon="1.76548">
        <ele>40</ele>
        <time>2021-08-10T13:01:09.103Z</time>
      </trkpt>
      <trkpt lat="50.46634" lon="1.76558">
        <ele>40</ele>
        <time>2021-08-10T13:01:14.104Z</time>
      </trkpt>
      <trkpt lat="50.46634" lon="1.76565">
        <ele>40</ele>
        <time>2021-08-10T13:01:17.999Z</time>
      </trkpt>
      <trkpt lat="50.46636" lon="1.76574">
        <ele>36</ele>
        <time>2021-08-10T13:01:23.106Z</time>
      </trkpt>
      <trkpt lat="50.46642" lon="1.76584">
        <ele>36</ele>
        <time>2021-08-10T13:01:57.124Z</time>
      </trkpt>
      <trkpt lat="50.46641" lon="1.76592">
        <ele>36</ele>
        <time>2021-08-10T13:02:02.105Z</time>
      </trkpt>
      <trkpt lat="50.46639" lon="1.76598">
        <ele>37</ele>
        <time>2021-08-10T13:02:07.100Z</time>
      </trkpt>
      <trkpt lat="50.46638" lon="1.76605">
        <ele>37</ele>
        <time>2021-08-10T13:02:11.109Z</time>
      </trkpt>
      <trkpt lat="50.46633" lon="1.76607">
        <ele>37</ele>
        <time>2021-08-10T13:02:16.105Z</time>
      </trkpt>
      <trkpt lat="50.46631" lon="1.76606">
        <ele>37</ele>
        <time>2021-08-10T13:02:20.129Z</time>
      </trkpt>
      <trkpt lat="50.46627" lon="1.76609">
        <ele>37</ele>
        <time>2021-08-10T13:02:25.102Z</time>
      </trkpt>
      <trkpt lat="50.46623" lon="1.76613">
        <ele>41</ele>
        <time>2021-08-10T13:02:29.104Z</time>
      </trkpt>
      <trkpt lat="50.4662" lon="1.7662">
        <ele>41</ele>
        <time>2021-08-10T13:02:33.999Z</time>
      </trkpt>
      <trkpt lat="50.46612" lon="1.7663">
        <ele>38</ele>
        <time>2021-08-10T13:02:44.103Z</time>
      </trkpt>
      <trkpt lat="50.46613" lon="1.76633">
        <ele>38</ele>
        <time>2021-08-10T13:02:49.103Z</time>
      </trkpt>
      <trkpt lat="50.46613" lon="1.76634">
        <ele>38</ele>
        <time>2021-08-10T13:02:52.999Z</time>
      </trkpt>
      <trkpt lat="50.46613" lon="1.76636">
        <ele>38</ele>
        <time>2021-08-10T13:02:57.105Z</time>
      </trkpt>
      <trkpt lat="50.46616" lon="1.76646">
        <ele>38</ele>
        <time>2021-08-10T13:03:02.102Z</time>
      </trkpt>
      <trkpt lat="50.46618" lon="1.76652">
        <ele>38</ele>
        <time>2021-08-10T13:03:06.107Z</time>
      </trkpt>
      <trkpt lat="50.46616" lon="1.76659">
        <ele>37</ele>
        <time>2021-08-10T13:03:10.999Z</time>
      </trkpt>
      <trkpt lat="50.46611" lon="1.76664">
        <ele>37</ele>
        <time>2021-08-10T13:03:15.106Z</time>
      </trkpt>
      <trkpt lat="50.46607" lon="1.7667">
        <ele>37</ele>
        <time>2021-08-10T13:03:19.105Z</time>
      </trkpt>
      <trkpt lat="50.46603" lon="1.76675">
        <ele>37</ele>
        <time>2021-08-10T13:03:23.999Z</time>
      </trkpt>
      <trkpt lat="50.46601" lon="1.76676">
        <ele>37</ele>
        <time>2021-08-10T13:03:28.106Z</time>
      </trkpt>
      <trkpt lat="50.46596" lon="1.76682">
        <ele>36</ele>
        <time>2021-08-10T13:03:33.112Z</time>
      </trkpt>
      <trkpt lat="50.46592" lon="1.76689">
        <ele>36</ele>
        <time>2021-08-10T13:03:37.999Z</time>
      </trkpt>
      <trkpt lat="50.46586" lon="1.76694">
        <ele>36</ele>
        <time>2021-08-10T13:03:43.102Z</time>
      </trkpt>
      <trkpt lat="50.46582" lon="1.76699">
        <ele>36</ele>
        <time>2021-08-10T13:03:47.105Z</time>
      </trkpt>
      <trkpt lat="50.46577" lon="1.76705">
        <ele>36</ele>
        <time>2021-08-10T13:03:52.102Z</time>
      </trkpt>
      <trkpt lat="50.46574" lon="1.7671">
        <ele>30</ele>
        <time>2021-08-10T13:03:56.109Z</time>
      </trkpt>
      <trkpt lat="50.46569" lon="1.76715">
        <ele>37</ele>
        <time>2021-08-10T13:04:01.113Z</time>
      </trkpt>
      <trkpt lat="50.46565" lon="1.7672">
        <ele>37</ele>
        <time>2021-08-10T13:04:06.103Z</time>
      </trkpt>
      <trkpt lat="50.4656" lon="1.76725">
        <ele>37</ele>
        <time>2021-08-10T13:04:10.999Z</time>
      </trkpt>
      <trkpt lat="50.46556" lon="1.76729">
        <ele>37</ele>
        <time>2021-08-10T13:04:14.999Z</time>
      </trkpt>
      <trkpt lat="50.46552" lon="1.76733">
        <ele>37</ele>
        <time>2021-08-10T13:04:18.999Z</time>
      </trkpt>
      <trkpt lat="50.46548" lon="1.76738">
        <ele>32</ele>
        <time>2021-08-10T13:04:22.999Z</time>
      </trkpt>
      <trkpt lat="50.46544" lon="1.76745">
        <ele>32</ele>
        <time>2021-08-10T13:04:28.108Z</time>
      </trkpt>
      <trkpt lat="50.46541" lon="1.76752">
        <ele>38</ele>
        <time>2021-08-10T13:04:32.102Z</time>
      </trkpt>
      <trkpt lat="50.46539" lon="1.76761">
        <ele>38</ele>
        <time>2021-08-10T13:04:37.102Z</time>
      </trkpt>
      <trkpt lat="50.46536" lon="1.76767">
        <ele>34</ele>
        <time>2021-08-10T13:04:41.104Z</time>
      </trkpt>
      <trkpt lat="50.46533" lon="1.76773">
        <ele>34</ele>
        <time>2021-08-10T13:04:45.126Z</time>
      </trkpt>
      <trkpt lat="50.46529" lon="1.7678">
        <ele>34</ele>
        <time>2021-08-10T13:04:50.102Z</time>
      </trkpt>
      <trkpt lat="50.46526" lon="1.76785">
        <ele>34</ele>
        <time>2021-08-10T13:04:53.999Z</time>
      </trkpt>
      <trkpt lat="50.46522" lon="1.76793">
        <ele>29</ele>
        <time>2021-08-10T13:04:59.101Z</time>
      </trkpt>
      <trkpt lat="50.46517" lon="1.76799">
        <ele>29</ele>
        <time>2021-08-10T13:05:04.107Z</time>
      </trkpt>
      <trkpt lat="50.46513" lon="1.76803">
        <ele>33</ele>
        <time>2021-08-10T13:05:08.109Z</time>
      </trkpt>
      <trkpt lat="50.46507" lon="1.76804">
        <ele>33</ele>
        <time>2021-08-10T13:05:13.113Z</time>
      </trkpt>
      <trkpt lat="50.46502" lon="1.76801">
        <ele>33</ele>
        <time>2021-08-10T13:05:18.114Z</time>
      </trkpt>
      <trkpt lat="50.46499" lon="1.76794">
        <ele>33</ele>
        <time>2021-08-10T13:05:23.104Z</time>
      </trkpt>
      <trkpt lat="50.46496" lon="1.76789">
        <ele>42</ele>
        <time>2021-08-10T13:05:27.999Z</time>
      </trkpt>
      <trkpt lat="50.46494" lon="1.76789">
        <ele>42</ele>
        <time>2021-08-10T13:05:32.999Z</time>
      </trkpt>
      <trkpt lat="50.46487" lon="1.76786">
        <ele>42</ele>
        <time>2021-08-10T13:05:38.103Z</time>
      </trkpt>
      <trkpt lat="50.46482" lon="1.76785">
        <ele>42</ele>
        <time>2021-08-10T13:05:42.108Z</time>
      </trkpt>
      <trkpt lat="50.46475" lon="1.76785">
        <ele>42</ele>
        <time>2021-08-10T13:05:46.999Z</time>
      </trkpt>
      <trkpt lat="50.46467" lon="1.76783">
        <ele>42</ele>
        <time>2021-08-10T13:05:51.999Z</time>
      </trkpt>
      <trkpt lat="50.46459" lon="1.76783">
        <ele>42</ele>
        <time>2021-08-10T13:05:57.103Z</time>
      </trkpt>
      <trkpt lat="50.46453" lon="1.76782">
        <ele>43</ele>
        <time>2021-08-10T13:06:02.102Z</time>
      </trkpt>
      <trkpt lat="50.46447" lon="1.76783">
        <ele>43</ele>
        <time>2021-08-10T13:06:06.999Z</time>
      </trkpt>
      <trkpt lat="50.46442" lon="1.76783">
        <ele>43</ele>
        <time>2021-08-10T13:06:11.108Z</time>
      </trkpt>
      <trkpt lat="50.46436" lon="1.76783">
        <ele>43</ele>
        <time>2021-08-10T13:06:15.999Z</time>
      </trkpt>
      <trkpt lat="50.46432" lon="1.76784">
        <ele>43</ele>
        <time>2021-08-10T13:06:20.107Z</time>
      </trkpt>
      <trkpt lat="50.46426" lon="1.76784">
        <ele>42</ele>
        <time>2021-08-10T13:06:24.999Z</time>
      </trkpt>
      <trkpt lat="50.4642" lon="1.76784">
        <ele>42</ele>
        <time>2021-08-10T13:06:30.101Z</time>
      </trkpt>
      <trkpt lat="50.46415" lon="1.76786">
        <ele>42</ele>
        <time>2021-08-10T13:06:34.999Z</time>
      </trkpt>
      <trkpt lat="50.46414" lon="1.76793">
        <ele>36</ele>
        <time>2021-08-10T13:06:40.101Z</time>
      </trkpt>
      <trkpt lat="50.4641" lon="1.76801">
        <ele>36</ele>
        <time>2021-08-10T13:06:44.101Z</time>
      </trkpt>
      <trkpt lat="50.46403" lon="1.76804">
        <ele>36</ele>
        <time>2021-08-10T13:06:49.103Z</time>
      </trkpt>
      <trkpt lat="50.46399" lon="1.76806">
        <ele>34</ele>
        <time>2021-08-10T13:06:53.999Z</time>
      </trkpt>
      <trkpt lat="50.46395" lon="1.76804">
        <ele>34</ele>
        <time>2021-08-10T13:06:59.100Z</time>
      </trkpt>
      <trkpt lat="50.4639" lon="1.768">
        <ele>34</ele>
        <time>2021-08-10T13:07:04.102Z</time>
      </trkpt>
      <trkpt lat="50.46387" lon="1.76795">
        <ele>34</ele>
        <time>2021-08-10T13:07:08.104Z</time>
      </trkpt>
      <trkpt lat="50.46384" lon="1.76789">
        <ele>38</ele>
        <time>2021-08-10T13:07:13.102Z</time>
      </trkpt>
      <trkpt lat="50.46383" lon="1.76789">
        <ele>38</ele>
        <time>2021-08-10T13:07:17.999Z</time>
      </trkpt>
      <trkpt lat="50.46386" lon="1.7678">
        <ele>38</ele>
        <time>2021-08-10T13:07:23.102Z</time>
      </trkpt>
      <trkpt lat="50.46388" lon="1.76768">
        <ele>38</ele>
        <time>2021-08-10T13:07:28.105Z</time>
      </trkpt>
      <trkpt lat="50.46382" lon="1.76759">
        <ele>40</ele>
        <time>2021-08-10T13:07:32.999Z</time>
      </trkpt>
      <trkpt lat="50.46378" lon="1.76753">
        <ele>40</ele>
        <time>2021-08-10T13:07:37.104Z</time>
      </trkpt>
      <trkpt lat="50.46373" lon="1.76746">
        <ele>36</ele>
        <time>2021-08-10T13:07:41.999Z</time>
      </trkpt>
      <trkpt lat="50.46368" lon="1.76741">
        <ele>36</ele>
        <time>2021-08-10T13:07:47.107Z</time>
      </trkpt>
      <trkpt lat="50.46363" lon="1.76737">
        <ele>36</ele>
        <time>2021-08-10T13:07:51.999Z</time>
      </trkpt>
      <trkpt lat="50.46358" lon="1.76731">
        <ele>38</ele>
        <time>2021-08-10T13:07:57.100Z</time>
      </trkpt>
      <trkpt lat="50.46354" lon="1.76725">
        <ele>38</ele>
        <time>2021-08-10T13:08:01.110Z</time>
      </trkpt>
      <trkpt lat="50.46349" lon="1.7672">
        <ele>38</ele>
        <time>2021-08-10T13:08:05.999Z</time>
      </trkpt>
      <trkpt lat="50.46344" lon="1.76714">
        <ele>35</ele>
        <time>2021-08-10T13:08:11.099Z</time>
      </trkpt>
      <trkpt lat="50.4634" lon="1.76707">
        <ele>38</ele>
        <time>2021-08-10T13:08:16.100Z</time>
      </trkpt>
      <trkpt lat="50.46337" lon="1.76701">
        <ele>38</ele>
        <time>2021-08-10T13:08:21.103Z</time>
      </trkpt>
      <trkpt lat="50.46332" lon="1.76696">
        <ele>38</ele>
        <time>2021-08-10T13:08:26.104Z</time>
      </trkpt>
      <trkpt lat="50.46327" lon="1.7669">
        <ele>38</ele>
        <time>2021-08-10T13:08:31.101Z</time>
      </trkpt>
      <trkpt lat="50.46322" lon="1.76685">
        <ele>38</ele>
        <time>2021-08-10T13:08:35.999Z</time>
      </trkpt>
      <trkpt lat="50.46318" lon="1.76681">
        <ele>35</ele>
        <time>2021-08-10T13:08:40.103Z</time>
      </trkpt>
      <trkpt lat="50.46313" lon="1.76676">
        <ele>38</ele>
        <time>2021-08-10T13:08:45.106Z</time>
      </trkpt>
      <trkpt lat="50.46309" lon="1.76669">
        <ele>38</ele>
        <time>2021-08-10T13:08:49.999Z</time>
      </trkpt>
      <trkpt lat="50.46306" lon="1.76664">
        <ele>38</ele>
        <time>2021-08-10T13:08:53.999Z</time>
      </trkpt>
      <trkpt lat="50.46301" lon="1.76661">
        <ele>38</ele>
        <time>2021-08-10T13:08:58.099Z</time>
      </trkpt>
      <trkpt lat="50.46291" lon="1.76648">
        <ele>38</ele>
        <time>2021-08-10T13:09:26.999Z</time>
      </trkpt>
      <trkpt lat="50.46287" lon="1.76646">
        <ele>38</ele>
        <time>2021-08-10T13:09:31.999Z</time>
      </trkpt>
      <trkpt lat="50.46283" lon="1.76641">
        <ele>38</ele>
        <time>2021-08-10T13:09:36.108Z</time>
      </trkpt>
      <trkpt lat="50.46281" lon="1.76639">
        <ele>38</ele>
        <time>2021-08-10T13:09:40.999Z</time>
      </trkpt>
      <trkpt lat="50.46281" lon="1.76639">
        <ele>38</ele>
        <time>2021-08-10T13:09:45.126Z</time>
      </trkpt>
      <trkpt lat="50.4628" lon="1.76637">
        <ele>38</ele>
        <time>2021-08-10T13:09:50.099Z</time>
      </trkpt>
      <trkpt lat="50.46275" lon="1.76629">
        <ele>38</ele>
        <time>2021-08-10T13:09:55.105Z</time>
      </trkpt>
      <trkpt lat="50.46269" lon="1.76622">
        <ele>41</ele>
        <time>2021-08-10T13:10:00.099Z</time>
      </trkpt>
      <trkpt lat="50.46264" lon="1.76618">
        <ele>41</ele>
        <time>2021-08-10T13:10:04.100Z</time>
      </trkpt>
      <trkpt lat="50.46257" lon="1.76616">
        <ele>38</ele>
        <time>2021-08-10T13:10:09.109Z</time>
      </trkpt>
      <trkpt lat="50.4625" lon="1.76615">
        <ele>38</ele>
        <time>2021-08-10T13:10:13.999Z</time>
      </trkpt>
      <trkpt lat="50.46246" lon="1.76608">
        <ele>38</ele>
        <time>2021-08-10T13:10:17.999Z</time>
      </trkpt>
      <trkpt lat="50.46244" lon="1.76599">
        <ele>38</ele>
        <time>2021-08-10T13:10:22.999Z</time>
      </trkpt>
      <trkpt lat="50.46242" lon="1.76592">
        <ele>40</ele>
        <time>2021-08-10T13:10:26.999Z</time>
      </trkpt>
      <trkpt lat="50.46239" lon="1.76583">
        <ele>40</ele>
        <time>2021-08-10T13:10:32.101Z</time>
      </trkpt>
      <trkpt lat="50.46239" lon="1.7658">
        <ele>40</ele>
        <time>2021-08-10T13:10:36.999Z</time>
      </trkpt>
      <trkpt lat="50.46237" lon="1.76574">
        <ele>40</ele>
        <time>2021-08-10T13:10:40.999Z</time>
      </trkpt>
      <trkpt lat="50.46236" lon="1.76566">
        <ele>39</ele>
        <time>2021-08-10T13:10:45.107Z</time>
      </trkpt>
      <trkpt lat="50.46233" lon="1.76555">
        <ele>39</ele>
        <time>2021-08-10T13:10:49.999Z</time>
      </trkpt>
      <trkpt lat="50.46231" lon="1.76547">
        <ele>39</ele>
        <time>2021-08-10T13:10:54.101Z</time>
      </trkpt>
      <trkpt lat="50.46229" lon="1.76537">
        <ele>40</ele>
        <time>2021-08-10T13:10:58.999Z</time>
      </trkpt>
      <trkpt lat="50.46226" lon="1.76528">
        <ele>40</ele>
        <time>2021-08-10T13:11:03.999Z</time>
      </trkpt>
      <trkpt lat="50.46223" lon="1.76519">
        <ele>40</ele>
        <time>2021-08-10T13:11:08.100Z</time>
      </trkpt>
      <trkpt lat="50.46221" lon="1.76509">
        <ele>43</ele>
        <time>2021-08-10T13:11:12.999Z</time>
      </trkpt>
      <trkpt lat="50.46218" lon="1.76501">
        <ele>43</ele>
        <time>2021-08-10T13:11:16.999Z</time>
      </trkpt>
      <trkpt lat="50.46216" lon="1.76492">
        <ele>43</ele>
        <time>2021-08-10T13:11:22.109Z</time>
      </trkpt>
      <trkpt lat="50.46213" lon="1.76482">
        <ele>43</ele>
        <time>2021-08-10T13:11:26.999Z</time>
      </trkpt>
      <trkpt lat="50.46211" lon="1.76474">
        <ele>43</ele>
        <time>2021-08-10T13:11:32.102Z</time>
      </trkpt>
      <trkpt lat="50.46209" lon="1.76465">
        <ele>43</ele>
        <time>2021-08-10T13:11:37.107Z</time>
      </trkpt>
      <trkpt lat="50.46208" lon="1.76462">
        <ele>43</ele>
        <time>2021-08-10T13:11:41.104Z</time>
      </trkpt>
      <trkpt lat="50.46208" lon="1.76462">
        <ele>40</ele>
        <time>2021-08-10T13:11:45.999Z</time>
      </trkpt>
      <trkpt lat="50.46206" lon="1.76455">
        <ele>41</ele>
        <time>2021-08-10T13:11:50.116Z</time>
      </trkpt>
      <trkpt lat="50.46205" lon="1.76452">
        <ele>41</ele>
        <time>2021-08-10T13:11:54.999Z</time>
      </trkpt>
      <trkpt lat="50.46202" lon="1.76444">
        <ele>41</ele>
        <time>2021-08-10T13:12:00.107Z</time>
      </trkpt>
      <trkpt lat="50.46201" lon="1.76436">
        <ele>41</ele>
        <time>2021-08-10T13:12:03.999Z</time>
      </trkpt>
      <trkpt lat="50.46198" lon="1.76426">
        <ele>42</ele>
        <time>2021-08-10T13:12:08.999Z</time>
      </trkpt>
      <trkpt lat="50.46196" lon="1.76419">
        <ele>42</ele>
        <time>2021-08-10T13:12:13.100Z</time>
      </trkpt>
      <trkpt lat="50.46194" lon="1.76411">
        <ele>42</ele>
        <time>2021-08-10T13:12:17.100Z</time>
      </trkpt>
      <trkpt lat="50.46192" lon="1.76402">
        <ele>42</ele>
        <time>2021-08-10T13:12:55.102Z</time>
      </trkpt>
      <trkpt lat="50.46193" lon="1.76398">
        <ele>42</ele>
        <time>2021-08-10T13:12:59.109Z</time>
      </trkpt>
      <trkpt lat="50.46196" lon="1.76391">
        <ele>42</ele>
        <time>2021-08-10T13:13:04.110Z</time>
      </trkpt>
      <trkpt lat="50.46197" lon="1.76383">
        <ele>42</ele>
        <time>2021-08-10T13:13:09.113Z</time>
      </trkpt>
      <trkpt lat="50.462" lon="1.76381">
        <ele>42</ele>
        <time>2021-08-10T13:13:14.108Z</time>
      </trkpt>
      <trkpt lat="50.46201" lon="1.76376">
        <ele>42</ele>
        <time>2021-08-10T13:13:18.999Z</time>
      </trkpt>
      <trkpt lat="50.46204" lon="1.76368">
        <ele>44</ele>
        <time>2021-08-10T13:13:23.999Z</time>
      </trkpt>
      <trkpt lat="50.46207" lon="1.76363">
        <ele>44</ele>
        <time>2021-08-10T13:13:27.999Z</time>
      </trkpt>
      <trkpt lat="50.46209" lon="1.7636">
        <ele>45</ele>
        <time>2021-08-10T13:13:33.101Z</time>
      </trkpt>
      <trkpt lat="50.46212" lon="1.76354">
        <ele>45</ele>
        <time>2021-08-10T13:13:37.999Z</time>
      </trkpt>
      <trkpt lat="50.46214" lon="1.7635">
        <ele>45</ele>
        <time>2021-08-10T13:13:42.999Z</time>
      </trkpt>
      <trkpt lat="50.46217" lon="1.76343">
        <ele>45</ele>
        <time>2021-08-10T13:13:47.107Z</time>
      </trkpt>
      <trkpt lat="50.46221" lon="1.76335">
        <ele>45</ele>
        <time>2021-08-10T13:13:51.999Z</time>
      </trkpt>
      <trkpt lat="50.46225" lon="1.76321">
        <ele>45</ele>
        <time>2021-08-10T13:14:16.101Z</time>
      </trkpt>
      <trkpt lat="50.46231" lon="1.76316">
        <ele>46</ele>
        <time>2021-08-10T13:14:21.101Z</time>
      </trkpt>
      <trkpt lat="50.46234" lon="1.7631">
        <ele>46</ele>
        <time>2021-08-10T13:14:25.104Z</time>
      </trkpt>
      <trkpt lat="50.46237" lon="1.76301">
        <ele>46</ele>
        <time>2021-08-10T13:14:30.102Z</time>
      </trkpt>
      <trkpt lat="50.46241" lon="1.76294">
        <ele>46</ele>
        <time>2021-08-10T13:14:35.110Z</time>
      </trkpt>
      <trkpt lat="50.46243" lon="1.76285">
        <ele>47</ele>
        <time>2021-08-10T13:14:39.999Z</time>
      </trkpt>
      <trkpt lat="50.46247" lon="1.76276">
        <ele>47</ele>
        <time>2021-08-10T13:14:45.107Z</time>
      </trkpt>
      <trkpt lat="50.46251" lon="1.7627">
        <ele>47</ele>
        <time>2021-08-10T13:14:50.099Z</time>
      </trkpt>
      <trkpt lat="50.46254" lon="1.76263">
        <ele>47</ele>
        <time>2021-08-10T13:14:54.999Z</time>
      </trkpt>
      <trkpt lat="50.46257" lon="1.76257">
        <ele>47</ele>
        <time>2021-08-10T13:14:59.105Z</time>
      </trkpt>
      <trkpt lat="50.46261" lon="1.76249">
        <ele>47</ele>
        <time>2021-08-10T13:15:04.100Z</time>
      </trkpt>
      <trkpt lat="50.46264" lon="1.76241">
        <ele>48</ele>
        <time>2021-08-10T13:15:09.120Z</time>
      </trkpt>
      <trkpt lat="50.46268" lon="1.76233">
        <ele>48</ele>
        <time>2021-08-10T13:15:13.999Z</time>
      </trkpt>
      <trkpt lat="50.4627" lon="1.76226">
        <ele>48</ele>
        <time>2021-08-10T13:15:17.999Z</time>
      </trkpt>
      <trkpt lat="50.46274" lon="1.76218">
        <ele>48</ele>
        <time>2021-08-10T13:15:23.115Z</time>
      </trkpt>
      <trkpt lat="50.46277" lon="1.76209">
        <ele>48</ele>
        <time>2021-08-10T13:15:27.105Z</time>
      </trkpt>
      <trkpt lat="50.46279" lon="1.76206">
        <ele>49</ele>
        <time>2021-08-10T13:15:31.999Z</time>
      </trkpt>
      <trkpt lat="50.46282" lon="1.7621">
        <ele>48</ele>
        <time>2021-08-10T13:15:37.102Z</time>
      </trkpt>
      <trkpt lat="50.4628" lon="1.76202">
        <ele>49</ele>
        <time>2021-08-10T13:15:42.105Z</time>
      </trkpt>
      <trkpt lat="50.46283" lon="1.76194">
        <ele>49</ele>
        <time>2021-08-10T13:15:47.107Z</time>
      </trkpt>
      <trkpt lat="50.46286" lon="1.76189">
        <ele>49</ele>
        <time>2021-08-10T13:15:51.118Z</time>
      </trkpt>
      <trkpt lat="50.4629" lon="1.76182">
        <ele>49</ele>
        <time>2021-08-10T13:15:55.999Z</time>
      </trkpt>
      <trkpt lat="50.46293" lon="1.76174">
        <ele>51</ele>
        <time>2021-08-10T13:16:01.102Z</time>
      </trkpt>
      <trkpt lat="50.46298" lon="1.76166">
        <ele>51</ele>
        <time>2021-08-10T13:16:06.105Z</time>
      </trkpt>
      <trkpt lat="50.46301" lon="1.76158">
        <ele>51</ele>
        <time>2021-08-10T13:16:11.104Z</time>
      </trkpt>
      <trkpt lat="50.46304" lon="1.76153">
        <ele>51</ele>
        <time>2021-08-10T13:16:15.115Z</time>
      </trkpt>
      <trkpt lat="50.46308" lon="1.76146">
        <ele>50</ele>
        <time>2021-08-10T13:16:20.103Z</time>
      </trkpt>
      <trkpt lat="50.46312" lon="1.76139">
        <ele>50</ele>
        <time>2021-08-10T13:16:25.104Z</time>
      </trkpt>
      <trkpt lat="50.46316" lon="1.76144">
        <ele>50</ele>
        <time>2021-08-10T13:16:29.115Z</time>
      </trkpt>
      <trkpt lat="50.46317" lon="1.76152">
        <ele>50</ele>
        <time>2021-08-10T13:16:49.111Z</time>
      </trkpt>
      <trkpt lat="50.46321" lon="1.76149">
        <ele>51</ele>
        <time>2021-08-10T13:16:53.999Z</time>
      </trkpt>
      <trkpt lat="50.46315" lon="1.76132">
        <ele>50</ele>
        <time>2021-08-10T13:16:59.100Z</time>
      </trkpt>
      <trkpt lat="50.46316" lon="1.76131">
        <ele>50</ele>
        <time>2021-08-10T13:17:03.102Z</time>
      </trkpt>
      <trkpt lat="50.46315" lon="1.76129">
        <ele>50</ele>
        <time>2021-08-10T13:17:07.999Z</time>
      </trkpt>
      <trkpt lat="50.46311" lon="1.76133">
        <ele>50</ele>
        <time>2021-08-10T13:28:19.110Z</time>
      </trkpt>
      <trkpt lat="50.46313" lon="1.7613">
        <ele>50</ele>
        <time>2021-08-10T13:28:23.999Z</time>
      </trkpt>
      <trkpt lat="50.46314" lon="1.76128">
        <ele>50</ele>
        <time>2021-08-10T13:28:28.103Z</time>
      </trkpt>
      <trkpt lat="50.46319" lon="1.76134">
        <ele>50</ele>
        <time>2021-08-10T13:28:32.107Z</time>
      </trkpt>
      <trkpt lat="50.46323" lon="1.76141">
        <ele>51</ele>
        <time>2021-08-10T13:28:37.112Z</time>
      </trkpt>
      <trkpt lat="50.46327" lon="1.76146">
        <ele>51</ele>
        <time>2021-08-10T13:28:42.107Z</time>
      </trkpt>
      <trkpt lat="50.46329" lon="1.76149">
        <ele>51</ele>
        <time>2021-08-10T13:28:47.104Z</time>
      </trkpt>
      <trkpt lat="50.46334" lon="1.76153">
        <ele>51</ele>
        <time>2021-08-10T13:28:52.106Z</time>
      </trkpt>
      <trkpt lat="50.46338" lon="1.76158">
        <ele>51</ele>
        <time>2021-08-10T13:28:57.129Z</time>
      </trkpt>
      <trkpt lat="50.4634" lon="1.76162">
        <ele>51</ele>
        <time>2021-08-10T13:29:01.999Z</time>
      </trkpt>
      <trkpt lat="50.46346" lon="1.76164">
        <ele>51</ele>
        <time>2021-08-10T13:29:07.101Z</time>
      </trkpt>
      <trkpt lat="50.46353" lon="1.76166">
        <ele>51</ele>
        <time>2021-08-10T13:29:12.106Z</time>
      </trkpt>
      <trkpt lat="50.46357" lon="1.76169">
        <ele>51</ele>
        <time>2021-08-10T13:29:16.999Z</time>
      </trkpt>
      <trkpt lat="50.46364" lon="1.7617">
        <ele>51</ele>
        <time>2021-08-10T13:29:21.999Z</time>
      </trkpt>
      <trkpt lat="50.46369" lon="1.76169">
        <ele>51</ele>
        <time>2021-08-10T13:29:26.999Z</time>
      </trkpt>
      <trkpt lat="50.46373" lon="1.76167">
        <ele>51</ele>
        <time>2021-08-10T13:29:30.999Z</time>
      </trkpt>
      <trkpt lat="50.46374" lon="1.76158">
        <ele>51</ele>
        <time>2021-08-10T13:29:35.999Z</time>
      </trkpt>
      <trkpt lat="50.46378" lon="1.76152">
        <ele>52</ele>
        <time>2021-08-10T13:29:40.100Z</time>
      </trkpt>
      <trkpt lat="50.4638" lon="1.76144">
        <ele>52</ele>
        <time>2021-08-10T13:29:45.100Z</time>
      </trkpt>
      <trkpt lat="50.46381" lon="1.76138">
        <ele>52</ele>
        <time>2021-08-10T13:29:49.999Z</time>
      </trkpt>
      <trkpt lat="50.46381" lon="1.76135">
        <ele>52</ele>
        <time>2021-08-10T13:29:55.101Z</time>
      </trkpt>
      <trkpt lat="50.46381" lon="1.76135">
        <ele>52</ele>
        <time>2021-08-10T13:29:59.999Z</time>
      </trkpt>
      <trkpt lat="50.4638" lon="1.76137">
        <ele>52</ele>
        <time>2021-08-10T13:30:03.999Z</time>
      </trkpt>
      <trkpt lat="50.46381" lon="1.76144">
        <ele>52</ele>
        <time>2021-08-10T13:30:09.103Z</time>
      </trkpt>
      <trkpt lat="50.46385" lon="1.76148">
        <ele>52</ele>
        <time>2021-08-10T13:30:13.999Z</time>
      </trkpt>
      <trkpt lat="50.46388" lon="1.76151">
        <ele>52</ele>
        <time>2021-08-10T13:30:17.999Z</time>
      </trkpt>
      <trkpt lat="50.46392" lon="1.76154">
        <ele>52</ele>
        <time>2021-08-10T13:30:23.102Z</time>
      </trkpt>
      <trkpt lat="50.46395" lon="1.76157">
        <ele>52</ele>
        <time>2021-08-10T13:30:27.104Z</time>
      </trkpt>
      <trkpt lat="50.46398" lon="1.7616">
        <ele>52</ele>
        <time>2021-08-10T13:30:31.999Z</time>
      </trkpt>
      <trkpt lat="50.464" lon="1.76163">
        <ele>52</ele>
        <time>2021-08-10T13:30:36.106Z</time>
      </trkpt>
      <trkpt lat="50.46402" lon="1.76169">
        <ele>52</ele>
        <time>2021-08-10T13:30:40.999Z</time>
      </trkpt>
      <trkpt lat="50.46403" lon="1.76177">
        <ele>52</ele>
        <time>2021-08-10T13:30:45.999Z</time>
      </trkpt>
      <trkpt lat="50.46402" lon="1.76183">
        <ele>52</ele>
        <time>2021-08-10T13:30:51.104Z</time>
      </trkpt>
      <trkpt lat="50.46401" lon="1.7618">
        <ele>52</ele>
        <time>2021-08-10T13:30:55.999Z</time>
      </trkpt>
      <trkpt lat="50.46401" lon="1.7618">
        <ele>52</ele>
        <time>2021-08-10T13:31:01.100Z</time>
      </trkpt>
      <trkpt lat="50.46403" lon="1.76182">
        <ele>52</ele>
        <time>2021-08-10T13:31:05.104Z</time>
      </trkpt>
      <trkpt lat="50.46405" lon="1.76189">
        <ele>53</ele>
        <time>2021-08-10T13:31:09.999Z</time>
      </trkpt>
      <trkpt lat="50.46404" lon="1.76197">
        <ele>53</ele>
        <time>2021-08-10T13:31:14.103Z</time>
      </trkpt>
      <trkpt lat="50.46403" lon="1.7621">
        <ele>53</ele>
        <time>2021-08-10T13:31:19.105Z</time>
      </trkpt>
      <trkpt lat="50.46402" lon="1.76219">
        <ele>51</ele>
        <time>2021-08-10T13:31:23.101Z</time>
      </trkpt>
      <trkpt lat="50.46404" lon="1.76229">
        <ele>53</ele>
        <time>2021-08-10T13:31:28.101Z</time>
      </trkpt>
      <trkpt lat="50.46403" lon="1.76239">
        <ele>52</ele>
        <time>2021-08-10T13:31:33.101Z</time>
      </trkpt>
      <trkpt lat="50.46401" lon="1.76246">
        <ele>52</ele>
        <time>2021-08-10T13:31:37.103Z</time>
      </trkpt>
      <trkpt lat="50.46401" lon="1.76253">
        <ele>52</ele>
        <time>2021-08-10T13:31:41.999Z</time>
      </trkpt>
      <trkpt lat="50.464" lon="1.76261">
        <ele>52</ele>
        <time>2021-08-10T13:31:45.999Z</time>
      </trkpt>
      <trkpt lat="50.464" lon="1.76269">
        <ele>50</ele>
        <time>2021-08-10T13:31:51.104Z</time>
      </trkpt>
      <trkpt lat="50.464" lon="1.76269">
        <ele>50</ele>
        <time>2021-08-10T13:31:55.999Z</time>
      </trkpt>
      <trkpt lat="50.464" lon="1.76275">
        <ele>50</ele>
        <time>2021-08-10T13:32:01.105Z</time>
      </trkpt>
      <trkpt lat="50.46398" lon="1.76283">
        <ele>50</ele>
        <time>2021-08-10T13:32:05.999Z</time>
      </trkpt>
      <trkpt lat="50.46399" lon="1.76289">
        <ele>50</ele>
        <time>2021-08-10T13:32:10.100Z</time>
      </trkpt>
      <trkpt lat="50.46397" lon="1.76288">
        <ele>50</ele>
        <time>2021-08-10T13:32:57.999Z</time>
      </trkpt>
      <trkpt lat="50.46395" lon="1.76316">
        <ele>50</ele>
        <time>2021-08-10T13:33:03.102Z</time>
      </trkpt>
      <trkpt lat="50.46393" lon="1.76321">
        <ele>49</ele>
        <time>2021-08-10T13:33:43.103Z</time>
      </trkpt>
      <trkpt lat="50.46395" lon="1.76331">
        <ele>49</ele>
        <time>2021-08-10T13:33:47.101Z</time>
      </trkpt>
      <trkpt lat="50.46391" lon="1.76346">
        <ele>49</ele>
        <time>2021-08-10T13:33:51.999Z</time>
      </trkpt>
      <trkpt lat="50.46415" lon="1.7633">
        <ele>50</ele>
        <time>2021-08-10T13:39:18.110Z</time>
      </trkpt>
      <trkpt lat="50.46418" lon="1.76337">
        <ele>50</ele>
        <time>2021-08-10T13:39:22.999Z</time>
      </trkpt>
      <trkpt lat="50.46421" lon="1.76343">
        <ele>50</ele>
        <time>2021-08-10T13:39:27.105Z</time>
      </trkpt>
      <trkpt lat="50.46422" lon="1.76348">
        <ele>50</ele>
        <time>2021-08-10T13:39:30.999Z</time>
      </trkpt>
      <trkpt lat="50.46425" lon="1.76355">
        <ele>50</ele>
        <time>2021-08-10T13:39:36.101Z</time>
      </trkpt>
      <trkpt lat="50.46427" lon="1.76361">
        <ele>50</ele>
        <time>2021-08-10T13:39:39.999Z</time>
      </trkpt>
      <trkpt lat="50.4643" lon="1.76369">
        <ele>50</ele>
        <time>2021-08-10T13:39:44.999Z</time>
      </trkpt>
      <trkpt lat="50.46434" lon="1.76374">
        <ele>50</ele>
        <time>2021-08-10T13:39:49.999Z</time>
      </trkpt>
      <trkpt lat="50.46439" lon="1.76373">
        <ele>50</ele>
        <time>2021-08-10T13:39:53.999Z</time>
      </trkpt>
      <trkpt lat="50.46439" lon="1.76378">
        <ele>52</ele>
        <time>2021-08-10T13:39:58.108Z</time>
      </trkpt>
      <trkpt lat="50.4644" lon="1.76386">
        <ele>52</ele>
        <time>2021-08-10T13:40:03.103Z</time>
      </trkpt>
      <trkpt lat="50.4644" lon="1.76392">
        <ele>52</ele>
        <time>2021-08-10T13:40:07.102Z</time>
      </trkpt>
      <trkpt lat="50.4644" lon="1.76394">
        <ele>52</ele>
        <time>2021-08-10T13:40:11.999Z</time>
      </trkpt>
      <trkpt lat="50.46443" lon="1.76391">
        <ele>52</ele>
        <time>2021-08-10T13:40:15.999Z</time>
      </trkpt>
      <trkpt lat="50.46444" lon="1.76388">
        <ele>52</ele>
        <time>2021-08-10T13:40:20.999Z</time>
      </trkpt>
      <trkpt lat="50.46445" lon="1.76393">
        <ele>52</ele>
        <time>2021-08-10T13:40:25.999Z</time>
      </trkpt>
      <trkpt lat="50.4645" lon="1.76395">
        <ele>52</ele>
        <time>2021-08-10T13:40:29.999Z</time>
      </trkpt>
      <trkpt lat="50.46454" lon="1.76394">
        <ele>52</ele>
        <time>2021-08-10T13:40:34.999Z</time>
      </trkpt>
      <trkpt lat="50.46453" lon="1.76396">
        <ele>52</ele>
        <time>2021-08-10T13:41:34.102Z</time>
      </trkpt>
      <trkpt lat="50.46454" lon="1.76396">
        <ele>52</ele>
        <time>2021-08-10T13:41:39.100Z</time>
      </trkpt>
      <trkpt lat="50.46456" lon="1.76401">
        <ele>52</ele>
        <time>2021-08-10T13:41:43.999Z</time>
      </trkpt>
      <trkpt lat="50.46457" lon="1.76401">
        <ele>52</ele>
        <time>2021-08-10T13:41:47.999Z</time>
      </trkpt>
      <trkpt lat="50.46458" lon="1.76404">
        <ele>50</ele>
        <time>2021-08-10T13:41:51.999Z</time>
      </trkpt>
      <trkpt lat="50.46454" lon="1.76396">
        <ele>52</ele>
        <time>2021-08-10T13:43:48.103Z</time>
      </trkpt>
      <trkpt lat="50.46456" lon="1.76394">
        <ele>52</ele>
        <time>2021-08-10T13:43:52.999Z</time>
      </trkpt>
      <trkpt lat="50.46455" lon="1.76394">
        <ele>52</ele>
        <time>2021-08-10T13:43:56.999Z</time>
      </trkpt>
      <trkpt lat="50.46465" lon="1.76379">
        <ele>51</ele>
        <time>2021-08-10T13:45:23.999Z</time>
      </trkpt>
      <trkpt lat="50.46472" lon="1.7638">
        <ele>51</ele>
        <time>2021-08-10T13:45:27.999Z</time>
      </trkpt>
      <trkpt lat="50.46462" lon="1.76383">
        <ele>51</ele>
        <time>2021-08-10T13:50:13.102Z</time>
      </trkpt>
      <trkpt lat="50.46462" lon="1.76383">
        <ele>51</ele>
        <time>2021-08-10T13:50:22.999Z</time>
      </trkpt>
      <trkpt lat="50.46462" lon="1.76383">
        <ele>51</ele>
        <time>2021-08-10T13:50:26.999Z</time>
      </trkpt>
      <trkpt lat="50.46469" lon="1.76393">
        <ele>51</ele>
        <time>2021-08-10T13:51:14.110Z</time>
      </trkpt>
      <trkpt lat="50.46448" lon="1.76398">
        <ele>52</ele>
        <time>2021-08-10T13:51:18.999Z</time>
      </trkpt>
      <trkpt lat="50.46442" lon="1.76398">
        <ele>52</ele>
        <time>2021-08-10T13:51:22.999Z</time>
      </trkpt>
      <trkpt lat="50.46443" lon="1.76391">
        <ele>52</ele>
        <time>2021-08-10T13:51:27.108Z</time>
      </trkpt>
      <trkpt lat="50.46444" lon="1.76385">
        <ele>52</ele>
        <time>2021-08-10T13:51:31.999Z</time>
      </trkpt>
      <trkpt lat="50.46441" lon="1.76377">
        <ele>52</ele>
        <time>2021-08-10T13:51:37.109Z</time>
      </trkpt>
      <trkpt lat="50.4644" lon="1.76373">
        <ele>50</ele>
        <time>2021-08-10T13:51:40.999Z</time>
      </trkpt>
      <trkpt lat="50.46438" lon="1.76369">
        <ele>50</ele>
        <time>2021-08-10T13:51:45.999Z</time>
      </trkpt>
      <trkpt lat="50.46436" lon="1.76363">
        <ele>50</ele>
        <time>2021-08-10T13:51:50.101Z</time>
      </trkpt>
      <trkpt lat="50.46436" lon="1.76356">
        <ele>50</ele>
        <time>2021-08-10T13:51:54.999Z</time>
      </trkpt>
      <trkpt lat="50.46441" lon="1.76354">
        <ele>50</ele>
        <time>2021-08-10T13:52:13.107Z</time>
      </trkpt>
      <trkpt lat="50.46442" lon="1.76354">
        <ele>50</ele>
        <time>2021-08-10T13:52:17.999Z</time>
      </trkpt>
      <trkpt lat="50.4644" lon="1.76345">
        <ele>51</ele>
        <time>2021-08-10T13:52:23.106Z</time>
      </trkpt>
      <trkpt lat="50.46437" lon="1.76334">
        <ele>51</ele>
        <time>2021-08-10T13:52:27.999Z</time>
      </trkpt>
      <trkpt lat="50.46435" lon="1.7633">
        <ele>51</ele>
        <time>2021-08-10T13:52:32.999Z</time>
      </trkpt>
      <trkpt lat="50.46433" lon="1.76323">
        <ele>51</ele>
        <time>2021-08-10T13:52:37.999Z</time>
      </trkpt>
      <trkpt lat="50.46431" lon="1.76316">
        <ele>51</ele>
        <time>2021-08-10T13:52:42.999Z</time>
      </trkpt>
      <trkpt lat="50.46429" lon="1.7631">
        <ele>51</ele>
        <time>2021-08-10T13:52:47.106Z</time>
      </trkpt>
      <trkpt lat="50.46426" lon="1.76303">
        <ele>51</ele>
        <time>2021-08-10T13:52:51.999Z</time>
      </trkpt>
      <trkpt lat="50.46422" lon="1.76301">
        <ele>51</ele>
        <time>2021-08-10T13:52:56.101Z</time>
      </trkpt>
      <trkpt lat="50.46416" lon="1.76298">
        <ele>51</ele>
        <time>2021-08-10T13:53:00.999Z</time>
      </trkpt>
      <trkpt lat="50.46413" lon="1.76296">
        <ele>51</ele>
        <time>2021-08-10T13:53:05.104Z</time>
      </trkpt>
      <trkpt lat="50.46408" lon="1.76293">
        <ele>51</ele>
        <time>2021-08-10T13:53:09.999Z</time>
      </trkpt>
      <trkpt lat="50.46404" lon="1.76288">
        <ele>51</ele>
        <time>2021-08-10T13:53:14.999Z</time>
      </trkpt>
      <trkpt lat="50.46401" lon="1.76285">
        <ele>50</ele>
        <time>2021-08-10T13:53:18.999Z</time>
      </trkpt>
      <trkpt lat="50.46397" lon="1.76288">
        <ele>50</ele>
        <time>2021-08-10T13:53:23.999Z</time>
      </trkpt>
      <trkpt lat="50.46394" lon="1.76293">
        <ele>50</ele>
        <time>2021-08-10T13:53:28.999Z</time>
      </trkpt>
      <trkpt lat="50.46389" lon="1.76296">
        <ele>50</ele>
        <time>2021-08-10T13:53:33.999Z</time>
      </trkpt>
      <trkpt lat="50.46386" lon="1.76303">
        <ele>50</ele>
        <time>2021-08-10T13:53:38.999Z</time>
      </trkpt>
      <trkpt lat="50.46386" lon="1.76314">
        <ele>50</ele>
        <time>2021-08-10T13:53:43.999Z</time>
      </trkpt>
      <trkpt lat="50.46385" lon="1.76321">
        <ele>49</ele>
        <time>2021-08-10T13:53:48.999Z</time>
      </trkpt>
      <trkpt lat="50.46383" lon="1.76322">
        <ele>49</ele>
        <time>2021-08-10T13:53:52.999Z</time>
      </trkpt>
      <trkpt lat="50.46376" lon="1.76323">
        <ele>49</ele>
        <time>2021-08-10T13:53:58.101Z</time>
      </trkpt>
      <trkpt lat="50.4637" lon="1.76326">
        <ele>49</ele>
        <time>2021-08-10T13:54:02.999Z</time>
      </trkpt>
      <trkpt lat="50.46365" lon="1.76329">
        <ele>49</ele>
        <time>2021-08-10T13:54:07.102Z</time>
      </trkpt>
      <trkpt lat="50.46361" lon="1.76334">
        <ele>49</ele>
        <time>2021-08-10T13:54:11.999Z</time>
      </trkpt>
      <trkpt lat="50.46361" lon="1.76336">
        <ele>49</ele>
        <time>2021-08-10T13:54:17.104Z</time>
      </trkpt>
      <trkpt lat="50.46356" lon="1.76342">
        <ele>49</ele>
        <time>2021-08-10T13:54:22.111Z</time>
      </trkpt>
      <trkpt lat="50.46351" lon="1.76349">
        <ele>49</ele>
        <time>2021-08-10T13:54:26.999Z</time>
      </trkpt>
      <trkpt lat="50.46346" lon="1.76355">
        <ele>49</ele>
        <time>2021-08-10T13:54:31.999Z</time>
      </trkpt>
      <trkpt lat="50.46341" lon="1.76358">
        <ele>49</ele>
        <time>2021-08-10T13:54:35.999Z</time>
      </trkpt>
      <trkpt lat="50.46336" lon="1.76358">
        <ele>49</ele>
        <time>2021-08-10T13:54:40.105Z</time>
      </trkpt>
      <trkpt lat="50.4633" lon="1.76359">
        <ele>49</ele>
        <time>2021-08-10T13:54:44.999Z</time>
      </trkpt>
      <trkpt lat="50.46324" lon="1.76359">
        <ele>49</ele>
        <time>2021-08-10T13:54:49.999Z</time>
      </trkpt>
      <trkpt lat="50.46318" lon="1.76358">
        <ele>48</ele>
        <time>2021-08-10T13:54:55.101Z</time>
      </trkpt>
      <trkpt lat="50.46312" lon="1.76356">
        <ele>48</ele>
        <time>2021-08-10T13:55:00.105Z</time>
      </trkpt>
      <trkpt lat="50.46306" lon="1.76354">
        <ele>48</ele>
        <time>2021-08-10T13:55:04.999Z</time>
      </trkpt>
      <trkpt lat="50.46302" lon="1.76354">
        <ele>48</ele>
        <time>2021-08-10T13:55:08.999Z</time>
      </trkpt>
      <trkpt lat="50.46297" lon="1.76354">
        <ele>48</ele>
        <time>2021-08-10T13:55:13.999Z</time>
      </trkpt>
      <trkpt lat="50.46291" lon="1.76353">
        <ele>47</ele>
        <time>2021-08-10T13:55:18.999Z</time>
      </trkpt>
      <trkpt lat="50.46287" lon="1.76352">
        <ele>47</ele>
        <time>2021-08-10T13:55:24.100Z</time>
      </trkpt>
      <trkpt lat="50.46287" lon="1.76353">
        <ele>47</ele>
        <time>2021-08-10T13:55:28.999Z</time>
      </trkpt>
      <trkpt lat="50.46283" lon="1.76352">
        <ele>47</ele>
        <time>2021-08-10T13:55:34.105Z</time>
      </trkpt>
      <trkpt lat="50.46278" lon="1.76354">
        <ele>47</ele>
        <time>2021-08-10T13:55:39.138Z</time>
      </trkpt>
      <trkpt lat="50.46277" lon="1.76358">
        <ele>47</ele>
        <time>2021-08-10T13:55:43.999Z</time>
      </trkpt>
      <trkpt lat="50.46275" lon="1.76362">
        <ele>47</ele>
        <time>2021-08-10T13:55:48.111Z</time>
      </trkpt>
      <trkpt lat="50.46273" lon="1.76363">
        <ele>47</ele>
        <time>2021-08-10T13:55:52.999Z</time>
      </trkpt>
      <trkpt lat="50.46269" lon="1.76369">
        <ele>47</ele>
        <time>2021-08-10T13:55:58.101Z</time>
      </trkpt>
      <trkpt lat="50.46264" lon="1.76368">
        <ele>46</ele>
        <time>2021-08-10T13:56:03.100Z</time>
      </trkpt>
      <trkpt lat="50.46257" lon="1.76371">
        <ele>46</ele>
        <time>2021-08-10T13:56:26.999Z</time>
      </trkpt>
      <trkpt lat="50.46257" lon="1.76379">
        <ele>46</ele>
        <time>2021-08-10T13:56:31.999Z</time>
      </trkpt>
      <trkpt lat="50.46257" lon="1.76388">
        <ele>46</ele>
        <time>2021-08-10T13:56:37.108Z</time>
      </trkpt>
      <trkpt lat="50.46256" lon="1.76394">
        <ele>46</ele>
        <time>2021-08-10T13:56:41.999Z</time>
      </trkpt>
      <trkpt lat="50.46259" lon="1.76396">
        <ele>46</ele>
        <time>2021-08-10T13:56:46.999Z</time>
      </trkpt>
      <trkpt lat="50.4626" lon="1.76401">
        <ele>46</ele>
        <time>2021-08-10T13:56:50.999Z</time>
      </trkpt>
      <trkpt lat="50.46262" lon="1.76407">
        <ele>46</ele>
        <time>2021-08-10T13:56:56.101Z</time>
      </trkpt>
      <trkpt lat="50.46263" lon="1.76411">
        <ele>46</ele>
        <time>2021-08-10T13:57:00.999Z</time>
      </trkpt>
      <trkpt lat="50.46262" lon="1.76413">
        <ele>46</ele>
        <time>2021-08-10T13:57:05.102Z</time>
      </trkpt>
      <trkpt lat="50.46261" lon="1.76419">
        <ele>46</ele>
        <time>2021-08-10T13:57:08.999Z</time>
      </trkpt>
      <trkpt lat="50.46258" lon="1.76426">
        <ele>46</ele>
        <time>2021-08-10T13:57:14.101Z</time>
      </trkpt>
      <trkpt lat="50.46254" lon="1.7643">
        <ele>46</ele>
        <time>2021-08-10T13:57:18.999Z</time>
      </trkpt>
      <trkpt lat="50.46249" lon="1.76433">
        <ele>45</ele>
        <time>2021-08-10T13:57:23.999Z</time>
      </trkpt>
      <trkpt lat="50.46246" lon="1.76437">
        <ele>45</ele>
        <time>2021-08-10T13:57:28.999Z</time>
      </trkpt>
      <trkpt lat="50.46242" lon="1.76441">
        <ele>45</ele>
        <time>2021-08-10T13:57:32.999Z</time>
      </trkpt>
      <trkpt lat="50.46239" lon="1.76449">
        <ele>45</ele>
        <time>2021-08-10T13:57:37.999Z</time>
      </trkpt>
      <trkpt lat="50.46234" lon="1.76453">
        <ele>44</ele>
        <time>2021-08-10T13:57:42.999Z</time>
      </trkpt>
      <trkpt lat="50.4623" lon="1.76456">
        <ele>44</ele>
        <time>2021-08-10T13:57:46.999Z</time>
      </trkpt>
      <trkpt lat="50.46225" lon="1.76457">
        <ele>44</ele>
        <time>2021-08-10T13:57:51.999Z</time>
      </trkpt>
      <trkpt lat="50.46219" lon="1.76455">
        <ele>44</ele>
        <time>2021-08-10T13:57:56.999Z</time>
      </trkpt>
      <trkpt lat="50.46215" lon="1.76454">
        <ele>44</ele>
        <time>2021-08-10T13:58:02.106Z</time>
      </trkpt>
      <trkpt lat="50.46212" lon="1.76453">
        <ele>44</ele>
        <time>2021-08-10T13:58:06.999Z</time>
      </trkpt>
      <trkpt lat="50.46208" lon="1.7645">
        <ele>41</ele>
        <time>2021-08-10T13:58:11.999Z</time>
      </trkpt>
      <trkpt lat="50.46204" lon="1.76448">
        <ele>41</ele>
        <time>2021-08-10T13:58:16.999Z</time>
      </trkpt>
      <trkpt lat="50.46201" lon="1.76445">
        <ele>41</ele>
        <time>2021-08-10T13:58:20.999Z</time>
      </trkpt>
      <trkpt lat="50.46199" lon="1.7644">
        <ele>41</ele>
        <time>2021-08-10T13:58:26.102Z</time>
      </trkpt>
      <trkpt lat="50.46198" lon="1.76436">
        <ele>41</ele>
        <time>2021-08-10T13:58:30.999Z</time>
      </trkpt>
      <trkpt lat="50.46197" lon="1.76431">
        <ele>41</ele>
        <time>2021-08-10T13:58:34.999Z</time>
      </trkpt>
      <trkpt lat="50.46194" lon="1.76424">
        <ele>42</ele>
        <time>2021-08-10T13:58:40.101Z</time>
      </trkpt>
      <trkpt lat="50.46193" lon="1.76415">
        <ele>42</ele>
        <time>2021-08-10T13:58:44.999Z</time>
      </trkpt>
      <trkpt lat="50.46192" lon="1.76409">
        <ele>42</ele>
        <time>2021-08-10T13:58:48.999Z</time>
      </trkpt>
      <trkpt lat="50.46191" lon="1.76403">
        <ele>42</ele>
        <time>2021-08-10T13:58:52.999Z</time>
      </trkpt>
      <trkpt lat="50.46188" lon="1.76397">
        <ele>42</ele>
        <time>2021-08-10T13:58:57.999Z</time>
      </trkpt>
      <trkpt lat="50.46186" lon="1.76389">
        <ele>42</ele>
        <time>2021-08-10T13:59:02.999Z</time>
      </trkpt>
      <trkpt lat="50.46184" lon="1.76382">
        <ele>42</ele>
        <time>2021-08-10T13:59:06.999Z</time>
      </trkpt>
      <trkpt lat="50.46182" lon="1.76374">
        <ele>44</ele>
        <time>2021-08-10T13:59:11.999Z</time>
      </trkpt>
      <trkpt lat="50.46181" lon="1.76366">
        <ele>44</ele>
        <time>2021-08-10T13:59:17.109Z</time>
      </trkpt>
      <trkpt lat="50.4618" lon="1.76359">
        <ele>43</ele>
        <time>2021-08-10T13:59:21.999Z</time>
      </trkpt>
      <trkpt lat="50.46177" lon="1.76353">
        <ele>43</ele>
        <time>2021-08-10T13:59:25.999Z</time>
      </trkpt>
      <trkpt lat="50.46175" lon="1.76345">
        <ele>44</ele>
        <time>2021-08-10T13:59:30.999Z</time>
      </trkpt>
      <trkpt lat="50.46174" lon="1.76338">
        <ele>44</ele>
        <time>2021-08-10T13:59:35.999Z</time>
      </trkpt>
      <trkpt lat="50.46172" lon="1.76331">
        <ele>44</ele>
        <time>2021-08-10T13:59:40.101Z</time>
      </trkpt>
      <trkpt lat="50.4617" lon="1.76324">
        <ele>44</ele>
        <time>2021-08-10T13:59:45.103Z</time>
      </trkpt>
      <trkpt lat="50.4617" lon="1.76317">
        <ele>45</ele>
        <time>2021-08-10T13:59:49.100Z</time>
      </trkpt>
      <trkpt lat="50.46171" lon="1.76311">
        <ele>45</ele>
        <time>2021-08-10T13:59:53.115Z</time>
      </trkpt>
      <trkpt lat="50.4617" lon="1.76304">
        <ele>45</ele>
        <time>2021-08-10T13:59:57.999Z</time>
      </trkpt>
      <trkpt lat="50.46167" lon="1.76299">
        <ele>45</ele>
        <time>2021-08-10T14:00:02.999Z</time>
      </trkpt>
      <trkpt lat="50.46166" lon="1.76299">
        <ele>45</ele>
        <time>2021-08-10T14:00:07.999Z</time>
      </trkpt>
      <trkpt lat="50.4616" lon="1.76293">
        <ele>45</ele>
        <time>2021-08-10T14:00:12.999Z</time>
      </trkpt>
      <trkpt lat="50.46155" lon="1.76289">
        <ele>45</ele>
        <time>2021-08-10T14:00:17.999Z</time>
      </trkpt>
      <trkpt lat="50.46151" lon="1.76287">
        <ele>45</ele>
        <time>2021-08-10T14:00:22.100Z</time>
      </trkpt>
      <trkpt lat="50.46146" lon="1.76284">
        <ele>45</ele>
        <time>2021-08-10T14:00:26.999Z</time>
      </trkpt>
      <trkpt lat="50.46142" lon="1.7628">
        <ele>45</ele>
        <time>2021-08-10T14:00:31.999Z</time>
      </trkpt>
      <trkpt lat="50.46138" lon="1.76276">
        <ele>45</ele>
        <time>2021-08-10T14:00:36.999Z</time>
      </trkpt>
      <trkpt lat="50.46138" lon="1.76276">
        <ele>45</ele>
        <time>2021-08-10T14:00:41.999Z</time>
      </trkpt>
      <trkpt lat="50.46135" lon="1.76273">
        <ele>45</ele>
        <time>2021-08-10T14:00:46.105Z</time>
      </trkpt>
      <trkpt lat="50.46127" lon="1.76267">
        <ele>45</ele>
        <time>2021-08-10T14:00:51.109Z</time>
      </trkpt>
      <trkpt lat="50.46121" lon="1.76259">
        <ele>44</ele>
        <time>2021-08-10T14:00:55.999Z</time>
      </trkpt>
      <trkpt lat="50.46115" lon="1.76255">
        <ele>44</ele>
        <time>2021-08-10T14:01:00.999Z</time>
      </trkpt>
      <trkpt lat="50.4611" lon="1.76252">
        <ele>44</ele>
        <time>2021-08-10T14:01:04.999Z</time>
      </trkpt>
      <trkpt lat="50.46104" lon="1.76247">
        <ele>44</ele>
        <time>2021-08-10T14:01:09.999Z</time>
      </trkpt>
      <trkpt lat="50.46098" lon="1.76244">
        <ele>44</ele>
        <time>2021-08-10T14:01:14.999Z</time>
      </trkpt>
      <trkpt lat="50.46093" lon="1.76239">
        <ele>42</ele>
        <time>2021-08-10T14:01:19.999Z</time>
      </trkpt>
      <trkpt lat="50.46089" lon="1.76235">
        <ele>44</ele>
        <time>2021-08-10T14:01:23.999Z</time>
      </trkpt>
      <trkpt lat="50.46083" lon="1.76232">
        <ele>44</ele>
        <time>2021-08-10T14:01:28.999Z</time>
      </trkpt>
      <trkpt lat="50.46077" lon="1.76229">
        <ele>44</ele>
        <time>2021-08-10T14:01:33.999Z</time>
      </trkpt>
      <trkpt lat="50.46072" lon="1.76224">
        <ele>44</ele>
        <time>2021-08-10T14:01:38.999Z</time>
      </trkpt>
      <trkpt lat="50.46068" lon="1.76223">
        <ele>41</ele>
        <time>2021-08-10T14:01:44.111Z</time>
      </trkpt>
      <trkpt lat="50.46064" lon="1.76223">
        <ele>41</ele>
        <time>2021-08-10T14:01:48.999Z</time>
      </trkpt>
      <trkpt lat="50.46059" lon="1.76218">
        <ele>41</ele>
        <time>2021-08-10T14:01:53.999Z</time>
      </trkpt>
      <trkpt lat="50.46054" lon="1.76213">
        <ele>41</ele>
        <time>2021-08-10T14:01:59.107Z</time>
      </trkpt>
      <trkpt lat="50.4605" lon="1.76206">
        <ele>42</ele>
        <time>2021-08-10T14:02:03.999Z</time>
      </trkpt>
      <trkpt lat="50.46045" lon="1.76201">
        <ele>42</ele>
        <time>2021-08-10T14:02:08.999Z</time>
      </trkpt>
      <trkpt lat="50.46042" lon="1.76195">
        <ele>42</ele>
        <time>2021-08-10T14:02:13.111Z</time>
      </trkpt>
      <trkpt lat="50.4604" lon="1.76188">
        <ele>39</ele>
        <time>2021-08-10T14:02:17.999Z</time>
      </trkpt>
      <trkpt lat="50.4604" lon="1.76178">
        <ele>40</ele>
        <time>2021-08-10T14:02:22.999Z</time>
      </trkpt>
      <trkpt lat="50.4604" lon="1.76171">
        <ele>40</ele>
        <time>2021-08-10T14:02:27.203Z</time>
      </trkpt>
      <trkpt lat="50.46041" lon="1.76162">
        <ele>40</ele>
        <time>2021-08-10T14:02:31.999Z</time>
      </trkpt>
      <trkpt lat="50.46041" lon="1.76152">
        <ele>43</ele>
        <time>2021-08-10T14:02:37.102Z</time>
      </trkpt>
      <trkpt lat="50.46042" lon="1.76142">
        <ele>43</ele>
        <time>2021-08-10T14:02:41.999Z</time>
      </trkpt>
      <trkpt lat="50.46042" lon="1.76134">
        <ele>45</ele>
        <time>2021-08-10T14:02:46.999Z</time>
      </trkpt>
      <trkpt lat="50.46044" lon="1.76125">
        <ele>45</ele>
        <time>2021-08-10T14:02:51.999Z</time>
      </trkpt>
      <trkpt lat="50.46045" lon="1.76117">
        <ele>47</ele>
        <time>2021-08-10T14:02:57.103Z</time>
      </trkpt>
      <trkpt lat="50.46044" lon="1.76111">
        <ele>47</ele>
        <time>2021-08-10T14:03:01.110Z</time>
      </trkpt>
      <trkpt lat="50.4604" lon="1.76106">
        <ele>44</ele>
        <time>2021-08-10T14:03:06.102Z</time>
      </trkpt>
      <trkpt lat="50.46035" lon="1.76102">
        <ele>44</ele>
        <time>2021-08-10T14:03:10.999Z</time>
      </trkpt>
      <trkpt lat="50.46031" lon="1.76098">
        <ele>44</ele>
        <time>2021-08-10T14:03:15.999Z</time>
      </trkpt>
      <trkpt lat="50.46027" lon="1.76095">
        <ele>46</ele>
        <time>2021-08-10T14:03:19.999Z</time>
      </trkpt>
      <trkpt lat="50.46022" lon="1.76092">
        <ele>46</ele>
        <time>2021-08-10T14:03:24.999Z</time>
      </trkpt>
      <trkpt lat="50.46019" lon="1.76089">
        <ele>46</ele>
        <time>2021-08-10T14:03:28.999Z</time>
      </trkpt>
      <trkpt lat="50.46012" lon="1.76081">
        <ele>45</ele>
        <time>2021-08-10T14:03:56.999Z</time>
      </trkpt>
      <trkpt lat="50.46012" lon="1.76073">
        <ele>45</ele>
        <time>2021-08-10T14:04:01.999Z</time>
      </trkpt>
      <trkpt lat="50.46013" lon="1.76069">
        <ele>46</ele>
        <time>2021-08-10T14:04:06.999Z</time>
      </trkpt>
      <trkpt lat="50.46013" lon="1.76063">
        <ele>46</ele>
        <time>2021-08-10T14:04:11.102Z</time>
      </trkpt>
      <trkpt lat="50.46013" lon="1.76056">
        <ele>46</ele>
        <time>2021-08-10T14:04:14.999Z</time>
      </trkpt>
      <trkpt lat="50.46014" lon="1.76046">
        <ele>47</ele>
        <time>2021-08-10T14:04:18.999Z</time>
      </trkpt>
      <trkpt lat="50.46015" lon="1.76037">
        <ele>47</ele>
        <time>2021-08-10T14:04:23.999Z</time>
      </trkpt>
      <trkpt lat="50.46014" lon="1.76029">
        <ele>47</ele>
        <time>2021-08-10T14:04:28.999Z</time>
      </trkpt>
      <trkpt lat="50.46014" lon="1.76021">
        <ele>47</ele>
        <time>2021-08-10T14:04:33.999Z</time>
      </trkpt>
      <trkpt lat="50.46015" lon="1.76012">
        <ele>48</ele>
        <time>2021-08-10T14:04:38.999Z</time>
      </trkpt>
      <trkpt lat="50.46014" lon="1.76004">
        <ele>47</ele>
        <time>2021-08-10T14:04:43.999Z</time>
      </trkpt>
      <trkpt lat="50.46013" lon="1.75998">
        <ele>47</ele>
        <time>2021-08-10T14:04:47.999Z</time>
      </trkpt>
      <trkpt lat="50.46013" lon="1.7599">
        <ele>47</ele>
        <time>2021-08-10T14:04:53.110Z</time>
      </trkpt>
      <trkpt lat="50.46014" lon="1.75983">
        <ele>47</ele>
        <time>2021-08-10T14:04:57.999Z</time>
      </trkpt>
      <trkpt lat="50.46013" lon="1.75978">
        <ele>47</ele>
        <time>2021-08-10T14:05:02.999Z</time>
      </trkpt>
      <trkpt lat="50.46013" lon="1.75972">
        <ele>47</ele>
        <time>2021-08-10T14:05:07.999Z</time>
      </trkpt>
      <trkpt lat="50.46013" lon="1.7597">
        <ele>47</ele>
        <time>2021-08-10T14:05:11.999Z</time>
      </trkpt>
      <trkpt lat="50.46012" lon="1.75966">
        <ele>47</ele>
        <time>2021-08-10T14:05:17.103Z</time>
      </trkpt>
      <trkpt lat="50.46012" lon="1.7596">
        <ele>47</ele>
        <time>2021-08-10T14:05:21.107Z</time>
      </trkpt>
      <trkpt lat="50.46014" lon="1.75954">
        <ele>48</ele>
        <time>2021-08-10T14:05:25.999Z</time>
      </trkpt>
      <trkpt lat="50.46018" lon="1.75948">
        <ele>48</ele>
        <time>2021-08-10T14:05:30.999Z</time>
      </trkpt>
      <trkpt lat="50.4602" lon="1.75942">
        <ele>48</ele>
        <time>2021-08-10T14:05:35.999Z</time>
      </trkpt>
      <trkpt lat="50.46022" lon="1.75934">
        <ele>48</ele>
        <time>2021-08-10T14:06:15.999Z</time>
      </trkpt>
      <trkpt lat="50.46024" lon="1.75931">
        <ele>48</ele>
        <time>2021-08-10T14:06:20.999Z</time>
      </trkpt>
      <trkpt lat="50.46027" lon="1.75927">
        <ele>47</ele>
        <time>2021-08-10T14:06:25.999Z</time>
      </trkpt>
      <trkpt lat="50.46029" lon="1.75924">
        <ele>47</ele>
        <time>2021-08-10T14:06:29.999Z</time>
      </trkpt>
      <trkpt lat="50.46033" lon="1.75919">
        <ele>47</ele>
        <time>2021-08-10T14:06:33.999Z</time>
      </trkpt>
      <trkpt lat="50.46036" lon="1.75916">
        <ele>47</ele>
        <time>2021-08-10T14:06:37.999Z</time>
      </trkpt>
      <trkpt lat="50.4604" lon="1.7591">
        <ele>47</ele>
        <time>2021-08-10T14:06:42.999Z</time>
      </trkpt>
      <trkpt lat="50.46044" lon="1.75906">
        <ele>48</ele>
        <time>2021-08-10T14:06:47.999Z</time>
      </trkpt>
      <trkpt lat="50.46047" lon="1.75902">
        <ele>48</ele>
        <time>2021-08-10T14:06:51.999Z</time>
      </trkpt>
      <trkpt lat="50.46051" lon="1.75897">
        <ele>48</ele>
        <time>2021-08-10T14:06:56.999Z</time>
      </trkpt>
      <trkpt lat="50.46054" lon="1.75894">
        <ele>48</ele>
        <time>2021-08-10T14:07:00.999Z</time>
      </trkpt>
      <trkpt lat="50.46058" lon="1.75889">
        <ele>48</ele>
        <time>2021-08-10T14:07:05.999Z</time>
      </trkpt>
      <trkpt lat="50.4606" lon="1.75884">
        <ele>48</ele>
        <time>2021-08-10T14:07:09.999Z</time>
      </trkpt>
      <trkpt lat="50.46067" lon="1.75882">
        <ele>48</ele>
        <time>2021-08-10T14:08:17.999Z</time>
      </trkpt>
      <trkpt lat="50.46069" lon="1.75887">
        <ele>48</ele>
        <time>2021-08-10T14:08:21.999Z</time>
      </trkpt>
      <trkpt lat="50.46073" lon="1.75895">
        <ele>48</ele>
        <time>2021-08-10T14:08:26.999Z</time>
      </trkpt>
      <trkpt lat="50.46076" lon="1.75901">
        <ele>48</ele>
        <time>2021-08-10T14:08:31.101Z</time>
      </trkpt>
      <trkpt lat="50.46079" lon="1.75908">
        <ele>48</ele>
        <time>2021-08-10T14:08:35.999Z</time>
      </trkpt>
      <trkpt lat="50.46081" lon="1.75915">
        <ele>48</ele>
        <time>2021-08-10T14:08:41.100Z</time>
      </trkpt>
      <trkpt lat="50.46082" lon="1.7592">
        <ele>48</ele>
        <time>2021-08-10T14:08:45.106Z</time>
      </trkpt>
      <trkpt lat="50.46083" lon="1.75929">
        <ele>48</ele>
        <time>2021-08-10T14:08:49.999Z</time>
      </trkpt>
      <trkpt lat="50.4608" lon="1.75936">
        <ele>47</ele>
        <time>2021-08-10T14:08:54.999Z</time>
      </trkpt>
      <trkpt lat="50.46078" lon="1.75944">
        <ele>47</ele>
        <time>2021-08-10T14:08:59.999Z</time>
      </trkpt>
      <trkpt lat="50.46076" lon="1.75952">
        <ele>47</ele>
        <time>2021-08-10T14:09:04.999Z</time>
      </trkpt>
      <trkpt lat="50.46074" lon="1.75959">
        <ele>47</ele>
        <time>2021-08-10T14:09:09.999Z</time>
      </trkpt>
      <trkpt lat="50.46073" lon="1.75967">
        <ele>47</ele>
        <time>2021-08-10T14:09:14.999Z</time>
      </trkpt>
      <trkpt lat="50.46072" lon="1.75976">
        <ele>47</ele>
        <time>2021-08-10T14:09:19.999Z</time>
      </trkpt>
      <trkpt lat="50.46071" lon="1.75982">
        <ele>47</ele>
        <time>2021-08-10T14:09:23.999Z</time>
      </trkpt>
      <trkpt lat="50.46069" lon="1.7599">
        <ele>47</ele>
        <time>2021-08-10T14:09:28.999Z</time>
      </trkpt>
      <trkpt lat="50.46067" lon="1.75998">
        <ele>47</ele>
        <time>2021-08-10T14:09:34.104Z</time>
      </trkpt>
      <trkpt lat="50.4607" lon="1.76007">
        <ele>47</ele>
        <time>2021-08-10T14:09:38.999Z</time>
      </trkpt>
      <trkpt lat="50.46074" lon="1.76013">
        <ele>47</ele>
        <time>2021-08-10T14:09:43.106Z</time>
      </trkpt>
      <trkpt lat="50.46079" lon="1.76017">
        <ele>47</ele>
        <time>2021-08-10T14:09:47.999Z</time>
      </trkpt>
      <trkpt lat="50.46084" lon="1.76021">
        <ele>47</ele>
        <time>2021-08-10T14:09:52.999Z</time>
      </trkpt>
      <trkpt lat="50.46089" lon="1.76023">
        <ele>47</ele>
        <time>2021-08-10T14:09:57.103Z</time>
      </trkpt>
      <trkpt lat="50.46094" lon="1.76023">
        <ele>47</ele>
        <time>2021-08-10T14:10:01.999Z</time>
      </trkpt>
      <trkpt lat="50.461" lon="1.76022">
        <ele>47</ele>
        <time>2021-08-10T14:10:07.108Z</time>
      </trkpt>
      <trkpt lat="50.46105" lon="1.76023">
        <ele>47</ele>
        <time>2021-08-10T14:10:11.999Z</time>
      </trkpt>
      <trkpt lat="50.46109" lon="1.76031">
        <ele>47</ele>
        <time>2021-08-10T14:10:16.999Z</time>
      </trkpt>
      <trkpt lat="50.46113" lon="1.76037">
        <ele>47</ele>
        <time>2021-08-10T14:10:21.999Z</time>
      </trkpt>
      <trkpt lat="50.46117" lon="1.76043">
        <ele>48</ele>
        <time>2021-08-10T14:10:26.999Z</time>
      </trkpt>
      <trkpt lat="50.46122" lon="1.76045">
        <ele>48</ele>
        <time>2021-08-10T14:10:31.999Z</time>
      </trkpt>
      <trkpt lat="50.46121" lon="1.76049">
        <ele>48</ele>
        <time>2021-08-10T14:10:36.999Z</time>
      </trkpt>
      <trkpt lat="50.46119" lon="1.76055">
        <ele>48</ele>
        <time>2021-08-10T14:10:41.999Z</time>
      </trkpt>
      <trkpt lat="50.4612" lon="1.76059">
        <ele>48</ele>
        <time>2021-08-10T14:10:46.999Z</time>
      </trkpt>
      <trkpt lat="50.46121" lon="1.76063">
        <ele>48</ele>
        <time>2021-08-10T14:10:51.103Z</time>
      </trkpt>
      <trkpt lat="50.46124" lon="1.76066">
        <ele>48</ele>
        <time>2021-08-10T14:10:55.999Z</time>
      </trkpt>
      <trkpt lat="50.46128" lon="1.76065">
        <ele>48</ele>
        <time>2021-08-10T14:11:00.999Z</time>
      </trkpt>
      <trkpt lat="50.46133" lon="1.76063">
        <ele>48</ele>
        <time>2021-08-10T14:11:04.999Z</time>
      </trkpt>
      <trkpt lat="50.46137" lon="1.76065">
        <ele>48</ele>
        <time>2021-08-10T14:11:08.999Z</time>
      </trkpt>
      <trkpt lat="50.46142" lon="1.76063">
        <ele>48</ele>
        <time>2021-08-10T14:11:12.999Z</time>
      </trkpt>
      <trkpt lat="50.46146" lon="1.76068">
        <ele>48</ele>
        <time>2021-08-10T14:11:17.999Z</time>
      </trkpt>
      <trkpt lat="50.46145" lon="1.76076">
        <ele>49</ele>
        <time>2021-08-10T14:11:22.102Z</time>
      </trkpt>
      <trkpt lat="50.46144" lon="1.76085">
        <ele>49</ele>
        <time>2021-08-10T14:11:26.999Z</time>
      </trkpt>
      <trkpt lat="50.46143" lon="1.76094">
        <ele>49</ele>
        <time>2021-08-10T14:11:31.999Z</time>
      </trkpt>
      <trkpt lat="50.46142" lon="1.761">
        <ele>49</ele>
        <time>2021-08-10T14:11:36.099Z</time>
      </trkpt>
      <trkpt lat="50.46141" lon="1.76108">
        <ele>49</ele>
        <time>2021-08-10T14:11:40.999Z</time>
      </trkpt>
      <trkpt lat="50.4614" lon="1.76115">
        <ele>49</ele>
        <time>2021-08-10T14:11:45.100Z</time>
      </trkpt>
      <trkpt lat="50.46139" lon="1.76122">
        <ele>49</ele>
        <time>2021-08-10T14:11:49.999Z</time>
      </trkpt>
      <trkpt lat="50.46139" lon="1.76131">
        <ele>49</ele>
        <time>2021-08-10T14:11:54.999Z</time>
      </trkpt>
      <trkpt lat="50.46138" lon="1.76138">
        <ele>49</ele>
        <time>2021-08-10T14:11:58.999Z</time>
      </trkpt>
      <trkpt lat="50.4614" lon="1.76143">
        <ele>49</ele>
        <time>2021-08-10T14:12:03.100Z</time>
      </trkpt>
      <trkpt lat="50.46144" lon="1.76141">
        <ele>49</ele>
        <time>2021-08-10T14:12:07.999Z</time>
      </trkpt>
      <trkpt lat="50.46145" lon="1.76133">
        <ele>49</ele>
        <time>2021-08-10T14:12:12.999Z</time>
      </trkpt>
      <trkpt lat="50.46146" lon="1.76128">
        <ele>49</ele>
        <time>2021-08-10T14:12:16.999Z</time>
      </trkpt>
      <trkpt lat="50.46146" lon="1.76128">
        <ele>49</ele>
        <time>2021-08-10T14:12:21.999Z</time>
      </trkpt>
      <trkpt lat="50.46146" lon="1.76123">
        <ele>49</ele>
        <time>2021-08-10T14:12:25.999Z</time>
      </trkpt>
      <trkpt lat="50.46147" lon="1.76117">
        <ele>49</ele>
        <time>2021-08-10T14:12:30.999Z</time>
      </trkpt>
      <trkpt lat="50.46147" lon="1.76107">
        <ele>49</ele>
        <time>2021-08-10T14:12:35.999Z</time>
      </trkpt>
      <trkpt lat="50.46147" lon="1.761">
        <ele>49</ele>
        <time>2021-08-10T14:12:40.999Z</time>
      </trkpt>
      <trkpt lat="50.46148" lon="1.76091">
        <ele>49</ele>
        <time>2021-08-10T14:12:45.999Z</time>
      </trkpt>
      <trkpt lat="50.46149" lon="1.76083">
        <ele>49</ele>
        <time>2021-08-10T14:12:50.103Z</time>
      </trkpt>
      <trkpt lat="50.46149" lon="1.76073">
        <ele>49</ele>
        <time>2021-08-10T14:12:54.999Z</time>
      </trkpt>
      <trkpt lat="50.46151" lon="1.76065">
        <ele>48</ele>
        <time>2021-08-10T14:12:59.999Z</time>
      </trkpt>
      <trkpt lat="50.46154" lon="1.7606">
        <ele>48</ele>
        <time>2021-08-10T14:13:04.100Z</time>
      </trkpt>
      <trkpt lat="50.4616" lon="1.76062">
        <ele>48</ele>
        <time>2021-08-10T14:13:08.999Z</time>
      </trkpt>
      <trkpt lat="50.46165" lon="1.76066">
        <ele>48</ele>
        <time>2021-08-10T14:13:13.999Z</time>
      </trkpt>
      <trkpt lat="50.4617" lon="1.76059">
        <ele>48</ele>
        <time>2021-08-10T14:13:18.999Z</time>
      </trkpt>
      <trkpt lat="50.46175" lon="1.76058">
        <ele>48</ele>
        <time>2021-08-10T14:13:24.102Z</time>
      </trkpt>
      <trkpt lat="50.4618" lon="1.76056">
        <ele>48</ele>
        <time>2021-08-10T14:13:28.999Z</time>
      </trkpt>
      <trkpt lat="50.46184" lon="1.76052">
        <ele>49</ele>
        <time>2021-08-10T14:13:32.999Z</time>
      </trkpt>
      <trkpt lat="50.46189" lon="1.7605">
        <ele>49</ele>
        <time>2021-08-10T14:13:38.103Z</time>
      </trkpt>
      <trkpt lat="50.46194" lon="1.76051">
        <ele>49</ele>
        <time>2021-08-10T14:13:42.999Z</time>
      </trkpt>
      <trkpt lat="50.46204" lon="1.7605">
        <ele>49</ele>
        <time>2021-08-10T14:14:42.999Z</time>
      </trkpt>
      <trkpt lat="50.46206" lon="1.76055">
        <ele>49</ele>
        <time>2021-08-10T14:14:46.999Z</time>
      </trkpt>
      <trkpt lat="50.46209" lon="1.7606">
        <ele>49</ele>
        <time>2021-08-10T14:14:50.999Z</time>
      </trkpt>
      <trkpt lat="50.46213" lon="1.76067">
        <ele>49</ele>
        <time>2021-08-10T14:14:55.999Z</time>
      </trkpt>
      <trkpt lat="50.46218" lon="1.76072">
        <ele>49</ele>
        <time>2021-08-10T14:15:00.999Z</time>
      </trkpt>
      <trkpt lat="50.46222" lon="1.76076">
        <ele>49</ele>
        <time>2021-08-10T14:15:04.999Z</time>
      </trkpt>
      <trkpt lat="50.46226" lon="1.76083">
        <ele>49</ele>
        <time>2021-08-10T14:15:09.999Z</time>
      </trkpt>
      <trkpt lat="50.46228" lon="1.76089">
        <ele>49</ele>
        <time>2021-08-10T14:15:13.999Z</time>
      </trkpt>
      <trkpt lat="50.46231" lon="1.76097">
        <ele>49</ele>
        <time>2021-08-10T14:15:18.999Z</time>
      </trkpt>
      <trkpt lat="50.46233" lon="1.76104">
        <ele>49</ele>
        <time>2021-08-10T14:15:23.999Z</time>
      </trkpt>
      <trkpt lat="50.46236" lon="1.76109">
        <ele>49</ele>
        <time>2021-08-10T14:15:27.999Z</time>
      </trkpt>
      <trkpt lat="50.46239" lon="1.76116">
        <ele>50</ele>
        <time>2021-08-10T14:15:32.999Z</time>
      </trkpt>
      <trkpt lat="50.46241" lon="1.76123">
        <ele>50</ele>
        <time>2021-08-10T14:15:37.999Z</time>
      </trkpt>
      <trkpt lat="50.46245" lon="1.76125">
        <ele>49</ele>
        <time>2021-08-10T14:15:41.999Z</time>
      </trkpt>
      <trkpt lat="50.4625" lon="1.76118">
        <ele>50</ele>
        <time>2021-08-10T14:15:46.999Z</time>
      </trkpt>
      <trkpt lat="50.46253" lon="1.76113">
        <ele>50</ele>
        <time>2021-08-10T14:15:51.191Z</time>
      </trkpt>
      <trkpt lat="50.46257" lon="1.76107">
        <ele>50</ele>
        <time>2021-08-10T14:15:56.100Z</time>
      </trkpt>
      <trkpt lat="50.4626" lon="1.76101">
        <ele>50</ele>
        <time>2021-08-10T14:16:00.999Z</time>
      </trkpt>
      <trkpt lat="50.46264" lon="1.76095">
        <ele>49</ele>
        <time>2021-08-10T14:16:05.999Z</time>
      </trkpt>
      <trkpt lat="50.46268" lon="1.76091">
        <ele>49</ele>
        <time>2021-08-10T14:16:11.107Z</time>
      </trkpt>
      <trkpt lat="50.46271" lon="1.76091">
        <ele>49</ele>
        <time>2021-08-10T14:16:15.101Z</time>
      </trkpt>
      <trkpt lat="50.46276" lon="1.76093">
        <ele>49</ele>
        <time>2021-08-10T14:16:19.999Z</time>
      </trkpt>
      <trkpt lat="50.46281" lon="1.76098">
        <ele>51</ele>
        <time>2021-08-10T14:16:24.999Z</time>
      </trkpt>
      <trkpt lat="50.46284" lon="1.76103">
        <ele>51</ele>
        <time>2021-08-10T14:16:29.999Z</time>
      </trkpt>
      <trkpt lat="50.46288" lon="1.76108">
        <ele>51</ele>
        <time>2021-08-10T14:16:34.999Z</time>
      </trkpt>
      <trkpt lat="50.46292" lon="1.76113">
        <ele>51</ele>
        <time>2021-08-10T14:16:39.999Z</time>
      </trkpt>
      <trkpt lat="50.46295" lon="1.76116">
        <ele>51</ele>
        <time>2021-08-10T14:16:43.999Z</time>
      </trkpt>
      <trkpt lat="50.463" lon="1.76118">
        <ele>51</ele>
        <time>2021-08-10T14:16:49.104Z</time>
      </trkpt>
      <trkpt lat="50.46305" lon="1.7612">
        <ele>51</ele>
        <time>2021-08-10T14:16:53.999Z</time>
      </trkpt>
      <trkpt lat="50.46309" lon="1.76124">
        <ele>51</ele>
        <time>2021-08-10T14:16:57.999Z</time>
      </trkpt>
      <trkpt lat="50.46313" lon="1.76129">
        <ele>50</ele>
        <time>2021-08-10T14:17:01.999Z</time>
      </trkpt>
      <trkpt lat="50.46316" lon="1.76135">
        <ele>50</ele>
        <time>2021-08-10T14:17:06.999Z</time>
      </trkpt>
      <trkpt lat="50.4632" lon="1.76139">
        <ele>51</ele>
        <time>2021-08-10T14:17:11.108Z</time>
      </trkpt>
      <trkpt lat="50.46325" lon="1.76143">
        <ele>51</ele>
        <time>2021-08-10T14:17:15.999Z</time>
      </trkpt>
      <trkpt lat="50.46329" lon="1.76149">
        <ele>51</ele>
        <time>2021-08-10T14:17:21.100Z</time>
      </trkpt>
      <trkpt lat="50.46334" lon="1.76153">
        <ele>51</ele>
        <time>2021-08-10T14:17:25.999Z</time>
      </trkpt>
      <trkpt lat="50.46338" lon="1.76155">
        <ele>51</ele>
        <time>2021-08-10T14:17:29.999Z</time>
      </trkpt>
      <trkpt lat="50.46342" lon="1.76158">
        <ele>51</ele>
        <time>2021-08-10T14:17:34.999Z</time>
      </trkpt>
      <trkpt lat="50.46347" lon="1.76162">
        <ele>51</ele>
        <time>2021-08-10T14:17:40.106Z</time>
      </trkpt>
      <trkpt lat="50.46352" lon="1.76167">
        <ele>51</ele>
        <time>2021-08-10T14:17:44.999Z</time>
      </trkpt>
      <trkpt lat="50.46357" lon="1.76171">
        <ele>51</ele>
        <time>2021-08-10T14:17:49.999Z</time>
      </trkpt>
      <trkpt lat="50.46362" lon="1.76173">
        <ele>51</ele>
        <time>2021-08-10T14:17:53.999Z</time>
      </trkpt>
      <trkpt lat="50.46367" lon="1.76173">
        <ele>51</ele>
        <time>2021-08-10T14:17:58.999Z</time>
      </trkpt>
      <trkpt lat="50.46374" lon="1.76169">
        <ele>51</ele>
        <time>2021-08-10T14:18:03.999Z</time>
      </trkpt>
      <trkpt lat="50.46379" lon="1.76163">
        <ele>52</ele>
        <time>2021-08-10T14:18:08.999Z</time>
      </trkpt>
      <trkpt lat="50.46383" lon="1.76161">
        <ele>52</ele>
        <time>2021-08-10T14:18:13.104Z</time>
      </trkpt>
      <trkpt lat="50.46389" lon="1.76157">
        <ele>52</ele>
        <time>2021-08-10T14:18:17.999Z</time>
      </trkpt>
      <trkpt lat="50.46394" lon="1.76153">
        <ele>52</ele>
        <time>2021-08-10T14:18:23.105Z</time>
      </trkpt>
      <trkpt lat="50.46397" lon="1.76146">
        <ele>52</ele>
        <time>2021-08-10T14:18:27.999Z</time>
      </trkpt>
      <trkpt lat="50.46401" lon="1.76142">
        <ele>52</ele>
        <time>2021-08-10T14:18:31.999Z</time>
      </trkpt>
      <trkpt lat="50.46406" lon="1.76135">
        <ele>53</ele>
        <time>2021-08-10T14:18:36.999Z</time>
      </trkpt>
      <trkpt lat="50.46408" lon="1.76129">
        <ele>53</ele>
        <time>2021-08-10T14:18:41.999Z</time>
      </trkpt>
      <trkpt lat="50.46409" lon="1.76124">
        <ele>52</ele>
        <time>2021-08-10T14:18:45.999Z</time>
      </trkpt>
      <trkpt lat="50.46418" lon="1.76127">
        <ele>53</ele>
        <time>2021-08-10T14:23:37.999Z</time>
      </trkpt>
      <trkpt lat="50.46419" lon="1.76119">
        <ele>52</ele>
        <time>2021-08-10T14:23:41.999Z</time>
      </trkpt>
      <trkpt lat="50.46423" lon="1.76114">
        <ele>52</ele>
        <time>2021-08-10T14:23:45.999Z</time>
      </trkpt>
      <trkpt lat="50.46423" lon="1.7611">
        <ele>52</ele>
        <time>2021-08-10T14:23:51.102Z</time>
      </trkpt>
      <trkpt lat="50.46422" lon="1.76106">
        <ele>52</ele>
        <time>2021-08-10T14:23:55.999Z</time>
      </trkpt>
      <trkpt lat="50.46426" lon="1.76098">
        <ele>52</ele>
        <time>2021-08-10T14:24:00.999Z</time>
      </trkpt>
      <trkpt lat="50.46433" lon="1.76093">
        <ele>51</ele>
        <time>2021-08-10T14:24:04.999Z</time>
      </trkpt>
      <trkpt lat="50.46439" lon="1.76089">
        <ele>51</ele>
        <time>2021-08-10T14:24:09.999Z</time>
      </trkpt>
      <trkpt lat="50.46444" lon="1.76086">
        <ele>51</ele>
        <time>2021-08-10T14:24:13.999Z</time>
      </trkpt>
      <trkpt lat="50.4645" lon="1.76081">
        <ele>51</ele>
        <time>2021-08-10T14:24:18.999Z</time>
      </trkpt>
      <trkpt lat="50.46457" lon="1.76079">
        <ele>51</ele>
        <time>2021-08-10T14:24:23.999Z</time>
      </trkpt>
      <trkpt lat="50.46462" lon="1.76077">
        <ele>52</ele>
        <time>2021-08-10T14:24:27.999Z</time>
      </trkpt>
      <trkpt lat="50.46468" lon="1.76075">
        <ele>52</ele>
        <time>2021-08-10T14:24:32.999Z</time>
      </trkpt>
      <trkpt lat="50.46475" lon="1.76072">
        <ele>52</ele>
        <time>2021-08-10T14:24:37.999Z</time>
      </trkpt>
      <trkpt lat="50.46479" lon="1.7607">
        <ele>52</ele>
        <time>2021-08-10T14:24:41.999Z</time>
      </trkpt>
      <trkpt lat="50.46483" lon="1.76067">
        <ele>51</ele>
        <time>2021-08-10T14:24:46.999Z</time>
      </trkpt>
      <trkpt lat="50.46489" lon="1.76066">
        <ele>50</ele>
        <time>2021-08-10T14:24:51.105Z</time>
      </trkpt>
      <trkpt lat="50.46496" lon="1.76066">
        <ele>50</ele>
        <time>2021-08-10T14:24:55.999Z</time>
      </trkpt>
      <trkpt lat="50.46502" lon="1.76066">
        <ele>50</ele>
        <time>2021-08-10T14:25:00.999Z</time>
      </trkpt>
      <trkpt lat="50.46508" lon="1.76064">
        <ele>50</ele>
        <time>2021-08-10T14:25:05.999Z</time>
      </trkpt>
      <trkpt lat="50.46513" lon="1.76065">
        <ele>50</ele>
        <time>2021-08-10T14:25:10.999Z</time>
      </trkpt>
      <trkpt lat="50.46517" lon="1.76065">
        <ele>49</ele>
        <time>2021-08-10T14:25:14.999Z</time>
      </trkpt>
      <trkpt lat="50.46519" lon="1.76065">
        <ele>49</ele>
        <time>2021-08-10T14:25:18.999Z</time>
      </trkpt>
      <trkpt lat="50.46525" lon="1.76063">
        <ele>49</ele>
        <time>2021-08-10T14:25:24.100Z</time>
      </trkpt>
      <trkpt lat="50.46531" lon="1.76061">
        <ele>49</ele>
        <time>2021-08-10T14:25:29.100Z</time>
      </trkpt>
      <trkpt lat="50.46537" lon="1.7606">
        <ele>49</ele>
        <time>2021-08-10T14:25:33.999Z</time>
      </trkpt>
      <trkpt lat="50.46543" lon="1.76058">
        <ele>48</ele>
        <time>2021-08-10T14:25:38.999Z</time>
      </trkpt>
      <trkpt lat="50.46549" lon="1.76057">
        <ele>48</ele>
        <time>2021-08-10T14:25:43.999Z</time>
      </trkpt>
      <trkpt lat="50.46554" lon="1.76056">
        <ele>48</ele>
        <time>2021-08-10T14:25:47.999Z</time>
      </trkpt>
      <trkpt lat="50.4656" lon="1.76054">
        <ele>48</ele>
        <time>2021-08-10T14:25:52.999Z</time>
      </trkpt>
      <trkpt lat="50.46564" lon="1.76052">
        <ele>48</ele>
        <time>2021-08-10T14:25:56.999Z</time>
      </trkpt>
      <trkpt lat="50.4657" lon="1.76052">
        <ele>46</ele>
        <time>2021-08-10T14:26:02.101Z</time>
      </trkpt>
      <trkpt lat="50.46576" lon="1.76051">
        <ele>46</ele>
        <time>2021-08-10T14:26:06.999Z</time>
      </trkpt>
      <trkpt lat="50.46582" lon="1.76048">
        <ele>46</ele>
        <time>2021-08-10T14:26:11.999Z</time>
      </trkpt>
      <trkpt lat="50.46587" lon="1.76043">
        <ele>46</ele>
        <time>2021-08-10T14:26:16.999Z</time>
      </trkpt>
      <trkpt lat="50.46593" lon="1.7604">
        <ele>46</ele>
        <time>2021-08-10T14:26:21.999Z</time>
      </trkpt>
      <trkpt lat="50.46597" lon="1.76037">
        <ele>46</ele>
        <time>2021-08-10T14:26:25.999Z</time>
      </trkpt>
      <trkpt lat="50.46601" lon="1.7603">
        <ele>46</ele>
        <time>2021-08-10T14:26:30.999Z</time>
      </trkpt>
      <trkpt lat="50.46603" lon="1.76023">
        <ele>46</ele>
        <time>2021-08-10T14:26:35.999Z</time>
      </trkpt>
      <trkpt lat="50.46601" lon="1.76014">
        <ele>46</ele>
        <time>2021-08-10T14:26:40.999Z</time>
      </trkpt>
      <trkpt lat="50.46598" lon="1.76007">
        <ele>44</ele>
        <time>2021-08-10T14:26:44.999Z</time>
      </trkpt>
      <trkpt lat="50.46595" lon="1.76007">
        <ele>45</ele>
        <time>2021-08-10T14:28:54.999Z</time>
      </trkpt>
      <trkpt lat="50.46595" lon="1.76009">
        <ele>45</ele>
        <time>2021-08-10T14:28:58.999Z</time>
      </trkpt>
      <trkpt lat="50.46596" lon="1.76016">
        <ele>46</ele>
        <time>2021-08-10T14:29:03.999Z</time>
      </trkpt>
      <trkpt lat="50.46602" lon="1.76028">
        <ele>46</ele>
        <time>2021-08-10T14:29:08.999Z</time>
      </trkpt>
      <trkpt lat="50.46602" lon="1.76031">
        <ele>46</ele>
        <time>2021-08-10T14:29:14.110Z</time>
      </trkpt>
      <trkpt lat="50.46606" lon="1.76028">
        <ele>46</ele>
        <time>2021-08-10T14:29:32.103Z</time>
      </trkpt>
      <trkpt lat="50.466" lon="1.76032">
        <ele>46</ele>
        <time>2021-08-10T14:29:36.999Z</time>
      </trkpt>
      <trkpt lat="50.46595" lon="1.76032">
        <ele>46</ele>
        <time>2021-08-10T14:29:40.999Z</time>
      </trkpt>
      <trkpt lat="50.46591" lon="1.76036">
        <ele>46</ele>
        <time>2021-08-10T14:29:44.999Z</time>
      </trkpt>
      <trkpt lat="50.46585" lon="1.76038">
        <ele>46</ele>
        <time>2021-08-10T14:29:49.999Z</time>
      </trkpt>
      <trkpt lat="50.4658" lon="1.76042">
        <ele>46</ele>
        <time>2021-08-10T14:29:54.999Z</time>
      </trkpt>
      <trkpt lat="50.46575" lon="1.76044">
        <ele>46</ele>
        <time>2021-08-10T14:29:58.999Z</time>
      </trkpt>
      <trkpt lat="50.4657" lon="1.76047">
        <ele>46</ele>
        <time>2021-08-10T14:30:03.999Z</time>
      </trkpt>
      <trkpt lat="50.46566" lon="1.76051">
        <ele>48</ele>
        <time>2021-08-10T14:30:07.999Z</time>
      </trkpt>
      <trkpt lat="50.46565" lon="1.76053">
        <ele>48</ele>
        <time>2021-08-10T14:30:12.999Z</time>
      </trkpt>
      <trkpt lat="50.46566" lon="1.76053">
        <ele>48</ele>
        <time>2021-08-10T14:30:18.103Z</time>
      </trkpt>
      <trkpt lat="50.46564" lon="1.76053">
        <ele>48</ele>
        <time>2021-08-10T14:30:23.103Z</time>
      </trkpt>
      <trkpt lat="50.46558" lon="1.76054">
        <ele>48</ele>
        <time>2021-08-10T14:30:27.999Z</time>
      </trkpt>
      <trkpt lat="50.46552" lon="1.76056">
        <ele>48</ele>
        <time>2021-08-10T14:30:33.103Z</time>
      </trkpt>
      <trkpt lat="50.46548" lon="1.76059">
        <ele>48</ele>
        <time>2021-08-10T14:30:37.999Z</time>
      </trkpt>
      <trkpt lat="50.46542" lon="1.76059">
        <ele>48</ele>
        <time>2021-08-10T14:30:42.999Z</time>
      </trkpt>
      <trkpt lat="50.46538" lon="1.76059">
        <ele>49</ele>
        <time>2021-08-10T14:30:46.999Z</time>
      </trkpt>
      <trkpt lat="50.46533" lon="1.7606">
        <ele>49</ele>
        <time>2021-08-10T14:30:52.100Z</time>
      </trkpt>
      <trkpt lat="50.46528" lon="1.76062">
        <ele>49</ele>
        <time>2021-08-10T14:30:56.999Z</time>
      </trkpt>
      <trkpt lat="50.46523" lon="1.76062">
        <ele>49</ele>
        <time>2021-08-10T14:31:01.999Z</time>
      </trkpt>
      <trkpt lat="50.46518" lon="1.76062">
        <ele>49</ele>
        <time>2021-08-10T14:31:05.999Z</time>
      </trkpt>
      <trkpt lat="50.46512" lon="1.76064">
        <ele>50</ele>
        <time>2021-08-10T14:31:10.999Z</time>
      </trkpt>
      <trkpt lat="50.46506" lon="1.76066">
        <ele>50</ele>
        <time>2021-08-10T14:31:15.999Z</time>
      </trkpt>
      <trkpt lat="50.46502" lon="1.76066">
        <ele>50</ele>
        <time>2021-08-10T14:31:20.104Z</time>
      </trkpt>
      <trkpt lat="50.46496" lon="1.76066">
        <ele>50</ele>
        <time>2021-08-10T14:31:24.999Z</time>
      </trkpt>
      <trkpt lat="50.4649" lon="1.76066">
        <ele>50</ele>
        <time>2021-08-10T14:31:29.999Z</time>
      </trkpt>
      <trkpt lat="50.46484" lon="1.76069">
        <ele>51</ele>
        <time>2021-08-10T14:31:34.999Z</time>
      </trkpt>
      <trkpt lat="50.46479" lon="1.7607">
        <ele>52</ele>
        <time>2021-08-10T14:31:39.999Z</time>
      </trkpt>
      <trkpt lat="50.46473" lon="1.76071">
        <ele>52</ele>
        <time>2021-08-10T14:31:44.999Z</time>
      </trkpt>
      <trkpt lat="50.46469" lon="1.76073">
        <ele>52</ele>
        <time>2021-08-10T14:31:48.999Z</time>
      </trkpt>
      <trkpt lat="50.46463" lon="1.76073">
        <ele>52</ele>
        <time>2021-08-10T14:31:53.999Z</time>
      </trkpt>
      <trkpt lat="50.46457" lon="1.76074">
        <ele>51</ele>
        <time>2021-08-10T14:31:59.101Z</time>
      </trkpt>
      <trkpt lat="50.4645" lon="1.76077">
        <ele>51</ele>
        <time>2021-08-10T14:32:03.999Z</time>
      </trkpt>
      <trkpt lat="50.46444" lon="1.76078">
        <ele>51</ele>
        <time>2021-08-10T14:32:08.999Z</time>
      </trkpt>
      <trkpt lat="50.46436" lon="1.76088">
        <ele>51</ele>
        <time>2021-08-10T14:32:21.999Z</time>
      </trkpt>
      <trkpt lat="50.46433" lon="1.76081">
        <ele>51</ele>
        <time>2021-08-10T14:32:26.999Z</time>
      </trkpt>
      <trkpt lat="50.46431" lon="1.76073">
        <ele>51</ele>
        <time>2021-08-10T14:32:31.999Z</time>
      </trkpt>
      <trkpt lat="50.46428" lon="1.76065">
        <ele>51</ele>
        <time>2021-08-10T14:32:36.999Z</time>
      </trkpt>
      <trkpt lat="50.46425" lon="1.76057">
        <ele>51</ele>
        <time>2021-08-10T14:32:41.999Z</time>
      </trkpt>
      <trkpt lat="50.46422" lon="1.76048">
        <ele>51</ele>
        <time>2021-08-10T14:32:46.999Z</time>
      </trkpt>
      <trkpt lat="50.4642" lon="1.76041">
        <ele>48</ele>
        <time>2021-08-10T14:32:51.999Z</time>
      </trkpt>
      <trkpt lat="50.46417" lon="1.76031">
        <ele>48</ele>
        <time>2021-08-10T14:32:56.999Z</time>
      </trkpt>
      <trkpt lat="50.46415" lon="1.76024">
        <ele>48</ele>
        <time>2021-08-10T14:33:00.999Z</time>
      </trkpt>
      <trkpt lat="50.46413" lon="1.76015">
        <ele>48</ele>
        <time>2021-08-10T14:33:05.999Z</time>
      </trkpt>
      <trkpt lat="50.4641" lon="1.76007">
        <ele>46</ele>
        <time>2021-08-10T14:33:10.999Z</time>
      </trkpt>
      <trkpt lat="50.46408" lon="1.75999">
        <ele>46</ele>
        <time>2021-08-10T14:33:15.999Z</time>
      </trkpt>
      <trkpt lat="50.46404" lon="1.75994">
        <ele>46</ele>
        <time>2021-08-10T14:33:20.103Z</time>
      </trkpt>
      <trkpt lat="50.464" lon="1.75988">
        <ele>48</ele>
        <time>2021-08-10T14:33:24.999Z</time>
      </trkpt>
      <trkpt lat="50.46396" lon="1.75982">
        <ele>45</ele>
        <time>2021-08-10T14:33:29.999Z</time>
      </trkpt>
      <trkpt lat="50.46392" lon="1.75977">
        <ele>45</ele>
        <time>2021-08-10T14:33:33.999Z</time>
      </trkpt>
      <trkpt lat="50.46388" lon="1.75972">
        <ele>45</ele>
        <time>2021-08-10T14:33:38.999Z</time>
      </trkpt>
      <trkpt lat="50.46386" lon="1.75965">
        <ele>45</ele>
        <time>2021-08-10T14:33:42.999Z</time>
      </trkpt>
      <trkpt lat="50.4638" lon="1.75963">
        <ele>45</ele>
        <time>2021-08-10T14:33:47.999Z</time>
      </trkpt>
      <trkpt lat="50.46374" lon="1.75966">
        <ele>46</ele>
        <time>2021-08-10T14:33:52.999Z</time>
      </trkpt>
      <trkpt lat="50.46368" lon="1.75968">
        <ele>46</ele>
        <time>2021-08-10T14:33:58.100Z</time>
      </trkpt>
      <trkpt lat="50.46363" lon="1.75971">
        <ele>46</ele>
        <time>2021-08-10T14:34:02.999Z</time>
      </trkpt>
      <trkpt lat="50.46359" lon="1.75974">
        <ele>46</ele>
        <time>2021-08-10T14:34:06.999Z</time>
      </trkpt>
      <trkpt lat="50.46354" lon="1.75978">
        <ele>46</ele>
        <time>2021-08-10T14:34:10.999Z</time>
      </trkpt>
      <trkpt lat="50.46349" lon="1.75981">
        <ele>46</ele>
        <time>2021-08-10T14:34:14.999Z</time>
      </trkpt>
      <trkpt lat="50.46344" lon="1.75986">
        <ele>46</ele>
        <time>2021-08-10T14:34:19.999Z</time>
      </trkpt>
      <trkpt lat="50.46338" lon="1.75989">
        <ele>47</ele>
        <time>2021-08-10T14:34:24.999Z</time>
      </trkpt>
      <trkpt lat="50.46334" lon="1.75994">
        <ele>47</ele>
        <time>2021-08-10T14:34:29.104Z</time>
      </trkpt>
      <trkpt lat="50.46329" lon="1.75999">
        <ele>47</ele>
        <time>2021-08-10T14:34:33.999Z</time>
      </trkpt>
      <trkpt lat="50.46324" lon="1.76005">
        <ele>47</ele>
        <time>2021-08-10T14:34:38.999Z</time>
      </trkpt>
      <trkpt lat="50.46318" lon="1.76007">
        <ele>48</ele>
        <time>2021-08-10T14:34:43.999Z</time>
      </trkpt>
      <trkpt lat="50.46314" lon="1.7601">
        <ele>48</ele>
        <time>2021-08-10T14:34:47.999Z</time>
      </trkpt>
      <trkpt lat="50.46308" lon="1.76013">
        <ele>48</ele>
        <time>2021-08-10T14:34:52.999Z</time>
      </trkpt>
      <trkpt lat="50.46302" lon="1.76017">
        <ele>48</ele>
        <time>2021-08-10T14:34:57.999Z</time>
      </trkpt>
      <trkpt lat="50.46296" lon="1.76019">
        <ele>48</ele>
        <time>2021-08-10T14:35:02.999Z</time>
      </trkpt>
      <trkpt lat="50.46291" lon="1.7602">
        <ele>48</ele>
        <time>2021-08-10T14:35:07.999Z</time>
      </trkpt>
      <trkpt lat="50.46285" lon="1.76019">
        <ele>48</ele>
        <time>2021-08-10T14:35:12.999Z</time>
      </trkpt>
      <trkpt lat="50.46273" lon="1.76014">
        <ele>47</ele>
        <time>2021-08-10T14:35:31.999Z</time>
      </trkpt>
      <trkpt lat="50.46273" lon="1.76014">
        <ele>47</ele>
        <time>2021-08-10T14:35:36.999Z</time>
      </trkpt>
      <trkpt lat="50.46267" lon="1.76013">
        <ele>47</ele>
        <time>2021-08-10T14:35:41.999Z</time>
      </trkpt>
      <trkpt lat="50.46262" lon="1.76012">
        <ele>48</ele>
        <time>2021-08-10T14:35:46.100Z</time>
      </trkpt>
      <trkpt lat="50.46257" lon="1.76009">
        <ele>48</ele>
        <time>2021-08-10T14:35:50.999Z</time>
      </trkpt>
      <trkpt lat="50.46253" lon="1.76007">
        <ele>48</ele>
        <time>2021-08-10T14:35:54.999Z</time>
      </trkpt>
      <trkpt lat="50.46248" lon="1.76005">
        <ele>48</ele>
        <time>2021-08-10T14:35:59.999Z</time>
      </trkpt>
      <trkpt lat="50.46241" lon="1.76002">
        <ele>48</ele>
        <time>2021-08-10T14:36:04.999Z</time>
      </trkpt>
      <trkpt lat="50.46238" lon="1.76">
        <ele>48</ele>
        <time>2021-08-10T14:36:08.999Z</time>
      </trkpt>
      <trkpt lat="50.46232" lon="1.75997">
        <ele>48</ele>
        <time>2021-08-10T14:36:14.100Z</time>
      </trkpt>
      <trkpt lat="50.46227" lon="1.75994">
        <ele>48</ele>
        <time>2021-08-10T14:36:18.999Z</time>
      </trkpt>
      <trkpt lat="50.46222" lon="1.75992">
        <ele>48</ele>
        <time>2021-08-10T14:36:22.999Z</time>
      </trkpt>
      <trkpt lat="50.4622" lon="1.75989">
        <ele>48</ele>
        <time>2021-08-10T14:36:27.999Z</time>
      </trkpt>
      <trkpt lat="50.46215" lon="1.75989">
        <ele>48</ele>
        <time>2021-08-10T14:37:38.999Z</time>
      </trkpt>
      <trkpt lat="50.46214" lon="1.75991">
        <ele>48</ele>
        <time>2021-08-10T14:37:42.999Z</time>
      </trkpt>
      <trkpt lat="50.46213" lon="1.7599">
        <ele>48</ele>
        <time>2021-08-10T14:37:47.999Z</time>
      </trkpt>
      <trkpt lat="50.46212" lon="1.7599">
        <ele>48</ele>
        <time>2021-08-10T14:37:51.999Z</time>
      </trkpt>
      <trkpt lat="50.46207" lon="1.75989">
        <ele>48</ele>
        <time>2021-08-10T14:37:55.999Z</time>
      </trkpt>
      <trkpt lat="50.46204" lon="1.75988">
        <ele>48</ele>
        <time>2021-08-10T14:38:00.999Z</time>
      </trkpt>
      <trkpt lat="50.46204" lon="1.75988">
        <ele>48</ele>
        <time>2021-08-10T14:38:05.999Z</time>
      </trkpt>
      <trkpt lat="50.46202" lon="1.75979">
        <ele>48</ele>
        <time>2021-08-10T14:38:11.101Z</time>
      </trkpt>
      <trkpt lat="50.46195" lon="1.7598">
        <ele>48</ele>
        <time>2021-08-10T14:38:15.999Z</time>
      </trkpt>
      <trkpt lat="50.46189" lon="1.75976">
        <ele>48</ele>
        <time>2021-08-10T14:38:23.999Z</time>
      </trkpt>
      <trkpt lat="50.46188" lon="1.75975">
        <ele>48</ele>
        <time>2021-08-10T14:38:28.999Z</time>
      </trkpt>
      <trkpt lat="50.46187" lon="1.75975">
        <ele>48</ele>
        <time>2021-08-10T14:38:32.999Z</time>
      </trkpt>
      <trkpt lat="50.46184" lon="1.75973">
        <ele>48</ele>
        <time>2021-08-10T14:38:37.999Z</time>
      </trkpt>
      <trkpt lat="50.46179" lon="1.75972">
        <ele>48</ele>
        <time>2021-08-10T14:38:42.999Z</time>
      </trkpt>
      <trkpt lat="50.46176" lon="1.7597">
        <ele>48</ele>
        <time>2021-08-10T14:38:46.999Z</time>
      </trkpt>
      <trkpt lat="50.46172" lon="1.75969">
        <ele>48</ele>
        <time>2021-08-10T14:38:51.999Z</time>
      </trkpt>
      <trkpt lat="50.46168" lon="1.75968">
        <ele>48</ele>
        <time>2021-08-10T14:38:55.999Z</time>
      </trkpt>
      <trkpt lat="50.46164" lon="1.75965">
        <ele>48</ele>
        <time>2021-08-10T14:39:00.999Z</time>
      </trkpt>
      <trkpt lat="50.46159" lon="1.75963">
        <ele>48</ele>
        <time>2021-08-10T14:39:05.999Z</time>
      </trkpt>
      <trkpt lat="50.46157" lon="1.75956">
        <ele>49</ele>
        <time>2021-08-10T14:39:10.999Z</time>
      </trkpt>
      <trkpt lat="50.46154" lon="1.75951">
        <ele>49</ele>
        <time>2021-08-10T14:39:15.107Z</time>
      </trkpt>
      <trkpt lat="50.46149" lon="1.7595">
        <ele>48</ele>
        <time>2021-08-10T14:39:19.999Z</time>
      </trkpt>
      <trkpt lat="50.46145" lon="1.75951">
        <ele>48</ele>
        <time>2021-08-10T14:39:23.999Z</time>
      </trkpt>
      <trkpt lat="50.46139" lon="1.75949">
        <ele>48</ele>
        <time>2021-08-10T14:39:29.108Z</time>
      </trkpt>
      <trkpt lat="50.46135" lon="1.75944">
        <ele>48</ele>
        <time>2021-08-10T14:39:33.999Z</time>
      </trkpt>
      <trkpt lat="50.46131" lon="1.75939">
        <ele>48</ele>
        <time>2021-08-10T14:39:38.999Z</time>
      </trkpt>
      <trkpt lat="50.46126" lon="1.75935">
        <ele>48</ele>
        <time>2021-08-10T14:39:43.999Z</time>
      </trkpt>
      <trkpt lat="50.46121" lon="1.75932">
        <ele>47</ele>
        <time>2021-08-10T14:39:48.102Z</time>
      </trkpt>
      <trkpt lat="50.46117" lon="1.75928">
        <ele>49</ele>
        <time>2021-08-10T14:39:52.999Z</time>
      </trkpt>
      <trkpt lat="50.46114" lon="1.75924">
        <ele>49</ele>
        <time>2021-08-10T14:39:56.999Z</time>
      </trkpt>
      <trkpt lat="50.46109" lon="1.75922">
        <ele>49</ele>
        <time>2021-08-10T14:40:00.999Z</time>
      </trkpt>
      <trkpt lat="50.46105" lon="1.75918">
        <ele>49</ele>
        <time>2021-08-10T14:40:05.999Z</time>
      </trkpt>
      <trkpt lat="50.46101" lon="1.75914">
        <ele>49</ele>
        <time>2021-08-10T14:40:09.999Z</time>
      </trkpt>
      <trkpt lat="50.46099" lon="1.75908">
        <ele>49</ele>
        <time>2021-08-10T14:40:14.999Z</time>
      </trkpt>
      <trkpt lat="50.46097" lon="1.75902">
        <ele>48</ele>
        <time>2021-08-10T14:40:19.999Z</time>
      </trkpt>
      <trkpt lat="50.46095" lon="1.75895">
        <ele>48</ele>
        <time>2021-08-10T14:40:24.999Z</time>
      </trkpt>
      <trkpt lat="50.46092" lon="1.75888">
        <ele>48</ele>
        <time>2021-08-10T14:40:29.999Z</time>
      </trkpt>
      <trkpt lat="50.4609" lon="1.75882">
        <ele>48</ele>
        <time>2021-08-10T14:40:33.999Z</time>
      </trkpt>
      <trkpt lat="50.46086" lon="1.75875">
        <ele>48</ele>
        <time>2021-08-10T14:40:37.999Z</time>
      </trkpt>
      <trkpt lat="50.46083" lon="1.75868">
        <ele>47</ele>
        <time>2021-08-10T14:40:42.999Z</time>
      </trkpt>
      <trkpt lat="50.46081" lon="1.75861">
        <ele>47</ele>
        <time>2021-08-10T14:40:47.999Z</time>
      </trkpt>
      <trkpt lat="50.46082" lon="1.75856">
        <ele>47</ele>
        <time>2021-08-10T14:40:52.999Z</time>
      </trkpt>
      <trkpt lat="50.46085" lon="1.7585">
        <ele>47</ele>
        <time>2021-08-10T14:40:57.999Z</time>
      </trkpt>
      <trkpt lat="50.46087" lon="1.75845">
        <ele>46</ele>
        <time>2021-08-10T14:41:01.999Z</time>
      </trkpt>
      <trkpt lat="50.46089" lon="1.75839">
        <ele>46</ele>
        <time>2021-08-10T14:41:06.999Z</time>
      </trkpt>
      <trkpt lat="50.46092" lon="1.75835">
        <ele>46</ele>
        <time>2021-08-10T14:41:11.999Z</time>
      </trkpt>
      <trkpt lat="50.46094" lon="1.75819">
        <ele>42</ele>
        <time>2021-08-10T14:41:31.999Z</time>
      </trkpt>
      <trkpt lat="50.46099" lon="1.75821">
        <ele>44</ele>
        <time>2021-08-10T14:41:36.999Z</time>
      </trkpt>
      <trkpt lat="50.46105" lon="1.75822">
        <ele>44</ele>
        <time>2021-08-10T14:41:40.999Z</time>
      </trkpt>
      <trkpt lat="50.46111" lon="1.75825">
        <ele>44</ele>
        <time>2021-08-10T14:41:45.999Z</time>
      </trkpt>
      <trkpt lat="50.46115" lon="1.75827">
        <ele>44</ele>
        <time>2021-08-10T14:41:49.999Z</time>
      </trkpt>
      <trkpt lat="50.46119" lon="1.75828">
        <ele>44</ele>
        <time>2021-08-10T14:41:53.999Z</time>
      </trkpt>
      <trkpt lat="50.46125" lon="1.75829">
        <ele>45</ele>
        <time>2021-08-10T14:41:58.999Z</time>
      </trkpt>
      <trkpt lat="50.46131" lon="1.75829">
        <ele>45</ele>
        <time>2021-08-10T14:42:03.999Z</time>
      </trkpt>
      <trkpt lat="50.46136" lon="1.75829">
        <ele>45</ele>
        <time>2021-08-10T14:42:07.999Z</time>
      </trkpt>
      <trkpt lat="50.46142" lon="1.75831">
        <ele>45</ele>
        <time>2021-08-10T14:42:12.999Z</time>
      </trkpt>
      <trkpt lat="50.46146" lon="1.75832">
        <ele>45</ele>
        <time>2021-08-10T14:42:16.999Z</time>
      </trkpt>
      <trkpt lat="50.46152" lon="1.75832">
        <ele>45</ele>
        <time>2021-08-10T14:42:21.999Z</time>
      </trkpt>
      <trkpt lat="50.46158" lon="1.75834">
        <ele>44</ele>
        <time>2021-08-10T14:42:26.999Z</time>
      </trkpt>
      <trkpt lat="50.46162" lon="1.75839">
        <ele>44</ele>
        <time>2021-08-10T14:42:32.102Z</time>
      </trkpt>
      <trkpt lat="50.46167" lon="1.75842">
        <ele>44</ele>
        <time>2021-08-10T14:42:36.999Z</time>
      </trkpt>
      <trkpt lat="50.46172" lon="1.75845">
        <ele>44</ele>
        <time>2021-08-10T14:42:41.999Z</time>
      </trkpt>
      <trkpt lat="50.46176" lon="1.75845">
        <ele>44</ele>
        <time>2021-08-10T14:42:46.109Z</time>
      </trkpt>
      <trkpt lat="50.46181" lon="1.75847">
        <ele>41</ele>
        <time>2021-08-10T14:42:50.999Z</time>
      </trkpt>
      <trkpt lat="50.46185" lon="1.75848">
        <ele>44</ele>
        <time>2021-08-10T14:42:54.999Z</time>
      </trkpt>
      <trkpt lat="50.46191" lon="1.75848">
        <ele>44</ele>
        <time>2021-08-10T14:42:59.999Z</time>
      </trkpt>
      <trkpt lat="50.46196" lon="1.7585">
        <ele>44</ele>
        <time>2021-08-10T14:43:03.999Z</time>
      </trkpt>
      <trkpt lat="50.46201" lon="1.75852">
        <ele>44</ele>
        <time>2021-08-10T14:43:09.102Z</time>
      </trkpt>
      <trkpt lat="50.46206" lon="1.75854">
        <ele>44</ele>
        <time>2021-08-10T14:43:13.999Z</time>
      </trkpt>
      <trkpt lat="50.4621" lon="1.75855">
        <ele>42</ele>
        <time>2021-08-10T14:43:17.999Z</time>
      </trkpt>
      <trkpt lat="50.46215" lon="1.75857">
        <ele>42</ele>
        <time>2021-08-10T14:43:22.999Z</time>
      </trkpt>
      <trkpt lat="50.4622" lon="1.75861">
        <ele>42</ele>
        <time>2021-08-10T14:43:27.999Z</time>
      </trkpt>
      <trkpt lat="50.46224" lon="1.75863">
        <ele>42</ele>
        <time>2021-08-10T14:43:32.999Z</time>
      </trkpt>
      <trkpt lat="50.4623" lon="1.75865">
        <ele>42</ele>
        <time>2021-08-10T14:43:37.999Z</time>
      </trkpt>
      <trkpt lat="50.46235" lon="1.75868">
        <ele>42</ele>
        <time>2021-08-10T14:43:42.999Z</time>
      </trkpt>
      <trkpt lat="50.46239" lon="1.75871">
        <ele>41</ele>
        <time>2021-08-10T14:43:46.999Z</time>
      </trkpt>
      <trkpt lat="50.46245" lon="1.75869">
        <ele>41</ele>
        <time>2021-08-10T14:43:51.999Z</time>
      </trkpt>
      <trkpt lat="50.4625" lon="1.75869">
        <ele>41</ele>
        <time>2021-08-10T14:43:55.999Z</time>
      </trkpt>
      <trkpt lat="50.46255" lon="1.7587">
        <ele>41</ele>
        <time>2021-08-10T14:44:00.999Z</time>
      </trkpt>
      <trkpt lat="50.4626" lon="1.7587">
        <ele>41</ele>
        <time>2021-08-10T14:44:05.999Z</time>
      </trkpt>
      <trkpt lat="50.46266" lon="1.7587">
        <ele>40</ele>
        <time>2021-08-10T14:44:10.999Z</time>
      </trkpt>
      <trkpt lat="50.46272" lon="1.75869">
        <ele>40</ele>
        <time>2021-08-10T14:44:15.999Z</time>
      </trkpt>
      <trkpt lat="50.46276" lon="1.7587">
        <ele>40</ele>
        <time>2021-08-10T14:44:19.999Z</time>
      </trkpt>
      <trkpt lat="50.46278" lon="1.75871">
        <ele>40</ele>
        <time>2021-08-10T14:44:24.999Z</time>
      </trkpt>
      <trkpt lat="50.46282" lon="1.75868">
        <ele>40</ele>
        <time>2021-08-10T14:44:29.116Z</time>
      </trkpt>
      <trkpt lat="50.46288" lon="1.75867">
        <ele>40</ele>
        <time>2021-08-10T14:44:33.999Z</time>
      </trkpt>
      <trkpt lat="50.46295" lon="1.75867">
        <ele>39</ele>
        <time>2021-08-10T14:44:38.999Z</time>
      </trkpt>
      <trkpt lat="50.46301" lon="1.75866">
        <ele>39</ele>
        <time>2021-08-10T14:44:42.999Z</time>
      </trkpt>
      <trkpt lat="50.46307" lon="1.75864">
        <ele>39</ele>
        <time>2021-08-10T14:44:46.999Z</time>
      </trkpt>
      <trkpt lat="50.46312" lon="1.75864">
        <ele>39</ele>
        <time>2021-08-10T14:44:50.999Z</time>
      </trkpt>
      <trkpt lat="50.46319" lon="1.75863">
        <ele>39</ele>
        <time>2021-08-10T14:44:55.999Z</time>
      </trkpt>
      <trkpt lat="50.46324" lon="1.75862">
        <ele>38</ele>
        <time>2021-08-10T14:44:59.999Z</time>
      </trkpt>
      <trkpt lat="50.46329" lon="1.75861">
        <ele>38</ele>
        <time>2021-08-10T14:45:03.999Z</time>
      </trkpt>
      <trkpt lat="50.46335" lon="1.75861">
        <ele>38</ele>
        <time>2021-08-10T14:45:08.999Z</time>
      </trkpt>
      <trkpt lat="50.4634" lon="1.7586">
        <ele>38</ele>
        <time>2021-08-10T14:45:12.999Z</time>
      </trkpt>
      <trkpt lat="50.46346" lon="1.7586">
        <ele>38</ele>
        <time>2021-08-10T14:45:17.999Z</time>
      </trkpt>
      <trkpt lat="50.46351" lon="1.7586">
        <ele>37</ele>
        <time>2021-08-10T14:45:21.999Z</time>
      </trkpt>
      <trkpt lat="50.46357" lon="1.75858">
        <ele>37</ele>
        <time>2021-08-10T14:45:26.999Z</time>
      </trkpt>
      <trkpt lat="50.46362" lon="1.75858">
        <ele>37</ele>
        <time>2021-08-10T14:45:31.999Z</time>
      </trkpt>
      <trkpt lat="50.46368" lon="1.75858">
        <ele>37</ele>
        <time>2021-08-10T14:45:36.999Z</time>
      </trkpt>
      <trkpt lat="50.46373" lon="1.75858">
        <ele>37</ele>
        <time>2021-08-10T14:45:40.999Z</time>
      </trkpt>
      <trkpt lat="50.46377" lon="1.75857">
        <ele>36</ele>
        <time>2021-08-10T14:45:45.999Z</time>
      </trkpt>
      <trkpt lat="50.46379" lon="1.75855">
        <ele>36</ele>
        <time>2021-08-10T14:45:50.999Z</time>
      </trkpt>
      <trkpt lat="50.46379" lon="1.75855">
        <ele>36</ele>
        <time>2021-08-10T14:45:54.999Z</time>
      </trkpt>
      <trkpt lat="50.46379" lon="1.75864">
        <ele>36</ele>
        <time>2021-08-10T14:45:59.999Z</time>
      </trkpt>
      <trkpt lat="50.4638" lon="1.75873">
        <ele>36</ele>
        <time>2021-08-10T14:46:04.999Z</time>
      </trkpt>
      <trkpt lat="50.46382" lon="1.75879">
        <ele>40</ele>
        <time>2021-08-10T14:46:09.999Z</time>
      </trkpt>
      <trkpt lat="50.46385" lon="1.75886">
        <ele>40</ele>
        <time>2021-08-10T14:46:14.999Z</time>
      </trkpt>
      <trkpt lat="50.46387" lon="1.75893">
        <ele>40</ele>
        <time>2021-08-10T14:46:18.999Z</time>
      </trkpt>
      <trkpt lat="50.4639" lon="1.75898">
        <ele>40</ele>
        <time>2021-08-10T14:46:22.999Z</time>
      </trkpt>
      <trkpt lat="50.46393" lon="1.75904">
        <ele>41</ele>
        <time>2021-08-10T14:46:27.999Z</time>
      </trkpt>
      <trkpt lat="50.46399" lon="1.75923">
        <ele>41</ele>
        <time>2021-08-10T14:46:47.999Z</time>
      </trkpt>
      <trkpt lat="50.46401" lon="1.75928">
        <ele>41</ele>
        <time>2021-08-10T14:46:51.999Z</time>
      </trkpt>
      <trkpt lat="50.46404" lon="1.75939">
        <ele>41</ele>
        <time>2021-08-10T14:46:56.999Z</time>
      </trkpt>
      <trkpt lat="50.46407" lon="1.75948">
        <ele>41</ele>
        <time>2021-08-10T14:47:01.999Z</time>
      </trkpt>
      <trkpt lat="50.46409" lon="1.75959">
        <ele>44</ele>
        <time>2021-08-10T14:47:05.999Z</time>
      </trkpt>
      <trkpt lat="50.46413" lon="1.75969">
        <ele>44</ele>
        <time>2021-08-10T14:47:11.101Z</time>
      </trkpt>
      <trkpt lat="50.46416" lon="1.75977">
        <ele>44</ele>
        <time>2021-08-10T14:47:15.999Z</time>
      </trkpt>
      <trkpt lat="50.4642" lon="1.75984">
        <ele>44</ele>
        <time>2021-08-10T14:47:19.999Z</time>
      </trkpt>
      <trkpt lat="50.46426" lon="1.75986">
        <ele>44</ele>
        <time>2021-08-10T14:47:24.999Z</time>
      </trkpt>
      <trkpt lat="50.46432" lon="1.75984">
        <ele>44</ele>
        <time>2021-08-10T14:47:29.999Z</time>
      </trkpt>
      <trkpt lat="50.46437" lon="1.75982">
        <ele>44</ele>
        <time>2021-08-10T14:47:33.999Z</time>
      </trkpt>
      <trkpt lat="50.46443" lon="1.75982">
        <ele>44</ele>
        <time>2021-08-10T14:47:38.999Z</time>
      </trkpt>
      <trkpt lat="50.46447" lon="1.75982">
        <ele>44</ele>
        <time>2021-08-10T14:47:42.999Z</time>
      </trkpt>
      <trkpt lat="50.46453" lon="1.75983">
        <ele>44</ele>
        <time>2021-08-10T14:47:47.999Z</time>
      </trkpt>
      <trkpt lat="50.46459" lon="1.75983">
        <ele>44</ele>
        <time>2021-08-10T14:47:52.999Z</time>
      </trkpt>
      <trkpt lat="50.46465" lon="1.75981">
        <ele>44</ele>
        <time>2021-08-10T14:47:57.999Z</time>
      </trkpt>
      <trkpt lat="50.46472" lon="1.7598">
        <ele>44</ele>
        <time>2021-08-10T14:48:02.999Z</time>
      </trkpt>
      <trkpt lat="50.46478" lon="1.75979">
        <ele>44</ele>
        <time>2021-08-10T14:48:06.999Z</time>
      </trkpt>
      <trkpt lat="50.46484" lon="1.75978">
        <ele>44</ele>
        <time>2021-08-10T14:48:11.999Z</time>
      </trkpt>
      <trkpt lat="50.46491" lon="1.75977">
        <ele>44</ele>
        <time>2021-08-10T14:48:16.999Z</time>
      </trkpt>
      <trkpt lat="50.46496" lon="1.75976">
        <ele>44</ele>
        <time>2021-08-10T14:48:20.999Z</time>
      </trkpt>
      <trkpt lat="50.46501" lon="1.75975">
        <ele>44</ele>
        <time>2021-08-10T14:48:24.999Z</time>
      </trkpt>
      <trkpt lat="50.46506" lon="1.7597">
        <ele>44</ele>
        <time>2021-08-10T14:48:29.999Z</time>
      </trkpt>
      <trkpt lat="50.46507" lon="1.75963">
        <ele>44</ele>
        <time>2021-08-10T14:48:34.999Z</time>
      </trkpt>
      <trkpt lat="50.46508" lon="1.75964">
        <ele>44</ele>
        <time>2021-08-10T14:48:39.999Z</time>
      </trkpt>
      <trkpt lat="50.46508" lon="1.75966">
        <ele>44</ele>
        <time>2021-08-10T14:48:45.100Z</time>
      </trkpt>
      <trkpt lat="50.46511" lon="1.75974">
        <ele>44</ele>
        <time>2021-08-10T14:48:49.999Z</time>
      </trkpt>
      <trkpt lat="50.46519" lon="1.75971">
        <ele>43</ele>
        <time>2021-08-10T14:48:55.101Z</time>
      </trkpt>
      <trkpt lat="50.46526" lon="1.75968">
        <ele>43</ele>
        <time>2021-08-10T14:48:59.999Z</time>
      </trkpt>
      <trkpt lat="50.46532" lon="1.75965">
        <ele>43</ele>
        <time>2021-08-10T14:49:03.999Z</time>
      </trkpt>
      <trkpt lat="50.46538" lon="1.75961">
        <ele>43</ele>
        <time>2021-08-10T14:49:08.999Z</time>
      </trkpt>
      <trkpt lat="50.46542" lon="1.75958">
        <ele>42</ele>
        <time>2021-08-10T14:49:12.999Z</time>
      </trkpt>
      <trkpt lat="50.46546" lon="1.75955">
        <ele>42</ele>
        <time>2021-08-10T14:49:17.999Z</time>
      </trkpt>
      <trkpt lat="50.46545" lon="1.75954">
        <ele>42</ele>
        <time>2021-08-10T14:49:21.999Z</time>
      </trkpt>
      <trkpt lat="50.46549" lon="1.75951">
        <ele>42</ele>
        <time>2021-08-10T14:49:26.999Z</time>
      </trkpt>
      <trkpt lat="50.46556" lon="1.7595">
        <ele>42</ele>
        <time>2021-08-10T14:49:31.999Z</time>
      </trkpt>
      <trkpt lat="50.46561" lon="1.75955">
        <ele>42</ele>
        <time>2021-08-10T14:49:36.101Z</time>
      </trkpt>
      <trkpt lat="50.46566" lon="1.75961">
        <ele>43</ele>
        <time>2021-08-10T14:49:40.999Z</time>
      </trkpt>
      <trkpt lat="50.46564" lon="1.75952">
        <ele>42</ele>
        <time>2021-08-10T14:49:45.999Z</time>
      </trkpt>
      <trkpt lat="50.4656" lon="1.75944">
        <ele>42</ele>
        <time>2021-08-10T14:49:50.999Z</time>
      </trkpt>
      <trkpt lat="50.46556" lon="1.75938">
        <ele>42</ele>
        <time>2021-08-10T14:49:55.999Z</time>
      </trkpt>
      <trkpt lat="50.46553" lon="1.7594">
        <ele>42</ele>
        <time>2021-08-10T14:50:01.103Z</time>
      </trkpt>
      <trkpt lat="50.46553" lon="1.75941">
        <ele>42</ele>
        <time>2021-08-10T14:50:05.100Z</time>
      </trkpt>
      <trkpt lat="50.46556" lon="1.7595">
        <ele>42</ele>
        <time>2021-08-10T14:50:09.999Z</time>
      </trkpt>
      <trkpt lat="50.4656" lon="1.75952">
        <ele>42</ele>
        <time>2021-08-10T14:50:14.999Z</time>
      </trkpt>
      <trkpt lat="50.46562" lon="1.75956">
        <ele>42</ele>
        <time>2021-08-10T14:50:19.999Z</time>
      </trkpt>
      <trkpt lat="50.46568" lon="1.75963">
        <ele>43</ele>
        <time>2021-08-10T14:50:24.999Z</time>
      </trkpt>
      <trkpt lat="50.46573" lon="1.75966">
        <ele>43</ele>
        <time>2021-08-10T14:50:29.999Z</time>
      </trkpt>
      <trkpt lat="50.46579" lon="1.75967">
        <ele>43</ele>
        <time>2021-08-10T14:50:34.999Z</time>
      </trkpt>
      <trkpt lat="50.46584" lon="1.75971">
        <ele>43</ele>
        <time>2021-08-10T14:50:39.999Z</time>
      </trkpt>
      <trkpt lat="50.4659" lon="1.75974">
        <ele>43</ele>
        <time>2021-08-10T14:50:43.999Z</time>
      </trkpt>
      <trkpt lat="50.46596" lon="1.75978">
        <ele>43</ele>
        <time>2021-08-10T14:50:48.999Z</time>
      </trkpt>
      <trkpt lat="50.46602" lon="1.75978">
        <ele>44</ele>
        <time>2021-08-10T14:50:53.999Z</time>
      </trkpt>
      <trkpt lat="50.46609" lon="1.75976">
        <ele>44</ele>
        <time>2021-08-10T14:50:58.999Z</time>
      </trkpt>
      <trkpt lat="50.46614" lon="1.75977">
        <ele>44</ele>
        <time>2021-08-10T14:51:02.999Z</time>
      </trkpt>
      <trkpt lat="50.46619" lon="1.75976">
        <ele>44</ele>
        <time>2021-08-10T14:51:07.999Z</time>
      </trkpt>
      <trkpt lat="50.46621" lon="1.75975">
        <ele>44</ele>
        <time>2021-08-10T14:51:12.115Z</time>
      </trkpt>
      <trkpt lat="50.46621" lon="1.75975">
        <ele>44</ele>
        <time>2021-08-10T14:51:16.999Z</time>
      </trkpt>
      <trkpt lat="50.46618" lon="1.7598">
        <ele>44</ele>
        <time>2021-08-10T14:51:21.999Z</time>
      </trkpt>
      <trkpt lat="50.46616" lon="1.75989">
        <ele>44</ele>
        <time>2021-08-10T14:51:26.999Z</time>
      </trkpt>
      <trkpt lat="50.46612" lon="1.75998">
        <ele>44</ele>
        <time>2021-08-10T14:51:31.999Z</time>
      </trkpt>
      <trkpt lat="50.4661" lon="1.76006">
        <ele>44</ele>
        <time>2021-08-10T14:51:35.999Z</time>
      </trkpt>
      <trkpt lat="50.46608" lon="1.76016">
        <ele>46</ele>
        <time>2021-08-10T14:51:40.999Z</time>
      </trkpt>
      <trkpt lat="50.4661" lon="1.76026">
        <ele>46</ele>
        <time>2021-08-10T14:51:45.999Z</time>
      </trkpt>
      <trkpt lat="50.46615" lon="1.76026">
        <ele>46</ele>
        <time>2021-08-10T14:51:49.999Z</time>
      </trkpt>
      <trkpt lat="50.46621" lon="1.76025">
        <ele>46</ele>
        <time>2021-08-10T14:51:54.999Z</time>
      </trkpt>
      <trkpt lat="50.46626" lon="1.76026">
        <ele>46</ele>
        <time>2021-08-10T14:51:59.999Z</time>
      </trkpt>
      <trkpt lat="50.46633" lon="1.76028">
        <ele>46</ele>
        <time>2021-08-10T14:52:04.999Z</time>
      </trkpt>
      <trkpt lat="50.46636" lon="1.7603">
        <ele>46</ele>
        <time>2021-08-10T14:52:09.999Z</time>
      </trkpt>
      <trkpt lat="50.46636" lon="1.7603">
        <ele>46</ele>
        <time>2021-08-10T14:52:13.999Z</time>
      </trkpt>
      <trkpt lat="50.4664" lon="1.76028">
        <ele>46</ele>
        <time>2021-08-10T14:52:18.999Z</time>
      </trkpt>
      <trkpt lat="50.46645" lon="1.7603">
        <ele>46</ele>
        <time>2021-08-10T14:52:22.999Z</time>
      </trkpt>
      <trkpt lat="50.4665" lon="1.76032">
        <ele>46</ele>
        <time>2021-08-10T14:52:26.999Z</time>
      </trkpt>
      <trkpt lat="50.46657" lon="1.76035">
        <ele>47</ele>
        <time>2021-08-10T14:52:30.999Z</time>
      </trkpt>
      <trkpt lat="50.46664" lon="1.76038">
        <ele>47</ele>
        <time>2021-08-10T14:52:35.999Z</time>
      </trkpt>
      <trkpt lat="50.46671" lon="1.76041">
        <ele>47</ele>
        <time>2021-08-10T14:52:40.999Z</time>
      </trkpt>
      <trkpt lat="50.46678" lon="1.7604">
        <ele>47</ele>
        <time>2021-08-10T14:52:45.999Z</time>
      </trkpt>
      <trkpt lat="50.46684" lon="1.76037">
        <ele>48</ele>
        <time>2021-08-10T14:52:50.999Z</time>
      </trkpt>
      <trkpt lat="50.4669" lon="1.76032">
        <ele>48</ele>
        <time>2021-08-10T14:52:55.999Z</time>
      </trkpt>
      <trkpt lat="50.46694" lon="1.76026">
        <ele>48</ele>
        <time>2021-08-10T14:53:00.999Z</time>
      </trkpt>
      <trkpt lat="50.46698" lon="1.76019">
        <ele>48</ele>
        <time>2021-08-10T14:53:04.999Z</time>
      </trkpt>
      <trkpt lat="50.46701" lon="1.7601">
        <ele>49</ele>
        <time>2021-08-10T14:53:10.102Z</time>
      </trkpt>
      <trkpt lat="50.46701" lon="1.76002">
        <ele>49</ele>
        <time>2021-08-10T14:53:14.999Z</time>
      </trkpt>
      <trkpt lat="50.467" lon="1.75994">
        <ele>49</ele>
        <time>2021-08-10T14:53:19.999Z</time>
      </trkpt>
      <trkpt lat="50.46702" lon="1.75994">
        <ele>49</ele>
        <time>2021-08-10T14:53:24.999Z</time>
      </trkpt>
      <trkpt lat="50.46699" lon="1.75984">
        <ele>50</ele>
        <time>2021-08-10T14:54:31.999Z</time>
      </trkpt>
      <trkpt lat="50.46699" lon="1.75984">
        <ele>50</ele>
        <time>2021-08-10T14:54:36.999Z</time>
      </trkpt>
      <trkpt lat="50.46699" lon="1.75984">
        <ele>50</ele>
        <time>2021-08-10T14:54:40.999Z</time>
      </trkpt>
      <trkpt lat="50.46702" lon="1.75981">
        <ele>50</ele>
        <time>2021-08-10T14:54:45.100Z</time>
      </trkpt>
      <trkpt lat="50.46701" lon="1.75977">
        <ele>50</ele>
        <time>2021-08-10T14:54:49.999Z</time>
      </trkpt>
      <trkpt lat="50.46701" lon="1.75974">
        <ele>50</ele>
        <time>2021-08-10T14:55:31.999Z</time>
      </trkpt>
      <trkpt lat="50.46701" lon="1.75974">
        <ele>50</ele>
        <time>2021-08-10T14:55:35.999Z</time>
      </trkpt>
      <trkpt lat="50.46702" lon="1.7597">
        <ele>50</ele>
        <time>2021-08-10T14:55:40.999Z</time>
      </trkpt>
      <trkpt lat="50.46701" lon="1.75968">
        <ele>50</ele>
        <time>2021-08-10T14:55:44.999Z</time>
      </trkpt>
      <trkpt lat="50.46699" lon="1.75962">
        <ele>50</ele>
        <time>2021-08-10T14:55:48.999Z</time>
      </trkpt>
      <trkpt lat="50.46694" lon="1.75953">
        <ele>52</ele>
        <time>2021-08-10T14:55:58.999Z</time>
      </trkpt>
      <trkpt lat="50.46694" lon="1.75953">
        <ele>52</ele>
        <time>2021-08-10T14:56:03.999Z</time>
      </trkpt>
      <trkpt lat="50.46694" lon="1.7595">
        <ele>52</ele>
        <time>2021-08-10T14:56:08.999Z</time>
      </trkpt>
      <trkpt lat="50.46692" lon="1.75944">
        <ele>52</ele>
        <time>2021-08-10T14:56:12.999Z</time>
      </trkpt>
      <trkpt lat="50.4669" lon="1.75937">
        <ele>52</ele>
        <time>2021-08-10T14:56:17.999Z</time>
      </trkpt>
      <trkpt lat="50.46682" lon="1.75935">
        <ele>52</ele>
        <time>2021-08-10T14:56:53.999Z</time>
      </trkpt>
      <trkpt lat="50.46681" lon="1.75936">
        <ele>52</ele>
        <time>2021-08-10T14:56:57.999Z</time>
      </trkpt>
      <trkpt lat="50.46681" lon="1.75939">
        <ele>52</ele>
        <time>2021-08-10T14:57:02.999Z</time>
      </trkpt>
      <trkpt lat="50.46679" lon="1.75943">
        <ele>48</ele>
        <time>2021-08-10T14:57:06.999Z</time>
      </trkpt>
      <trkpt lat="50.46674" lon="1.75945">
        <ele>48</ele>
        <time>2021-08-10T14:57:10.999Z</time>
      </trkpt>
      <trkpt lat="50.4667" lon="1.75949">
        <ele>48</ele>
        <time>2021-08-10T14:57:15.999Z</time>
      </trkpt>
      <trkpt lat="50.4667" lon="1.7595">
        <ele>48</ele>
        <time>2021-08-10T14:57:19.999Z</time>
      </trkpt>
      <trkpt lat="50.46671" lon="1.75947">
        <ele>48</ele>
        <time>2021-08-10T14:57:24.999Z</time>
      </trkpt>
      <trkpt lat="50.46675" lon="1.75945">
        <ele>48</ele>
        <time>2021-08-10T14:57:29.999Z</time>
      </trkpt>
      <trkpt lat="50.46679" lon="1.75942">
        <ele>48</ele>
        <time>2021-08-10T14:57:34.999Z</time>
      </trkpt>
      <trkpt lat="50.46681" lon="1.75936">
        <ele>52</ele>
        <time>2021-08-10T14:57:38.999Z</time>
      </trkpt>
      <trkpt lat="50.46683" lon="1.75932">
        <ele>52</ele>
        <time>2021-08-10T14:57:42.999Z</time>
      </trkpt>
      <trkpt lat="50.46685" lon="1.75927">
        <ele>49</ele>
        <time>2021-08-10T14:57:47.999Z</time>
      </trkpt>
      <trkpt lat="50.46685" lon="1.75924">
        <ele>49</ele>
        <time>2021-08-10T14:57:52.106Z</time>
      </trkpt>
      <trkpt lat="50.46687" lon="1.75924">
        <ele>49</ele>
        <time>2021-08-10T14:57:57.201Z</time>
      </trkpt>
      <trkpt lat="50.46687" lon="1.75925">
        <ele>49</ele>
        <time>2021-08-10T14:58:24.999Z</time>
      </trkpt>
      <trkpt lat="50.46687" lon="1.75925">
        <ele>49</ele>
        <time>2021-08-10T14:58:29.999Z</time>
      </trkpt>
      <trkpt lat="50.46685" lon="1.75924">
        <ele>49</ele>
        <time>2021-08-10T14:58:33.999Z</time>
      </trkpt>
      <trkpt lat="50.46682" lon="1.7592">
        <ele>49</ele>
        <time>2021-08-10T14:58:37.999Z</time>
      </trkpt>
      <trkpt lat="50.46677" lon="1.75916">
        <ele>46</ele>
        <time>2021-08-10T14:58:42.999Z</time>
      </trkpt>
      <trkpt lat="50.46671" lon="1.75902">
        <ele>45</ele>
        <time>2021-08-10T15:00:59.999Z</time>
      </trkpt>
      <trkpt lat="50.4667" lon="1.75902">
        <ele>45</ele>
        <time>2021-08-10T15:01:03.999Z</time>
      </trkpt>
      <trkpt lat="50.4667" lon="1.75902">
        <ele>45</ele>
        <time>2021-08-10T15:01:08.999Z</time>
      </trkpt>
      <trkpt lat="50.4667" lon="1.75902">
        <ele>45</ele>
        <time>2021-08-10T15:01:14.100Z</time>
      </trkpt>
      <trkpt lat="50.4667" lon="1.75902">
        <ele>45</ele>
        <time>2021-08-10T15:01:18.999Z</time>
      </trkpt>
      <trkpt lat="50.4667" lon="1.75901">
        <ele>45</ele>
        <time>2021-08-10T15:01:32.999Z</time>
      </trkpt>
      <trkpt lat="50.4667" lon="1.75901">
        <ele>45</ele>
        <time>2021-08-10T15:01:36.999Z</time>
      </trkpt>
      <trkpt lat="50.46668" lon="1.75901">
        <ele>45</ele>
        <time>2021-08-10T15:01:41.999Z</time>
      </trkpt>
      <trkpt lat="50.46664" lon="1.75901">
        <ele>45</ele>
        <time>2021-08-10T15:01:46.999Z</time>
      </trkpt>
      <trkpt lat="50.46659" lon="1.75902">
        <ele>45</ele>
        <time>2021-08-10T15:01:51.999Z</time>
      </trkpt>
      <trkpt lat="50.46654" lon="1.75903">
        <ele>46</ele>
        <time>2021-08-10T15:01:56.999Z</time>
      </trkpt>
      <trkpt lat="50.46652" lon="1.75905">
        <ele>43</ele>
        <time>2021-08-10T15:02:00.999Z</time>
      </trkpt>
      <trkpt lat="50.46648" lon="1.75905">
        <ele>43</ele>
        <time>2021-08-10T15:02:05.999Z</time>
      </trkpt>
      <trkpt lat="50.46646" lon="1.75906">
        <ele>43</ele>
        <time>2021-08-10T15:02:09.999Z</time>
      </trkpt>
      <trkpt lat="50.46644" lon="1.759">
        <ele>40</ele>
        <time>2021-08-10T15:02:14.999Z</time>
      </trkpt>
      <trkpt lat="50.46645" lon="1.75889">
        <ele>40</ele>
        <time>2021-08-10T15:02:24.999Z</time>
      </trkpt>
      <trkpt lat="50.46646" lon="1.75884">
        <ele>40</ele>
        <time>2021-08-10T15:02:29.105Z</time>
      </trkpt>
      <trkpt lat="50.46648" lon="1.75882">
        <ele>40</ele>
        <time>2021-08-10T15:02:33.319Z</time>
      </trkpt>
      <trkpt lat="50.46648" lon="1.75881">
        <ele>40</ele>
        <time>2021-08-10T15:02:37.999Z</time>
      </trkpt>
      <trkpt lat="50.46644" lon="1.75879">
        <ele>40</ele>
        <time>2021-08-10T15:02:42.999Z</time>
      </trkpt>
      <trkpt lat="50.46643" lon="1.75879">
        <ele>40</ele>
        <time>2021-08-10T15:02:46.999Z</time>
      </trkpt>
      <trkpt lat="50.46643" lon="1.75885">
        <ele>40</ele>
        <time>2021-08-10T15:02:50.999Z</time>
      </trkpt>
      <trkpt lat="50.46641" lon="1.75891">
        <ele>40</ele>
        <time>2021-08-10T15:02:55.999Z</time>
      </trkpt>
      <trkpt lat="50.46635" lon="1.75893">
        <ele>40</ele>
        <time>2021-08-10T15:03:00.999Z</time>
      </trkpt>
      <trkpt lat="50.4663" lon="1.75896">
        <ele>40</ele>
        <time>2021-08-10T15:03:05.999Z</time>
      </trkpt>
      <trkpt lat="50.4663" lon="1.75896">
        <ele>40</ele>
        <time>2021-08-10T15:03:10.999Z</time>
      </trkpt>
      <trkpt lat="50.46628" lon="1.75897">
        <ele>40</ele>
        <time>2021-08-10T15:03:14.999Z</time>
      </trkpt>
      <trkpt lat="50.46623" lon="1.759">
        <ele>37</ele>
        <time>2021-08-10T15:03:19.999Z</time>
      </trkpt>
      <trkpt lat="50.46618" lon="1.75902">
        <ele>37</ele>
        <time>2021-08-10T15:03:24.999Z</time>
      </trkpt>
      <trkpt lat="50.46613" lon="1.75904">
        <ele>41</ele>
        <time>2021-08-10T15:03:28.999Z</time>
      </trkpt>
      <trkpt lat="50.46608" lon="1.75907">
        <ele>41</ele>
        <time>2021-08-10T15:03:33.999Z</time>
      </trkpt>
      <trkpt lat="50.46603" lon="1.7591">
        <ele>41</ele>
        <time>2021-08-10T15:03:38.999Z</time>
      </trkpt>
      <trkpt lat="50.466" lon="1.7591">
        <ele>41</ele>
        <time>2021-08-10T15:03:42.999Z</time>
      </trkpt>
      <trkpt lat="50.46614" lon="1.75906">
        <ele>41</ele>
        <time>2021-08-10T15:04:53.999Z</time>
      </trkpt>
      <trkpt lat="50.46614" lon="1.75906">
        <ele>41</ele>
        <time>2021-08-10T15:04:57.999Z</time>
      </trkpt>
      <trkpt lat="50.46614" lon="1.75906">
        <ele>41</ele>
        <time>2021-08-10T15:05:01.999Z</time>
      </trkpt>
      <trkpt lat="50.46615" lon="1.75907">
        <ele>41</ele>
        <time>2021-08-10T15:05:05.999Z</time>
      </trkpt>
      <trkpt lat="50.46618" lon="1.75913">
        <ele>41</ele>
        <time>2021-08-10T15:05:10.999Z</time>
      </trkpt>
      <trkpt lat="50.46617" lon="1.75913">
        <ele>41</ele>
        <time>2021-08-10T15:05:29.101Z</time>
      </trkpt>
      <trkpt lat="50.46619" lon="1.75911">
        <ele>41</ele>
        <time>2021-08-10T15:05:33.999Z</time>
      </trkpt>
      <trkpt lat="50.46624" lon="1.75908">
        <ele>41</ele>
        <time>2021-08-10T15:05:38.999Z</time>
      </trkpt>
      <trkpt lat="50.46628" lon="1.75904">
        <ele>43</ele>
        <time>2021-08-10T15:05:42.999Z</time>
      </trkpt>
      <trkpt lat="50.46632" lon="1.75899">
        <ele>40</ele>
        <time>2021-08-10T15:05:47.999Z</time>
      </trkpt>
      <trkpt lat="50.46636" lon="1.75896">
        <ele>40</ele>
        <time>2021-08-10T15:05:51.999Z</time>
      </trkpt>
      <trkpt lat="50.46641" lon="1.75894">
        <ele>40</ele>
        <time>2021-08-10T15:05:56.999Z</time>
      </trkpt>
      <trkpt lat="50.46645" lon="1.75889">
        <ele>40</ele>
        <time>2021-08-10T15:06:00.999Z</time>
      </trkpt>
      <trkpt lat="50.46645" lon="1.75886">
        <ele>40</ele>
        <time>2021-08-10T15:06:04.999Z</time>
      </trkpt>
      <trkpt lat="50.46649" lon="1.75878">
        <ele>40</ele>
        <time>2021-08-10T15:06:38.999Z</time>
      </trkpt>
      <trkpt lat="50.4665" lon="1.75885">
        <ele>40</ele>
        <time>2021-08-10T15:06:42.999Z</time>
      </trkpt>
      <trkpt lat="50.46655" lon="1.75885">
        <ele>45</ele>
        <time>2021-08-10T15:06:47.999Z</time>
      </trkpt>
      <trkpt lat="50.46659" lon="1.75884">
        <ele>45</ele>
        <time>2021-08-10T15:06:51.999Z</time>
      </trkpt>
      <trkpt lat="50.46664" lon="1.75883">
        <ele>45</ele>
        <time>2021-08-10T15:06:56.999Z</time>
      </trkpt>
      <trkpt lat="50.46668" lon="1.7588">
        <ele>45</ele>
        <time>2021-08-10T15:07:00.999Z</time>
      </trkpt>
      <trkpt lat="50.46671" lon="1.75879">
        <ele>45</ele>
        <time>2021-08-10T15:07:04.999Z</time>
      </trkpt>
      <trkpt lat="50.46674" lon="1.75876">
        <ele>45</ele>
        <time>2021-08-10T15:07:08.999Z</time>
      </trkpt>
      <trkpt lat="50.46676" lon="1.75877">
        <ele>45</ele>
        <time>2021-08-10T15:07:13.999Z</time>
      </trkpt>
      <trkpt lat="50.46677" lon="1.75874">
        <ele>41</ele>
        <time>2021-08-10T15:07:18.999Z</time>
      </trkpt>
      <trkpt lat="50.46679" lon="1.75872">
        <ele>41</ele>
        <time>2021-08-10T15:07:23.999Z</time>
      </trkpt>
      <trkpt lat="50.46683" lon="1.75869">
        <ele>44</ele>
        <time>2021-08-10T15:07:28.999Z</time>
      </trkpt>
      <trkpt lat="50.46686" lon="1.75868">
        <ele>44</ele>
        <time>2021-08-10T15:07:33.999Z</time>
      </trkpt>
      <trkpt lat="50.46689" lon="1.7588">
        <ele>49</ele>
        <time>2021-08-10T15:08:01.999Z</time>
      </trkpt>
      <trkpt lat="50.46685" lon="1.75874">
        <ele>44</ele>
        <time>2021-08-10T15:08:05.999Z</time>
      </trkpt>
      <trkpt lat="50.4668" lon="1.75872">
        <ele>41</ele>
        <time>2021-08-10T15:08:09.999Z</time>
      </trkpt>
      <trkpt lat="50.46679" lon="1.75878">
        <ele>45</ele>
        <time>2021-08-10T15:08:14.999Z</time>
      </trkpt>
      <trkpt lat="50.46679" lon="1.75882">
        <ele>45</ele>
        <time>2021-08-10T15:08:19.999Z</time>
      </trkpt>
      <trkpt lat="50.46676" lon="1.75885">
        <ele>45</ele>
        <time>2021-08-10T15:08:24.999Z</time>
      </trkpt>
      <trkpt lat="50.46673" lon="1.75889">
        <ele>45</ele>
        <time>2021-08-10T15:08:28.999Z</time>
      </trkpt>
      <trkpt lat="50.46673" lon="1.75899">
        <ele>45</ele>
        <time>2021-08-10T15:08:33.999Z</time>
      </trkpt>
      <trkpt lat="50.46681" lon="1.75898">
        <ele>49</ele>
        <time>2021-08-10T15:08:48.999Z</time>
      </trkpt>
      <trkpt lat="50.46691" lon="1.7586">
        <ele>44</ele>
        <time>2021-08-10T15:09:59.999Z</time>
      </trkpt>
      <trkpt lat="50.46688" lon="1.75859">
        <ele>44</ele>
        <time>2021-08-10T15:10:03.999Z</time>
      </trkpt>
      <trkpt lat="50.46685" lon="1.75858">
        <ele>44</ele>
        <time>2021-08-10T15:10:08.999Z</time>
      </trkpt>
      <trkpt lat="50.46683" lon="1.75857">
        <ele>44</ele>
        <time>2021-08-10T15:10:13.999Z</time>
      </trkpt>
      <trkpt lat="50.46685" lon="1.75849">
        <ele>44</ele>
        <time>2021-08-10T15:10:18.999Z</time>
      </trkpt>
      <trkpt lat="50.46688" lon="1.75843">
        <ele>42</ele>
        <time>2021-08-10T15:10:22.999Z</time>
      </trkpt>
      <trkpt lat="50.46692" lon="1.7584">
        <ele>42</ele>
        <time>2021-08-10T15:10:27.999Z</time>
      </trkpt>
      <trkpt lat="50.46695" lon="1.75835">
        <ele>42</ele>
        <time>2021-08-10T15:10:32.999Z</time>
      </trkpt>
      <trkpt lat="50.46699" lon="1.7583">
        <ele>42</ele>
        <time>2021-08-10T15:10:37.999Z</time>
      </trkpt>
      <trkpt lat="50.46702" lon="1.75825">
        <ele>42</ele>
        <time>2021-08-10T15:11:35.999Z</time>
      </trkpt>
      <trkpt lat="50.46701" lon="1.7583">
        <ele>42</ele>
        <time>2021-08-10T15:11:39.999Z</time>
      </trkpt>
      <trkpt lat="50.467" lon="1.75837">
        <ele>42</ele>
        <time>2021-08-10T15:11:44.999Z</time>
      </trkpt>
      <trkpt lat="50.46697" lon="1.75845">
        <ele>42</ele>
        <time>2021-08-10T15:11:49.999Z</time>
      </trkpt>
      <trkpt lat="50.46696" lon="1.75852">
        <ele>44</ele>
        <time>2021-08-10T15:11:54.999Z</time>
      </trkpt>
      <trkpt lat="50.46707" lon="1.75854">
        <ele>44</ele>
        <time>2021-08-10T15:13:12.999Z</time>
      </trkpt>
      <trkpt lat="50.46708" lon="1.75857">
        <ele>44</ele>
        <time>2021-08-10T15:13:16.999Z</time>
      </trkpt>
      <trkpt lat="50.46711" lon="1.75851">
        <ele>46</ele>
        <time>2021-08-10T15:13:21.999Z</time>
      </trkpt>
      <trkpt lat="50.46715" lon="1.75849">
        <ele>46</ele>
        <time>2021-08-10T15:13:25.999Z</time>
      </trkpt>
      <trkpt lat="50.46719" lon="1.75849">
        <ele>46</ele>
        <time>2021-08-10T15:13:30.999Z</time>
      </trkpt>
      <trkpt lat="50.46724" lon="1.75848">
        <ele>46</ele>
        <time>2021-08-10T15:13:34.999Z</time>
      </trkpt>
      <trkpt lat="50.46727" lon="1.75846">
        <ele>45</ele>
        <time>2021-08-10T15:13:38.999Z</time>
      </trkpt>
      <trkpt lat="50.46727" lon="1.75846">
        <ele>45</ele>
        <time>2021-08-10T15:13:43.999Z</time>
      </trkpt>
      <trkpt lat="50.4673" lon="1.75848">
        <ele>46</ele>
        <time>2021-08-10T15:13:48.999Z</time>
      </trkpt>
      <trkpt lat="50.46734" lon="1.75849">
        <ele>46</ele>
        <time>2021-08-10T15:13:52.999Z</time>
      </trkpt>
      <trkpt lat="50.46739" lon="1.75851">
        <ele>46</ele>
        <time>2021-08-10T15:13:57.152Z</time>
      </trkpt>
      <trkpt lat="50.46744" lon="1.75852">
        <ele>46</ele>
        <time>2021-08-10T15:14:01.999Z</time>
      </trkpt>
      <trkpt lat="50.46748" lon="1.75854">
        <ele>46</ele>
        <time>2021-08-10T15:14:05.999Z</time>
      </trkpt>
      <trkpt lat="50.46753" lon="1.75858">
        <ele>46</ele>
        <time>2021-08-10T15:14:10.999Z</time>
      </trkpt>
      <trkpt lat="50.46762" lon="1.75873">
        <ele>46</ele>
        <time>2021-08-10T15:15:43.999Z</time>
      </trkpt>
      <trkpt lat="50.46763" lon="1.75879">
        <ele>52</ele>
        <time>2021-08-10T15:15:47.999Z</time>
      </trkpt>
      <trkpt lat="50.46764" lon="1.75887">
        <ele>46</ele>
        <time>2021-08-10T15:15:52.999Z</time>
      </trkpt>
      <trkpt lat="50.46766" lon="1.75894">
        <ele>46</ele>
        <time>2021-08-10T15:15:57.999Z</time>
      </trkpt>
      <trkpt lat="50.46767" lon="1.75899">
        <ele>46</ele>
        <time>2021-08-10T15:16:01.999Z</time>
      </trkpt>
      <trkpt lat="50.46763" lon="1.75912">
        <ele>51</ele>
        <time>2021-08-10T15:16:56.999Z</time>
      </trkpt>
      <trkpt lat="50.46763" lon="1.7592">
        <ele>51</ele>
        <time>2021-08-10T15:17:00.999Z</time>
      </trkpt>
      <trkpt lat="50.46765" lon="1.75926">
        <ele>47</ele>
        <time>2021-08-10T15:17:05.999Z</time>
      </trkpt>
      <trkpt lat="50.46766" lon="1.75931">
        <ele>48</ele>
        <time>2021-08-10T15:17:10.999Z</time>
      </trkpt>
      <trkpt lat="50.46766" lon="1.75938">
        <ele>48</ele>
        <time>2021-08-10T15:17:14.999Z</time>
      </trkpt>
      <trkpt lat="50.46768" lon="1.75944">
        <ele>48</ele>
        <time>2021-08-10T15:17:18.999Z</time>
      </trkpt>
      <trkpt lat="50.46768" lon="1.7595">
        <ele>48</ele>
        <time>2021-08-10T15:17:23.999Z</time>
      </trkpt>
      <trkpt lat="50.46768" lon="1.75956">
        <ele>48</ele>
        <time>2021-08-10T15:17:28.999Z</time>
      </trkpt>
      <trkpt lat="50.46768" lon="1.75964">
        <ele>47</ele>
        <time>2021-08-10T15:17:33.999Z</time>
      </trkpt>
      <trkpt lat="50.46768" lon="1.75971">
        <ele>47</ele>
        <time>2021-08-10T15:17:37.999Z</time>
      </trkpt>
      <trkpt lat="50.46769" lon="1.75977">
        <ele>47</ele>
        <time>2021-08-10T15:17:41.999Z</time>
      </trkpt>
      <trkpt lat="50.46768" lon="1.75984">
        <ele>47</ele>
        <time>2021-08-10T15:17:46.999Z</time>
      </trkpt>
      <trkpt lat="50.46767" lon="1.75994">
        <ele>47</ele>
        <time>2021-08-10T15:17:51.999Z</time>
      </trkpt>
      <trkpt lat="50.46767" lon="1.76001">
        <ele>47</ele>
        <time>2021-08-10T15:17:55.999Z</time>
      </trkpt>
      <trkpt lat="50.46765" lon="1.76008">
        <ele>47</ele>
        <time>2021-08-10T15:18:00.999Z</time>
      </trkpt>
      <trkpt lat="50.46765" lon="1.76013">
        <ele>47</ele>
        <time>2021-08-10T15:18:05.105Z</time>
      </trkpt>
      <trkpt lat="50.46766" lon="1.76018">
        <ele>45</ele>
        <time>2021-08-10T15:18:10.101Z</time>
      </trkpt>
      <trkpt lat="50.46768" lon="1.76014">
        <ele>45</ele>
        <time>2021-08-10T15:20:25.999Z</time>
      </trkpt>
      <trkpt lat="50.46769" lon="1.76015">
        <ele>45</ele>
        <time>2021-08-10T15:20:29.999Z</time>
      </trkpt>
      <trkpt lat="50.46767" lon="1.76017">
        <ele>45</ele>
        <time>2021-08-10T15:20:34.999Z</time>
      </trkpt>
      <trkpt lat="50.46766" lon="1.76019">
        <ele>45</ele>
        <time>2021-08-10T15:20:38.999Z</time>
      </trkpt>
      <trkpt lat="50.46763" lon="1.76024">
        <ele>48</ele>
        <time>2021-08-10T15:20:43.999Z</time>
      </trkpt>
      <trkpt lat="50.46763" lon="1.76025">
        <ele>48</ele>
        <time>2021-08-10T15:20:47.999Z</time>
      </trkpt>
      <trkpt lat="50.46763" lon="1.76027">
        <ele>48</ele>
        <time>2021-08-10T15:20:51.999Z</time>
      </trkpt>
      <trkpt lat="50.46766" lon="1.76032">
        <ele>45</ele>
        <time>2021-08-10T15:20:56.999Z</time>
      </trkpt>
      <trkpt lat="50.46769" lon="1.76037">
        <ele>45</ele>
        <time>2021-08-10T15:21:01.999Z</time>
      </trkpt>
      <trkpt lat="50.46772" lon="1.76033">
        <ele>45</ele>
        <time>2021-08-10T15:21:06.999Z</time>
      </trkpt>
      <trkpt lat="50.46773" lon="1.76029">
        <ele>45</ele>
        <time>2021-08-10T15:21:11.999Z</time>
      </trkpt>
      <trkpt lat="50.46775" lon="1.76027">
        <ele>45</ele>
        <time>2021-08-10T15:21:16.999Z</time>
      </trkpt>
      <trkpt lat="50.46778" lon="1.76023">
        <ele>45</ele>
        <time>2021-08-10T15:21:21.999Z</time>
      </trkpt>
      <trkpt lat="50.46783" lon="1.76024">
        <ele>45</ele>
        <time>2021-08-10T15:21:26.999Z</time>
      </trkpt>
      <trkpt lat="50.46785" lon="1.76029">
        <ele>45</ele>
        <time>2021-08-10T15:21:30.999Z</time>
      </trkpt>
      <trkpt lat="50.46788" lon="1.76033">
        <ele>45</ele>
        <time>2021-08-10T15:21:35.999Z</time>
      </trkpt>
      <trkpt lat="50.4679" lon="1.76036">
        <ele>45</ele>
        <time>2021-08-10T15:21:40.999Z</time>
      </trkpt>
      <trkpt lat="50.46793" lon="1.7604">
        <ele>39</ele>
        <time>2021-08-10T15:21:45.999Z</time>
      </trkpt>
      <trkpt lat="50.46796" lon="1.76043">
        <ele>41</ele>
        <time>2021-08-10T15:21:50.999Z</time>
      </trkpt>
      <trkpt lat="50.46799" lon="1.76046">
        <ele>41</ele>
        <time>2021-08-10T15:21:55.999Z</time>
      </trkpt>
      <trkpt lat="50.46773" lon="1.76028">
        <ele>45</ele>
        <time>2021-08-10T15:28:32.999Z</time>
      </trkpt>
      <trkpt lat="50.46773" lon="1.76031">
        <ele>45</ele>
        <time>2021-08-10T15:28:37.999Z</time>
      </trkpt>
      <trkpt lat="50.46774" lon="1.76034">
        <ele>45</ele>
        <time>2021-08-10T15:28:42.999Z</time>
      </trkpt>
      <trkpt lat="50.46769" lon="1.76035">
        <ele>45</ele>
        <time>2021-08-10T15:28:47.999Z</time>
      </trkpt>
      <trkpt lat="50.46768" lon="1.76036">
        <ele>45</ele>
        <time>2021-08-10T15:28:51.999Z</time>
      </trkpt>
      <trkpt lat="50.46765" lon="1.76042">
        <ele>45</ele>
        <time>2021-08-10T15:28:56.999Z</time>
      </trkpt>
      <trkpt lat="50.46761" lon="1.76047">
        <ele>46</ele>
        <time>2021-08-10T15:29:01.999Z</time>
      </trkpt>
      <trkpt lat="50.46757" lon="1.76052">
        <ele>46</ele>
        <time>2021-08-10T15:29:06.999Z</time>
      </trkpt>
      <trkpt lat="50.46754" lon="1.76057">
        <ele>46</ele>
        <time>2021-08-10T15:29:11.999Z</time>
      </trkpt>
      <trkpt lat="50.46754" lon="1.76065">
        <ele>46</ele>
        <time>2021-08-10T15:29:16.999Z</time>
      </trkpt>
      <trkpt lat="50.46754" lon="1.76072">
        <ele>44</ele>
        <time>2021-08-10T15:29:21.999Z</time>
      </trkpt>
      <trkpt lat="50.46751" lon="1.76075">
        <ele>44</ele>
        <time>2021-08-10T15:29:26.999Z</time>
      </trkpt>
      <trkpt lat="50.46749" lon="1.76078">
        <ele>44</ele>
        <time>2021-08-10T15:29:30.999Z</time>
      </trkpt>
      <trkpt lat="50.46747" lon="1.76085">
        <ele>44</ele>
        <time>2021-08-10T15:29:35.999Z</time>
      </trkpt>
      <trkpt lat="50.46745" lon="1.7609">
        <ele>44</ele>
        <time>2021-08-10T15:29:39.999Z</time>
      </trkpt>
      <trkpt lat="50.46744" lon="1.76097">
        <ele>44</ele>
        <time>2021-08-10T15:29:44.999Z</time>
      </trkpt>
      <trkpt lat="50.46742" lon="1.76105">
        <ele>44</ele>
        <time>2021-08-10T15:29:49.999Z</time>
      </trkpt>
      <trkpt lat="50.46741" lon="1.76111">
        <ele>44</ele>
        <time>2021-08-10T15:29:53.999Z</time>
      </trkpt>
      <trkpt lat="50.46741" lon="1.76117">
        <ele>44</ele>
        <time>2021-08-10T15:29:58.999Z</time>
      </trkpt>
      <trkpt lat="50.46739" lon="1.76124">
        <ele>44</ele>
        <time>2021-08-10T15:30:03.999Z</time>
      </trkpt>
      <trkpt lat="50.46736" lon="1.76129">
        <ele>46</ele>
        <time>2021-08-10T15:30:08.999Z</time>
      </trkpt>
      <trkpt lat="50.46735" lon="1.76131">
        <ele>46</ele>
        <time>2021-08-10T15:30:13.999Z</time>
      </trkpt>
      <trkpt lat="50.46731" lon="1.76132">
        <ele>46</ele>
        <time>2021-08-10T15:30:28.999Z</time>
      </trkpt>
      <trkpt lat="50.46731" lon="1.76133">
        <ele>46</ele>
        <time>2021-08-10T15:30:33.999Z</time>
      </trkpt>
      <trkpt lat="50.46732" lon="1.7614">
        <ele>46</ele>
        <time>2021-08-10T15:30:38.999Z</time>
      </trkpt>
      <trkpt lat="50.46734" lon="1.76146">
        <ele>46</ele>
        <time>2021-08-10T15:30:43.999Z</time>
      </trkpt>
      <trkpt lat="50.46735" lon="1.76151">
        <ele>46</ele>
        <time>2021-08-10T15:30:47.999Z</time>
      </trkpt>
      <trkpt lat="50.4674" lon="1.76154">
        <ele>41</ele>
        <time>2021-08-10T15:31:33.999Z</time>
      </trkpt>
      <trkpt lat="50.46739" lon="1.76149">
        <ele>42</ele>
        <time>2021-08-10T15:31:37.999Z</time>
      </trkpt>
      <trkpt lat="50.46736" lon="1.76142">
        <ele>42</ele>
        <time>2021-08-10T15:31:42.999Z</time>
      </trkpt>
      <trkpt lat="50.46733" lon="1.76135">
        <ele>46</ele>
        <time>2021-08-10T15:31:46.999Z</time>
      </trkpt>
      <trkpt lat="50.46731" lon="1.76129">
        <ele>46</ele>
        <time>2021-08-10T15:31:50.999Z</time>
      </trkpt>
      <trkpt lat="50.46727" lon="1.76122">
        <ele>47</ele>
        <time>2021-08-10T15:31:55.999Z</time>
      </trkpt>
      <trkpt lat="50.46725" lon="1.76116">
        <ele>47</ele>
        <time>2021-08-10T15:31:59.999Z</time>
      </trkpt>
      <trkpt lat="50.46723" lon="1.76109">
        <ele>47</ele>
        <time>2021-08-10T15:32:04.999Z</time>
      </trkpt>
      <trkpt lat="50.46721" lon="1.76103">
        <ele>47</ele>
        <time>2021-08-10T15:32:08.999Z</time>
      </trkpt>
      <trkpt lat="50.46719" lon="1.76098">
        <ele>47</ele>
        <time>2021-08-10T15:32:12.999Z</time>
      </trkpt>
      <trkpt lat="50.46715" lon="1.76091">
        <ele>46</ele>
        <time>2021-08-10T15:32:17.999Z</time>
      </trkpt>
      <trkpt lat="50.46717" lon="1.76083">
        <ele>46</ele>
        <time>2021-08-10T15:32:22.999Z</time>
      </trkpt>
      <trkpt lat="50.46719" lon="1.76079">
        <ele>46</ele>
        <time>2021-08-10T15:32:26.999Z</time>
      </trkpt>
      <trkpt lat="50.46723" lon="1.76074">
        <ele>46</ele>
        <time>2021-08-10T15:32:31.999Z</time>
      </trkpt>
      <trkpt lat="50.46726" lon="1.76069">
        <ele>46</ele>
        <time>2021-08-10T15:32:36.999Z</time>
      </trkpt>
      <trkpt lat="50.46727" lon="1.76068">
        <ele>46</ele>
        <time>2021-08-10T15:32:41.109Z</time>
      </trkpt>
      <trkpt lat="50.46729" lon="1.76059">
        <ele>46</ele>
        <time>2021-08-10T15:32:45.999Z</time>
      </trkpt>
      <trkpt lat="50.46728" lon="1.76051">
        <ele>46</ele>
        <time>2021-08-10T15:32:49.999Z</time>
      </trkpt>
      <trkpt lat="50.46725" lon="1.76043">
        <ele>46</ele>
        <time>2021-08-10T15:32:54.999Z</time>
      </trkpt>
      <trkpt lat="50.46723" lon="1.76037">
        <ele>49</ele>
        <time>2021-08-10T15:32:58.999Z</time>
      </trkpt>
      <trkpt lat="50.46721" lon="1.76031">
        <ele>49</ele>
        <time>2021-08-10T15:33:02.999Z</time>
      </trkpt>
      <trkpt lat="50.4672" lon="1.76024">
        <ele>49</ele>
        <time>2021-08-10T15:33:07.999Z</time>
      </trkpt>
      <trkpt lat="50.46718" lon="1.76017">
        <ele>49</ele>
        <time>2021-08-10T15:33:12.999Z</time>
      </trkpt>
      <trkpt lat="50.46715" lon="1.76011">
        <ele>51</ele>
        <time>2021-08-10T15:33:17.999Z</time>
      </trkpt>
      <trkpt lat="50.46713" lon="1.76004">
        <ele>51</ele>
        <time>2021-08-10T15:33:21.999Z</time>
      </trkpt>
      <trkpt lat="50.46712" lon="1.75998">
        <ele>51</ele>
        <time>2021-08-10T15:33:25.999Z</time>
      </trkpt>
      <trkpt lat="50.46711" lon="1.75991">
        <ele>51</ele>
        <time>2021-08-10T15:33:30.118Z</time>
      </trkpt>
      <trkpt lat="50.4671" lon="1.75982">
        <ele>52</ele>
        <time>2021-08-10T15:33:34.999Z</time>
      </trkpt>
      <trkpt lat="50.4671" lon="1.75976">
        <ele>52</ele>
        <time>2021-08-10T15:33:38.999Z</time>
      </trkpt>
      <trkpt lat="50.4671" lon="1.75967">
        <ele>52</ele>
        <time>2021-08-10T15:33:43.999Z</time>
      </trkpt>
      <trkpt lat="50.46709" lon="1.75961">
        <ele>52</ele>
        <time>2021-08-10T15:33:47.999Z</time>
      </trkpt>
      <trkpt lat="50.46705" lon="1.75958">
        <ele>52</ele>
        <time>2021-08-10T15:33:52.999Z</time>
      </trkpt>
      <trkpt lat="50.46701" lon="1.75959">
        <ele>50</ele>
        <time>2021-08-10T15:33:57.999Z</time>
      </trkpt>
      <trkpt lat="50.46699" lon="1.75966">
        <ele>50</ele>
        <time>2021-08-10T15:34:02.999Z</time>
      </trkpt>
      <trkpt lat="50.46704" lon="1.75968">
        <ele>50</ele>
        <time>2021-08-10T15:34:07.999Z</time>
      </trkpt>
      <trkpt lat="50.46704" lon="1.75977">
        <ele>50</ele>
        <time>2021-08-10T15:34:12.999Z</time>
      </trkpt>
      <trkpt lat="50.46702" lon="1.75985">
        <ele>50</ele>
        <time>2021-08-10T15:34:17.999Z</time>
      </trkpt>
      <trkpt lat="50.46702" lon="1.75994">
        <ele>49</ele>
        <time>2021-08-10T15:34:22.999Z</time>
      </trkpt>
      <trkpt lat="50.46701" lon="1.76002">
        <ele>49</ele>
        <time>2021-08-10T15:34:27.999Z</time>
      </trkpt>
      <trkpt lat="50.46699" lon="1.76009">
        <ele>49</ele>
        <time>2021-08-10T15:34:32.999Z</time>
      </trkpt>
      <trkpt lat="50.46696" lon="1.76017">
        <ele>48</ele>
        <time>2021-08-10T15:34:37.999Z</time>
      </trkpt>
      <trkpt lat="50.46694" lon="1.76022">
        <ele>48</ele>
        <time>2021-08-10T15:34:41.999Z</time>
      </trkpt>
      <trkpt lat="50.46693" lon="1.76027">
        <ele>48</ele>
        <time>2021-08-10T15:34:45.999Z</time>
      </trkpt>
      <trkpt lat="50.46689" lon="1.76033">
        <ele>48</ele>
        <time>2021-08-10T15:34:50.999Z</time>
      </trkpt>
      <trkpt lat="50.46686" lon="1.76039">
        <ele>48</ele>
        <time>2021-08-10T15:34:55.999Z</time>
      </trkpt>
      <trkpt lat="50.46686" lon="1.76047">
        <ele>47</ele>
        <time>2021-08-10T15:35:00.999Z</time>
      </trkpt>
      <trkpt lat="50.46687" lon="1.76052">
        <ele>47</ele>
        <time>2021-08-10T15:35:04.999Z</time>
      </trkpt>
      <trkpt lat="50.46689" lon="1.76058">
        <ele>47</ele>
        <time>2021-08-10T15:35:09.999Z</time>
      </trkpt>
      <trkpt lat="50.46691" lon="1.76064">
        <ele>47</ele>
        <time>2021-08-10T15:35:13.999Z</time>
      </trkpt>
      <trkpt lat="50.46692" lon="1.76072">
        <ele>47</ele>
        <time>2021-08-10T15:35:18.999Z</time>
      </trkpt>
      <trkpt lat="50.46694" lon="1.76079">
        <ele>47</ele>
        <time>2021-08-10T15:35:22.999Z</time>
      </trkpt>
      <trkpt lat="50.46696" lon="1.76085">
        <ele>47</ele>
        <time>2021-08-10T15:35:28.117Z</time>
      </trkpt>
      <trkpt lat="50.46698" lon="1.76096">
        <ele>47</ele>
        <time>2021-08-10T15:35:32.999Z</time>
      </trkpt>
      <trkpt lat="50.467" lon="1.76102">
        <ele>48</ele>
        <time>2021-08-10T15:35:40.999Z</time>
      </trkpt>
      <trkpt lat="50.46698" lon="1.76104">
        <ele>48</ele>
        <time>2021-08-10T15:35:45.999Z</time>
      </trkpt>
      <trkpt lat="50.46696" lon="1.76103">
        <ele>48</ele>
        <time>2021-08-10T15:35:50.999Z</time>
      </trkpt>
      <trkpt lat="50.46693" lon="1.76102">
        <ele>48</ele>
        <time>2021-08-10T15:35:54.999Z</time>
      </trkpt>
      <trkpt lat="50.46691" lon="1.76111">
        <ele>48</ele>
        <time>2021-08-10T15:35:59.999Z</time>
      </trkpt>
      <trkpt lat="50.46691" lon="1.76116">
        <ele>48</ele>
        <time>2021-08-10T15:36:03.999Z</time>
      </trkpt>
      <trkpt lat="50.46691" lon="1.7612">
        <ele>48</ele>
        <time>2021-08-10T15:36:08.999Z</time>
      </trkpt>
      <trkpt lat="50.46692" lon="1.76129">
        <ele>47</ele>
        <time>2021-08-10T15:36:13.999Z</time>
      </trkpt>
      <trkpt lat="50.4669" lon="1.76138">
        <ele>47</ele>
        <time>2021-08-10T15:36:18.999Z</time>
      </trkpt>
      <trkpt lat="50.46692" lon="1.76147">
        <ele>47</ele>
        <time>2021-08-10T15:36:23.999Z</time>
      </trkpt>
      <trkpt lat="50.46697" lon="1.76151">
        <ele>47</ele>
        <time>2021-08-10T15:36:27.999Z</time>
      </trkpt>
      <trkpt lat="50.46701" lon="1.76155">
        <ele>48</ele>
        <time>2021-08-10T15:36:31.999Z</time>
      </trkpt>
      <trkpt lat="50.46706" lon="1.76161">
        <ele>48</ele>
        <time>2021-08-10T15:36:36.999Z</time>
      </trkpt>
      <trkpt lat="50.4671" lon="1.76165">
        <ele>46</ele>
        <time>2021-08-10T15:36:41.999Z</time>
      </trkpt>
      <trkpt lat="50.46711" lon="1.76171">
        <ele>46</ele>
        <time>2021-08-10T15:36:46.999Z</time>
      </trkpt>
      <trkpt lat="50.46712" lon="1.76181">
        <ele>44</ele>
        <time>2021-08-10T15:36:51.999Z</time>
      </trkpt>
      <trkpt lat="50.46712" lon="1.76189">
        <ele>44</ele>
        <time>2021-08-10T15:36:55.999Z</time>
      </trkpt>
      <trkpt lat="50.46712" lon="1.76196">
        <ele>44</ele>
        <time>2021-08-10T15:36:59.999Z</time>
      </trkpt>
      <trkpt lat="50.46711" lon="1.76203">
        <ele>44</ele>
        <time>2021-08-10T15:37:04.999Z</time>
      </trkpt>
      <trkpt lat="50.46711" lon="1.76209">
        <ele>41</ele>
        <time>2021-08-10T15:37:08.999Z</time>
      </trkpt>
      <trkpt lat="50.4671" lon="1.76217">
        <ele>41</ele>
        <time>2021-08-10T15:37:13.999Z</time>
      </trkpt>
      <trkpt lat="50.46711" lon="1.76226">
        <ele>41</ele>
        <time>2021-08-10T15:37:18.999Z</time>
      </trkpt>
      <trkpt lat="50.46714" lon="1.76233">
        <ele>41</ele>
        <time>2021-08-10T15:37:23.999Z</time>
      </trkpt>
      <trkpt lat="50.46718" lon="1.76239">
        <ele>39</ele>
        <time>2021-08-10T15:37:28.999Z</time>
      </trkpt>
      <trkpt lat="50.4672" lon="1.76244">
        <ele>39</ele>
        <time>2021-08-10T15:37:33.999Z</time>
      </trkpt>
      <trkpt lat="50.4672" lon="1.76244">
        <ele>39</ele>
        <time>2021-08-10T15:37:47.999Z</time>
      </trkpt>
      <trkpt lat="50.46718" lon="1.76245">
        <ele>39</ele>
        <time>2021-08-10T15:37:52.999Z</time>
      </trkpt>
      <trkpt lat="50.46715" lon="1.7625">
        <ele>39</ele>
        <time>2021-08-10T15:37:56.999Z</time>
      </trkpt>
      <trkpt lat="50.46714" lon="1.76256">
        <ele>39</ele>
        <time>2021-08-10T15:38:00.999Z</time>
      </trkpt>
      <trkpt lat="50.46712" lon="1.76263">
        <ele>39</ele>
        <time>2021-08-10T15:38:05.999Z</time>
      </trkpt>
      <trkpt lat="50.46709" lon="1.76268">
        <ele>36</ele>
        <time>2021-08-10T15:38:10.999Z</time>
      </trkpt>
      <trkpt lat="50.46708" lon="1.76275">
        <ele>41</ele>
        <time>2021-08-10T15:38:15.999Z</time>
      </trkpt>
      <trkpt lat="50.46706" lon="1.76281">
        <ele>41</ele>
        <time>2021-08-10T15:38:19.999Z</time>
      </trkpt>
      <trkpt lat="50.46704" lon="1.76289">
        <ele>41</ele>
        <time>2021-08-10T15:38:24.999Z</time>
      </trkpt>
      <trkpt lat="50.46703" lon="1.76297">
        <ele>38</ele>
        <time>2021-08-10T15:38:29.999Z</time>
      </trkpt>
      <trkpt lat="50.46701" lon="1.76303">
        <ele>38</ele>
        <time>2021-08-10T15:38:33.999Z</time>
      </trkpt>
      <trkpt lat="50.46696" lon="1.76308">
        <ele>38</ele>
        <time>2021-08-10T15:38:38.999Z</time>
      </trkpt>
      <trkpt lat="50.46693" lon="1.76308">
        <ele>38</ele>
        <time>2021-08-10T15:38:43.999Z</time>
      </trkpt>
      <trkpt lat="50.46691" lon="1.76308">
        <ele>38</ele>
        <time>2021-08-10T15:38:48.999Z</time>
      </trkpt>
      <trkpt lat="50.46687" lon="1.76307">
        <ele>38</ele>
        <time>2021-08-10T15:38:53.999Z</time>
      </trkpt>
      <trkpt lat="50.46685" lon="1.76313">
        <ele>38</ele>
        <time>2021-08-10T15:38:58.999Z</time>
      </trkpt>
      <trkpt lat="50.46682" lon="1.7632">
        <ele>36</ele>
        <time>2021-08-10T15:39:03.999Z</time>
      </trkpt>
      <trkpt lat="50.4668" lon="1.76327">
        <ele>39</ele>
        <time>2021-08-10T15:39:08.999Z</time>
      </trkpt>
      <trkpt lat="50.46678" lon="1.76333">
        <ele>39</ele>
        <time>2021-08-10T15:39:13.999Z</time>
      </trkpt>
      <trkpt lat="50.46676" lon="1.76341">
        <ele>39</ele>
        <time>2021-08-10T15:39:18.999Z</time>
      </trkpt>
      <trkpt lat="50.46674" lon="1.76347">
        <ele>39</ele>
        <time>2021-08-10T15:39:22.999Z</time>
      </trkpt>
      <trkpt lat="50.46672" lon="1.76355">
        <ele>36</ele>
        <time>2021-08-10T15:39:27.999Z</time>
      </trkpt>
      <trkpt lat="50.46671" lon="1.76361">
        <ele>36</ele>
        <time>2021-08-10T15:39:31.999Z</time>
      </trkpt>
      <trkpt lat="50.46669" lon="1.76367">
        <ele>36</ele>
        <time>2021-08-10T15:39:35.999Z</time>
      </trkpt>
      <trkpt lat="50.46666" lon="1.76374">
        <ele>36</ele>
        <time>2021-08-10T15:39:40.999Z</time>
      </trkpt>
      <trkpt lat="50.46663" lon="1.76381">
        <ele>34</ele>
        <time>2021-08-10T15:39:45.999Z</time>
      </trkpt>
      <trkpt lat="50.46661" lon="1.76389">
        <ele>34</ele>
        <time>2021-08-10T15:39:50.999Z</time>
      </trkpt>
      <trkpt lat="50.46659" lon="1.76396">
        <ele>34</ele>
        <time>2021-08-10T15:39:54.999Z</time>
      </trkpt>
      <trkpt lat="50.46655" lon="1.76405">
        <ele>32</ele>
        <time>2021-08-10T15:39:59.999Z</time>
      </trkpt>
      <trkpt lat="50.46654" lon="1.76412">
        <ele>32</ele>
        <time>2021-08-10T15:40:03.999Z</time>
      </trkpt>
      <trkpt lat="50.46651" lon="1.7642">
        <ele>37</ele>
        <time>2021-08-10T15:40:09.102Z</time>
      </trkpt>
      <trkpt lat="50.4665" lon="1.7642">
        <ele>37</ele>
        <time>2021-08-10T15:40:13.999Z</time>
      </trkpt>
      <trkpt lat="50.46644" lon="1.76417">
        <ele>37</ele>
        <time>2021-08-10T15:40:18.999Z</time>
      </trkpt>
      <trkpt lat="50.46642" lon="1.76415">
        <ele>37</ele>
        <time>2021-08-10T15:40:23.999Z</time>
      </trkpt>
      <trkpt lat="50.46642" lon="1.76415">
        <ele>37</ele>
        <time>2021-08-10T15:40:27.999Z</time>
      </trkpt>
      <trkpt lat="50.46647" lon="1.76421">
        <ele>37</ele>
        <time>2021-08-10T15:40:32.110Z</time>
      </trkpt>
      <trkpt lat="50.46648" lon="1.7643">
        <ele>37</ele>
        <time>2021-08-10T15:40:36.999Z</time>
      </trkpt>
      <trkpt lat="50.46647" lon="1.76435">
        <ele>34</ele>
        <time>2021-08-10T15:40:40.999Z</time>
      </trkpt>
      <trkpt lat="50.4664" lon="1.76434">
        <ele>34</ele>
        <time>2021-08-10T15:40:45.999Z</time>
      </trkpt>
      <trkpt lat="50.46634" lon="1.76438">
        <ele>34</ele>
        <time>2021-08-10T15:40:49.999Z</time>
      </trkpt>
      <trkpt lat="50.46637" lon="1.76449">
        <ele>34</ele>
        <time>2021-08-10T15:40:54.999Z</time>
      </trkpt>
      <trkpt lat="50.4664" lon="1.76457">
        <ele>34</ele>
        <time>2021-08-10T15:41:18.999Z</time>
      </trkpt>
      <trkpt lat="50.46644" lon="1.76463">
        <ele>36</ele>
        <time>2021-08-10T15:41:23.999Z</time>
      </trkpt>
      <trkpt lat="50.46644" lon="1.76465">
        <ele>36</ele>
        <time>2021-08-10T15:41:28.999Z</time>
      </trkpt>
      <trkpt lat="50.46647" lon="1.76474">
        <ele>36</ele>
        <time>2021-08-10T15:41:33.999Z</time>
      </trkpt>
      <trkpt lat="50.4665" lon="1.76483">
        <ele>36</ele>
        <time>2021-08-10T15:41:39.115Z</time>
      </trkpt>
      <trkpt lat="50.46653" lon="1.76495">
        <ele>36</ele>
        <time>2021-08-10T15:41:43.999Z</time>
      </trkpt>
      <trkpt lat="50.46653" lon="1.76505">
        <ele>29</ele>
        <time>2021-08-10T15:41:48.999Z</time>
      </trkpt>
      <trkpt lat="50.46655" lon="1.76516">
        <ele>30</ele>
        <time>2021-08-10T15:41:53.999Z</time>
      </trkpt>
      <trkpt lat="50.46658" lon="1.76525">
        <ele>30</ele>
        <time>2021-08-10T15:41:58.999Z</time>
      </trkpt>
      <trkpt lat="50.46664" lon="1.76527">
        <ele>30</ele>
        <time>2021-08-10T15:42:03.999Z</time>
      </trkpt>
      <trkpt lat="50.46669" lon="1.76532">
        <ele>30</ele>
        <time>2021-08-10T15:42:08.999Z</time>
      </trkpt>
      <trkpt lat="50.46671" lon="1.76528">
        <ele>30</ele>
        <time>2021-08-10T15:42:13.999Z</time>
      </trkpt>
      <trkpt lat="50.46671" lon="1.76518">
        <ele>30</ele>
        <time>2021-08-10T15:42:18.999Z</time>
      </trkpt>
      <trkpt lat="50.46672" lon="1.76508">
        <ele>29</ele>
        <time>2021-08-10T15:42:23.999Z</time>
      </trkpt>
      <trkpt lat="50.46672" lon="1.765">
        <ele>29</ele>
        <time>2021-08-10T15:42:27.999Z</time>
      </trkpt>
      <trkpt lat="50.46673" lon="1.76493">
        <ele>29</ele>
        <time>2021-08-10T15:42:31.999Z</time>
      </trkpt>
      <trkpt lat="50.46676" lon="1.76485">
        <ele>30</ele>
        <time>2021-08-10T15:42:36.999Z</time>
      </trkpt>
      <trkpt lat="50.46682" lon="1.76483">
        <ele>25</ele>
        <time>2021-08-10T15:42:41.999Z</time>
      </trkpt>
      <trkpt lat="50.46687" lon="1.76483">
        <ele>25</ele>
        <time>2021-08-10T15:42:45.999Z</time>
      </trkpt>
      <trkpt lat="50.46693" lon="1.76482">
        <ele>25</ele>
        <time>2021-08-10T15:42:50.999Z</time>
      </trkpt>
      <trkpt lat="50.46697" lon="1.76478">
        <ele>25</ele>
        <time>2021-08-10T15:42:55.999Z</time>
      </trkpt>
      <trkpt lat="50.46702" lon="1.76478">
        <ele>25</ele>
        <time>2021-08-10T15:43:00.999Z</time>
      </trkpt>
      <trkpt lat="50.46709" lon="1.76479">
        <ele>20</ele>
        <time>2021-08-10T15:43:05.999Z</time>
      </trkpt>
      <trkpt lat="50.46714" lon="1.76481">
        <ele>20</ele>
        <time>2021-08-10T15:43:10.999Z</time>
      </trkpt>
      <trkpt lat="50.46718" lon="1.76481">
        <ele>20</ele>
        <time>2021-08-10T15:43:14.999Z</time>
      </trkpt>
      <trkpt lat="50.46724" lon="1.76482">
        <ele>20</ele>
        <time>2021-08-10T15:43:19.999Z</time>
      </trkpt>
      <trkpt lat="50.46729" lon="1.76483">
        <ele>20</ele>
        <time>2021-08-10T15:43:23.999Z</time>
      </trkpt>
      <trkpt lat="50.46735" lon="1.76483">
        <ele>20</ele>
        <time>2021-08-10T15:43:29.107Z</time>
      </trkpt>
      <trkpt lat="50.4674" lon="1.76485">
        <ele>16</ele>
        <time>2021-08-10T15:43:33.999Z</time>
      </trkpt>
      <trkpt lat="50.46745" lon="1.76488">
        <ele>14</ele>
        <time>2021-08-10T15:43:38.999Z</time>
      </trkpt>
      <trkpt lat="50.46748" lon="1.7649">
        <ele>14</ele>
        <time>2021-08-10T15:43:42.999Z</time>
      </trkpt>
      <trkpt lat="50.46753" lon="1.76494">
        <ele>14</ele>
        <time>2021-08-10T15:43:47.999Z</time>
      </trkpt>
      <trkpt lat="50.46758" lon="1.76498">
        <ele>14</ele>
        <time>2021-08-10T15:43:52.999Z</time>
      </trkpt>
      <trkpt lat="50.46763" lon="1.765">
        <ele>14</ele>
        <time>2021-08-10T15:43:56.999Z</time>
      </trkpt>
      <trkpt lat="50.46766" lon="1.76501">
        <ele>10</ele>
        <time>2021-08-10T15:44:01.999Z</time>
      </trkpt>
      <trkpt lat="50.46769" lon="1.76502">
        <ele>10</ele>
        <time>2021-08-10T15:44:05.999Z</time>
      </trkpt>
      <trkpt lat="50.46774" lon="1.76506">
        <ele>10</ele>
        <time>2021-08-10T15:44:10.999Z</time>
      </trkpt>
      <trkpt lat="50.46779" lon="1.76507">
        <ele>10</ele>
        <time>2021-08-10T15:44:14.999Z</time>
      </trkpt>
      <trkpt lat="50.46782" lon="1.76513">
        <ele>10</ele>
        <time>2021-08-10T15:44:18.999Z</time>
      </trkpt>
      <trkpt lat="50.46786" lon="1.7652">
        <ele>11</ele>
        <time>2021-08-10T15:44:23.999Z</time>
      </trkpt>
      <trkpt lat="50.4679" lon="1.76526">
        <ele>11</ele>
        <time>2021-08-10T15:44:28.999Z</time>
      </trkpt>
      <trkpt lat="50.46795" lon="1.76531">
        <ele>9</ele>
        <time>2021-08-10T15:44:33.999Z</time>
      </trkpt>
      <trkpt lat="50.468" lon="1.76536">
        <ele>9</ele>
        <time>2021-08-10T15:44:38.999Z</time>
      </trkpt>
      <trkpt lat="50.46803" lon="1.7654">
        <ele>9</ele>
        <time>2021-08-10T15:44:42.999Z</time>
      </trkpt>
      <trkpt lat="50.46808" lon="1.76545">
        <ele>7</ele>
        <time>2021-08-10T15:44:47.999Z</time>
      </trkpt>
      <trkpt lat="50.46809" lon="1.76544">
        <ele>7</ele>
        <time>2021-08-10T15:44:52.999Z</time>
      </trkpt>
      <trkpt lat="50.46809" lon="1.76547">
        <ele>7</ele>
        <time>2021-08-10T15:45:29.999Z</time>
      </trkpt>
      <trkpt lat="50.46812" lon="1.76552">
        <ele>7</ele>
        <time>2021-08-10T15:45:33.999Z</time>
      </trkpt>
      <trkpt lat="50.46817" lon="1.76557">
        <ele>7</ele>
        <time>2021-08-10T15:45:38.999Z</time>
      </trkpt>
      <trkpt lat="50.46819" lon="1.76567">
        <ele>7</ele>
        <time>2021-08-10T15:45:43.999Z</time>
      </trkpt>
      <trkpt lat="50.4682" lon="1.76576">
        <ele>6</ele>
        <time>2021-08-10T15:45:47.999Z</time>
      </trkpt>
      <trkpt lat="50.4682" lon="1.76586">
        <ele>6</ele>
        <time>2021-08-10T15:45:52.999Z</time>
      </trkpt>
      <trkpt lat="50.46819" lon="1.76595">
        <ele>7</ele>
        <time>2021-08-10T15:45:57.999Z</time>
      </trkpt>
      <trkpt lat="50.46818" lon="1.76603">
        <ele>8</ele>
        <time>2021-08-10T15:46:01.999Z</time>
      </trkpt>
      <trkpt lat="50.46817" lon="1.76612">
        <ele>8</ele>
        <time>2021-08-10T15:46:06.999Z</time>
      </trkpt>
      <trkpt lat="50.46815" lon="1.76622">
        <ele>8</ele>
        <time>2021-08-10T15:46:11.999Z</time>
      </trkpt>
      <trkpt lat="50.46812" lon="1.76632">
        <ele>8</ele>
        <time>2021-08-10T15:46:16.999Z</time>
      </trkpt>
      <trkpt lat="50.46809" lon="1.76641">
        <ele>8</ele>
        <time>2021-08-10T15:46:21.999Z</time>
      </trkpt>
      <trkpt lat="50.46807" lon="1.76647">
        <ele>8</ele>
        <time>2021-08-10T15:46:25.999Z</time>
      </trkpt>
      <trkpt lat="50.46803" lon="1.76655">
        <ele>8</ele>
        <time>2021-08-10T15:46:30.999Z</time>
      </trkpt>
      <trkpt lat="50.46799" lon="1.76661">
        <ele>8</ele>
        <time>2021-08-10T15:46:34.999Z</time>
      </trkpt>
      <trkpt lat="50.46796" lon="1.76669">
        <ele>8</ele>
        <time>2021-08-10T15:46:39.999Z</time>
      </trkpt>
      <trkpt lat="50.46792" lon="1.76678">
        <ele>8</ele>
        <time>2021-08-10T15:46:44.999Z</time>
      </trkpt>
      <trkpt lat="50.46783" lon="1.76681">
        <ele>10</ele>
        <time>2021-08-10T15:47:01.999Z</time>
      </trkpt>
      <trkpt lat="50.46783" lon="1.76681">
        <ele>10</ele>
        <time>2021-08-10T15:47:06.999Z</time>
      </trkpt>
      <trkpt lat="50.46779" lon="1.76682">
        <ele>10</ele>
        <time>2021-08-10T15:47:11.999Z</time>
      </trkpt>
      <trkpt lat="50.46778" lon="1.76686">
        <ele>10</ele>
        <time>2021-08-10T15:47:16.999Z</time>
      </trkpt>
      <trkpt lat="50.46776" lon="1.76684">
        <ele>10</ele>
        <time>2021-08-10T15:47:20.999Z</time>
      </trkpt>
      <trkpt lat="50.46776" lon="1.76685">
        <ele>10</ele>
        <time>2021-08-10T15:47:24.999Z</time>
      </trkpt>
      <trkpt lat="50.46774" lon="1.76691">
        <ele>10</ele>
        <time>2021-08-10T15:47:29.999Z</time>
      </trkpt>
      <trkpt lat="50.46783" lon="1.76702">
        <ele>10</ele>
        <time>2021-08-10T15:47:33.999Z</time>
      </trkpt>
      <trkpt lat="50.46778" lon="1.76709">
        <ele>9</ele>
        <time>2021-08-10T15:47:38.999Z</time>
      </trkpt>
      <trkpt lat="50.46774" lon="1.76714">
        <ele>9</ele>
        <time>2021-08-10T15:47:42.999Z</time>
      </trkpt>
      <trkpt lat="50.46771" lon="1.76722">
        <ele>9</ele>
        <time>2021-08-10T15:47:46.999Z</time>
      </trkpt>
      <trkpt lat="50.46768" lon="1.7673">
        <ele>9</ele>
        <time>2021-08-10T15:47:51.999Z</time>
      </trkpt>
      <trkpt lat="50.46765" lon="1.76738">
        <ele>8</ele>
        <time>2021-08-10T15:47:56.999Z</time>
      </trkpt>
      <trkpt lat="50.46761" lon="1.76746">
        <ele>10</ele>
        <time>2021-08-10T15:48:01.999Z</time>
      </trkpt>
      <trkpt lat="50.46759" lon="1.76753">
        <ele>10</ele>
        <time>2021-08-10T15:48:05.999Z</time>
      </trkpt>
      <trkpt lat="50.46764" lon="1.7676">
        <ele>10</ele>
        <time>2021-08-10T15:48:10.999Z</time>
      </trkpt>
      <trkpt lat="50.46769" lon="1.76765">
        <ele>7</ele>
        <time>2021-08-10T15:48:15.999Z</time>
      </trkpt>
      <trkpt lat="50.46774" lon="1.76769">
        <ele>7</ele>
        <time>2021-08-10T15:48:20.999Z</time>
      </trkpt>
      <trkpt lat="50.4678" lon="1.76774">
        <ele>7</ele>
        <time>2021-08-10T15:48:25.999Z</time>
      </trkpt>
      <trkpt lat="50.46785" lon="1.7678">
        <ele>7</ele>
        <time>2021-08-10T15:48:30.999Z</time>
      </trkpt>
      <trkpt lat="50.46788" lon="1.76781">
        <ele>7</ele>
        <time>2021-08-10T15:48:35.999Z</time>
      </trkpt>
      <trkpt lat="50.46791" lon="1.76786">
        <ele>7</ele>
        <time>2021-08-10T15:48:39.999Z</time>
      </trkpt>
      <trkpt lat="50.46793" lon="1.76793">
        <ele>6</ele>
        <time>2021-08-10T15:48:44.999Z</time>
      </trkpt>
      <trkpt lat="50.46786" lon="1.76798">
        <ele>7</ele>
        <time>2021-08-10T15:48:49.999Z</time>
      </trkpt>
      <trkpt lat="50.46785" lon="1.76797">
        <ele>7</ele>
        <time>2021-08-10T15:48:54.999Z</time>
      </trkpt>
      <trkpt lat="50.46784" lon="1.76797">
        <ele>7</ele>
        <time>2021-08-10T15:48:58.999Z</time>
      </trkpt>
      <trkpt lat="50.4678" lon="1.76792">
        <ele>7</ele>
        <time>2021-08-10T15:49:03.999Z</time>
      </trkpt>
      <trkpt lat="50.46779" lon="1.76792">
        <ele>7</ele>
        <time>2021-08-10T15:49:07.999Z</time>
      </trkpt>
      <trkpt lat="50.46774" lon="1.76787">
        <ele>7</ele>
        <time>2021-08-10T15:49:12.999Z</time>
      </trkpt>
      <trkpt lat="50.4677" lon="1.76784">
        <ele>7</ele>
        <time>2021-08-10T15:49:16.999Z</time>
      </trkpt>
      <trkpt lat="50.46766" lon="1.7679">
        <ele>7</ele>
        <time>2021-08-10T15:49:21.999Z</time>
      </trkpt>
      <trkpt lat="50.46762" lon="1.76791">
        <ele>9</ele>
        <time>2021-08-10T15:49:26.999Z</time>
      </trkpt>
      <trkpt lat="50.46758" lon="1.76792">
        <ele>9</ele>
        <time>2021-08-10T15:49:31.999Z</time>
      </trkpt>
    </trkseg>
  </trk>
</gpx>